<?xml version="1.0" encoding="UTF-8" standalone="no" ?>
<gpx xmlns="http://www.topografix.com/GPX/1/1" xmlns:xsi="http://www.w3.org/2001/XMLSchema-instance" xsi:schemaLocation="http://www.topografix.com/GPX/1/1 http://www.topografix.com/GPX/1/1/gpx.xsd" version="1.1" creator="VisuGPX - https://www.visugpx.com">
  <metadata>
    <name>64 - PEDESTRE - Laruns à Gabas - GR 108 entretien balisage</name>
    <desc><![CDATA[Entretien balisage du GR 108]]></desc>
  </metadata>
  <wpt lat="42.98809" lon="-0.42615">
    <ele>529.08728</ele>
    <name><![CDATA[003]]></name>
    <desc><![CDATA[20-MAR-12 10:29:09]]></desc>
  </wpt>
  <wpt lat="42.97422" lon="-0.43209">
    <ele>598.541992</ele>
    <name><![CDATA[004]]></name>
    <desc><![CDATA[20-MAR-12 11:20:45]]></desc>
  </wpt>
  <wpt lat="42.96986" lon="-0.43857">
    <ele>606.713135</ele>
    <name><![CDATA[005]]></name>
    <desc><![CDATA[20-MAR-12 11:48:58]]></desc>
  </wpt>
  <wpt lat="42.9361" lon="-0.44383">
    <ele>742.017578</ele>
    <name><![CDATA[006]]></name>
    <desc><![CDATA[20-MAR-12 14:07:25]]></desc>
  </wpt>
  <wpt lat="42.88687" lon="-0.42633">
    <ele>1053.001953</ele>
    <name><![CDATA[007]]></name>
    <desc><![CDATA[20-MAR-12 16:40:15]]></desc>
  </wpt>
  <trk>
    <name><![CDATA[ACTIVE LOG 009]]></name>
    <trkseg>
      <trkpt lat="42.98808" lon="-0.42614">
        <ele>528.862549</ele>
        <time>2012-03-20T09:28:55Z</time>
      </trkpt>
      <trkpt lat="42.98808" lon="-0.42614">
        <ele>529.34314</ele>
        <time>2012-03-20T09:28:56Z</time>
      </trkpt>
      <trkpt lat="42.98808" lon="-0.42614">
        <ele>529.34314</ele>
        <time>2012-03-20T09:28:57Z</time>
      </trkpt>
      <trkpt lat="42.98805" lon="-0.42623">
        <ele>528.862549</ele>
        <time>2012-03-20T09:29:29Z</time>
      </trkpt>
      <trkpt lat="42.98803" lon="-0.42623">
        <ele>528.381836</ele>
        <time>2012-03-20T09:29:30Z</time>
      </trkpt>
      <trkpt lat="42.98794" lon="-0.42621">
        <ele>528.862549</ele>
        <time>2012-03-20T09:29:37Z</time>
      </trkpt>
      <trkpt lat="42.98789" lon="-0.4262">
        <ele>528.381836</ele>
        <time>2012-03-20T09:29:50Z</time>
      </trkpt>
      <trkpt lat="42.98796" lon="-0.42631">
        <ele>528.381836</ele>
        <time>2012-03-20T09:30:01Z</time>
      </trkpt>
      <trkpt lat="42.98799" lon="-0.4264">
        <ele>528.862549</ele>
        <time>2012-03-20T09:30:09Z</time>
      </trkpt>
      <trkpt lat="42.98787" lon="-0.42647">
        <ele>529.82373</ele>
        <time>2012-03-20T09:30:23Z</time>
      </trkpt>
      <trkpt lat="42.98779" lon="-0.42653">
        <ele>528.862549</ele>
        <time>2012-03-20T09:30:31Z</time>
      </trkpt>
      <trkpt lat="42.98763" lon="-0.4265">
        <ele>529.34314</ele>
        <time>2012-03-20T09:30:44Z</time>
      </trkpt>
      <trkpt lat="42.98748" lon="-0.42649">
        <ele>529.34314</ele>
        <time>2012-03-20T09:30:58Z</time>
      </trkpt>
      <trkpt lat="42.98731" lon="-0.42654">
        <ele>529.34314</ele>
        <time>2012-03-20T09:31:10Z</time>
      </trkpt>
      <trkpt lat="42.98714" lon="-0.42661">
        <ele>529.82373</ele>
        <time>2012-03-20T09:31:24Z</time>
      </trkpt>
      <trkpt lat="42.98696" lon="-0.42666">
        <ele>530.785156</ele>
        <time>2012-03-20T09:31:39Z</time>
      </trkpt>
      <trkpt lat="42.98683" lon="-0.4268">
        <ele>531.265747</ele>
        <time>2012-03-20T09:31:53Z</time>
      </trkpt>
      <trkpt lat="42.98678" lon="-0.42684">
        <ele>531.265747</ele>
        <time>2012-03-20T09:31:57Z</time>
      </trkpt>
      <trkpt lat="42.98672" lon="-0.42684">
        <ele>531.746338</ele>
        <time>2012-03-20T09:32:01Z</time>
      </trkpt>
      <trkpt lat="42.98663" lon="-0.42687">
        <ele>532.227051</ele>
        <time>2012-03-20T09:32:07Z</time>
      </trkpt>
      <trkpt lat="42.98653" lon="-0.4269">
        <ele>532.227051</ele>
        <time>2012-03-20T09:32:14Z</time>
      </trkpt>
      <trkpt lat="42.98629" lon="-0.42696">
        <ele>532.707764</ele>
        <time>2012-03-20T09:32:30Z</time>
      </trkpt>
      <trkpt lat="42.98605" lon="-0.4271">
        <ele>532.707764</ele>
        <time>2012-03-20T09:32:50Z</time>
      </trkpt>
      <trkpt lat="42.98579" lon="-0.42722">
        <ele>533.188354</ele>
        <time>2012-03-20T09:33:10Z</time>
      </trkpt>
      <trkpt lat="42.98548" lon="-0.42732">
        <ele>533.188354</ele>
        <time>2012-03-20T09:33:33Z</time>
      </trkpt>
      <trkpt lat="42.98513" lon="-0.42745">
        <ele>532.707764</ele>
        <time>2012-03-20T09:33:59Z</time>
      </trkpt>
      <trkpt lat="42.98482" lon="-0.4276">
        <ele>531.265747</ele>
        <time>2012-03-20T09:34:24Z</time>
      </trkpt>
      <trkpt lat="42.98476" lon="-0.42762">
        <ele>532.227051</ele>
        <time>2012-03-20T09:34:41Z</time>
      </trkpt>
      <trkpt lat="42.98477" lon="-0.42755">
        <ele>532.227051</ele>
        <time>2012-03-20T09:34:52Z</time>
      </trkpt>
      <trkpt lat="42.98476" lon="-0.4275">
        <ele>531.265747</ele>
        <time>2012-03-20T09:35:12Z</time>
      </trkpt>
      <trkpt lat="42.98476" lon="-0.42752">
        <ele>530.304443</ele>
        <time>2012-03-20T09:35:27Z</time>
      </trkpt>
      <trkpt lat="42.98484" lon="-0.42751">
        <ele>530.304443</ele>
        <time>2012-03-20T09:35:41Z</time>
      </trkpt>
      <trkpt lat="42.98472" lon="-0.42747">
        <ele>529.82373</ele>
        <time>2012-03-20T09:36:00Z</time>
      </trkpt>
      <trkpt lat="42.98474" lon="-0.42747">
        <ele>530.304443</ele>
        <time>2012-03-20T09:36:21Z</time>
      </trkpt>
      <trkpt lat="42.98473" lon="-0.42746">
        <ele>530.304443</ele>
        <time>2012-03-20T09:36:58Z</time>
      </trkpt>
      <trkpt lat="42.98473" lon="-0.42749">
        <ele>530.304443</ele>
        <time>2012-03-20T09:37:18Z</time>
      </trkpt>
      <trkpt lat="42.98471" lon="-0.42748">
        <ele>529.82373</ele>
        <time>2012-03-20T09:37:51Z</time>
      </trkpt>
      <trkpt lat="42.98471" lon="-0.42746">
        <ele>529.34314</ele>
        <time>2012-03-20T09:38:25Z</time>
      </trkpt>
      <trkpt lat="42.98471" lon="-0.42746">
        <ele>528.381836</ele>
        <time>2012-03-20T09:38:45Z</time>
      </trkpt>
      <trkpt lat="42.98473" lon="-0.42743">
        <ele>529.82373</ele>
        <time>2012-03-20T09:39:13Z</time>
      </trkpt>
      <trkpt lat="42.98472" lon="-0.42744">
        <ele>529.34314</ele>
        <time>2012-03-20T09:39:48Z</time>
      </trkpt>
      <trkpt lat="42.98471" lon="-0.42742">
        <ele>529.34314</ele>
        <time>2012-03-20T09:40:18Z</time>
      </trkpt>
      <trkpt lat="42.9847" lon="-0.42741">
        <ele>529.82373</ele>
        <time>2012-03-20T09:40:43Z</time>
      </trkpt>
      <trkpt lat="42.98473" lon="-0.42746">
        <ele>529.82373</ele>
        <time>2012-03-20T09:41:20Z</time>
      </trkpt>
      <trkpt lat="42.98472" lon="-0.42748">
        <ele>529.82373</ele>
        <time>2012-03-20T09:42:15Z</time>
      </trkpt>
      <trkpt lat="42.98471" lon="-0.42746">
        <ele>530.785156</ele>
        <time>2012-03-20T09:42:43Z</time>
      </trkpt>
      <trkpt lat="42.98471" lon="-0.42747">
        <ele>530.785156</ele>
        <time>2012-03-20T09:43:15Z</time>
      </trkpt>
      <trkpt lat="42.98473" lon="-0.42749">
        <ele>530.785156</ele>
        <time>2012-03-20T09:43:27Z</time>
      </trkpt>
      <trkpt lat="42.98472" lon="-0.42759">
        <ele>531.746338</ele>
        <time>2012-03-20T09:43:34Z</time>
      </trkpt>
      <trkpt lat="42.98441" lon="-0.4277">
        <ele>531.746338</ele>
        <time>2012-03-20T09:43:58Z</time>
      </trkpt>
      <trkpt lat="42.98427" lon="-0.42776">
        <ele>532.227051</ele>
        <time>2012-03-20T09:44:12Z</time>
      </trkpt>
      <trkpt lat="42.98404" lon="-0.42784">
        <ele>532.707764</ele>
        <time>2012-03-20T09:44:30Z</time>
      </trkpt>
      <trkpt lat="42.98373" lon="-0.4279">
        <ele>531.746338</ele>
        <time>2012-03-20T09:44:53Z</time>
      </trkpt>
      <trkpt lat="42.98358" lon="-0.4279">
        <ele>530.785156</ele>
        <time>2012-03-20T09:45:07Z</time>
      </trkpt>
      <trkpt lat="42.9835" lon="-0.42795">
        <ele>530.785156</ele>
        <time>2012-03-20T09:45:16Z</time>
      </trkpt>
      <trkpt lat="42.98344" lon="-0.42798">
        <ele>530.304443</ele>
        <time>2012-03-20T09:45:21Z</time>
      </trkpt>
      <trkpt lat="42.9833" lon="-0.42802">
        <ele>530.304443</ele>
        <time>2012-03-20T09:45:31Z</time>
      </trkpt>
      <trkpt lat="42.98325" lon="-0.42804">
        <ele>529.82373</ele>
        <time>2012-03-20T09:45:36Z</time>
      </trkpt>
      <trkpt lat="42.98319" lon="-0.42806">
        <ele>529.82373</ele>
        <time>2012-03-20T09:45:41Z</time>
      </trkpt>
      <trkpt lat="42.98282" lon="-0.42808">
        <ele>532.707764</ele>
        <time>2012-03-20T09:46:08Z</time>
      </trkpt>
      <trkpt lat="42.98266" lon="-0.42784">
        <ele>534.149658</ele>
        <time>2012-03-20T09:46:27Z</time>
      </trkpt>
      <trkpt lat="42.98254" lon="-0.42747">
        <ele>536.072388</ele>
        <time>2012-03-20T09:46:51Z</time>
      </trkpt>
      <trkpt lat="42.98247" lon="-0.42735">
        <ele>538.475708</ele>
        <time>2012-03-20T09:47:00Z</time>
      </trkpt>
      <trkpt lat="42.98235" lon="-0.42721">
        <ele>539.43689</ele>
        <time>2012-03-20T09:47:14Z</time>
      </trkpt>
      <trkpt lat="42.98219" lon="-0.42706">
        <ele>542.320923</ele>
        <time>2012-03-20T09:47:30Z</time>
      </trkpt>
      <trkpt lat="42.98212" lon="-0.42698">
        <ele>542.320923</ele>
        <time>2012-03-20T09:47:46Z</time>
      </trkpt>
      <trkpt lat="42.98211" lon="-0.42701">
        <ele>541.84021</ele>
        <time>2012-03-20T09:48:06Z</time>
      </trkpt>
      <trkpt lat="42.98212" lon="-0.42702">
        <ele>541.359497</ele>
        <time>2012-03-20T09:48:32Z</time>
      </trkpt>
      <trkpt lat="42.98211" lon="-0.42702">
        <ele>541.84021</ele>
        <time>2012-03-20T09:48:50Z</time>
      </trkpt>
      <trkpt lat="42.98212" lon="-0.42698">
        <ele>541.84021</ele>
        <time>2012-03-20T09:48:53Z</time>
      </trkpt>
      <trkpt lat="42.98203" lon="-0.42669">
        <ele>544.724243</ele>
        <time>2012-03-20T09:49:14Z</time>
      </trkpt>
      <trkpt lat="42.98196" lon="-0.42642">
        <ele>546.16626</ele>
        <time>2012-03-20T09:49:31Z</time>
      </trkpt>
      <trkpt lat="42.98191" lon="-0.42628">
        <ele>546.646851</ele>
        <time>2012-03-20T09:49:41Z</time>
      </trkpt>
      <trkpt lat="42.98188" lon="-0.42623">
        <ele>547.608154</ele>
        <time>2012-03-20T09:49:46Z</time>
      </trkpt>
      <trkpt lat="42.98184" lon="-0.42619">
        <ele>548.088867</ele>
        <time>2012-03-20T09:49:50Z</time>
      </trkpt>
      <trkpt lat="42.98174" lon="-0.42611">
        <ele>549.050049</ele>
        <time>2012-03-20T09:50:01Z</time>
      </trkpt>
      <trkpt lat="42.98166" lon="-0.42607">
        <ele>550.492188</ele>
        <time>2012-03-20T09:50:08Z</time>
      </trkpt>
      <trkpt lat="42.98151" lon="-0.42601">
        <ele>554.337402</ele>
        <time>2012-03-20T09:50:22Z</time>
      </trkpt>
      <trkpt lat="42.98136" lon="-0.42592">
        <ele>556.740723</ele>
        <time>2012-03-20T09:50:37Z</time>
      </trkpt>
      <trkpt lat="42.98133" lon="-0.42591">
        <ele>557.221436</ele>
        <time>2012-03-20T09:50:52Z</time>
      </trkpt>
      <trkpt lat="42.98123" lon="-0.42587">
        <ele>559.144043</ele>
        <time>2012-03-20T09:51:09Z</time>
      </trkpt>
      <trkpt lat="42.98114" lon="-0.42582">
        <ele>560.585938</ele>
        <time>2012-03-20T09:51:19Z</time>
      </trkpt>
      <trkpt lat="42.9811" lon="-0.42581">
        <ele>562.028076</ele>
        <time>2012-03-20T09:51:22Z</time>
      </trkpt>
      <trkpt lat="42.98108" lon="-0.4258">
        <ele>562.028076</ele>
        <time>2012-03-20T09:51:25Z</time>
      </trkpt>
      <trkpt lat="42.98095" lon="-0.4257">
        <ele>563.469971</ele>
        <time>2012-03-20T09:51:36Z</time>
      </trkpt>
      <trkpt lat="42.98089" lon="-0.42569">
        <ele>563.950439</ele>
        <time>2012-03-20T09:51:41Z</time>
      </trkpt>
      <trkpt lat="42.98073" lon="-0.42562">
        <ele>566.834473</ele>
        <time>2012-03-20T09:51:57Z</time>
      </trkpt>
      <trkpt lat="42.98061" lon="-0.4256">
        <ele>568.75708</ele>
        <time>2012-03-20T09:52:09Z</time>
      </trkpt>
      <trkpt lat="42.98041" lon="-0.42557">
        <ele>569.718506</ele>
        <time>2012-03-20T09:52:25Z</time>
      </trkpt>
      <trkpt lat="42.98035" lon="-0.42557">
        <ele>572.121826</ele>
        <time>2012-03-20T09:52:30Z</time>
      </trkpt>
      <trkpt lat="42.9802" lon="-0.42556">
        <ele>575.486328</ele>
        <time>2012-03-20T09:52:45Z</time>
      </trkpt>
      <trkpt lat="42.98005" lon="-0.42556">
        <ele>577.889648</ele>
        <time>2012-03-20T09:53:01Z</time>
      </trkpt>
      <trkpt lat="42.97985" lon="-0.42554">
        <ele>580.292969</ele>
        <time>2012-03-20T09:53:19Z</time>
      </trkpt>
      <trkpt lat="42.97976" lon="-0.4256">
        <ele>583.176758</ele>
        <time>2012-03-20T09:53:33Z</time>
      </trkpt>
      <trkpt lat="42.97969" lon="-0.42564">
        <ele>585.099609</ele>
        <time>2012-03-20T09:53:43Z</time>
      </trkpt>
      <trkpt lat="42.97959" lon="-0.42571">
        <ele>587.983398</ele>
        <time>2012-03-20T09:53:56Z</time>
      </trkpt>
      <trkpt lat="42.97943" lon="-0.42581">
        <ele>591.348145</ele>
        <time>2012-03-20T09:54:14Z</time>
      </trkpt>
      <trkpt lat="42.97927" lon="-0.42589">
        <ele>592.790283</ele>
        <time>2012-03-20T09:54:30Z</time>
      </trkpt>
      <trkpt lat="42.97915" lon="-0.42601">
        <ele>596.154785</ele>
        <time>2012-03-20T09:54:46Z</time>
      </trkpt>
      <trkpt lat="42.97905" lon="-0.4261">
        <ele>599.519287</ele>
        <time>2012-03-20T09:55:00Z</time>
      </trkpt>
      <trkpt lat="42.97895" lon="-0.42619">
        <ele>600.480713</ele>
        <time>2012-03-20T09:55:14Z</time>
      </trkpt>
      <trkpt lat="42.97883" lon="-0.42629">
        <ele>603.364502</ele>
        <time>2012-03-20T09:55:28Z</time>
      </trkpt>
      <trkpt lat="42.97869" lon="-0.42632">
        <ele>605.768066</ele>
        <time>2012-03-20T09:55:43Z</time>
      </trkpt>
      <trkpt lat="42.97856" lon="-0.42636">
        <ele>608.171387</ele>
        <time>2012-03-20T09:55:58Z</time>
      </trkpt>
      <trkpt lat="42.97846" lon="-0.4264">
        <ele>610.09375</ele>
        <time>2012-03-20T09:56:09Z</time>
      </trkpt>
      <trkpt lat="42.97842" lon="-0.42647">
        <ele>611.055176</ele>
        <time>2012-03-20T09:56:21Z</time>
      </trkpt>
      <trkpt lat="42.97839" lon="-0.42651">
        <ele>612.977783</ele>
        <time>2012-03-20T09:56:36Z</time>
      </trkpt>
      <trkpt lat="42.97837" lon="-0.42664">
        <ele>613.458496</ele>
        <time>2012-03-20T09:56:59Z</time>
      </trkpt>
      <trkpt lat="42.97828" lon="-0.42665">
        <ele>614.900391</ele>
        <time>2012-03-20T09:57:11Z</time>
      </trkpt>
      <trkpt lat="42.97821" lon="-0.42666">
        <ele>617.78418</ele>
        <time>2012-03-20T09:57:19Z</time>
      </trkpt>
      <trkpt lat="42.97805" lon="-0.42665">
        <ele>620.668457</ele>
        <time>2012-03-20T09:57:33Z</time>
      </trkpt>
      <trkpt lat="42.97805" lon="-0.42664">
        <ele>620.187744</ele>
        <time>2012-03-20T09:57:45Z</time>
      </trkpt>
      <trkpt lat="42.97808" lon="-0.42665">
        <ele>620.668457</ele>
        <time>2012-03-20T09:57:55Z</time>
      </trkpt>
      <trkpt lat="42.97805" lon="-0.42677">
        <ele>621.14917</ele>
        <time>2012-03-20T09:58:57Z</time>
      </trkpt>
      <trkpt lat="42.97811" lon="-0.42685">
        <ele>624.513672</ele>
        <time>2012-03-20T10:00:17Z</time>
      </trkpt>
      <trkpt lat="42.97806" lon="-0.42675">
        <ele>624.994385</ele>
        <time>2012-03-20T10:01:42Z</time>
      </trkpt>
      <trkpt lat="42.97802" lon="-0.42673">
        <ele>628.358887</ele>
        <time>2012-03-20T10:03:08Z</time>
      </trkpt>
      <trkpt lat="42.97801" lon="-0.4267">
        <ele>627.397705</ele>
        <time>2012-03-20T10:03:12Z</time>
      </trkpt>
      <trkpt lat="42.97811" lon="-0.42676">
        <ele>627.397705</ele>
        <time>2012-03-20T10:03:30Z</time>
      </trkpt>
      <trkpt lat="42.97806" lon="-0.42682">
        <ele>628.358887</ele>
        <time>2012-03-20T10:03:55Z</time>
      </trkpt>
      <trkpt lat="42.97785" lon="-0.42681">
        <ele>630.762207</ele>
        <time>2012-03-20T10:04:10Z</time>
      </trkpt>
      <trkpt lat="42.97764" lon="-0.42688">
        <ele>632.204102</ele>
        <time>2012-03-20T10:04:24Z</time>
      </trkpt>
      <trkpt lat="42.97753" lon="-0.42703">
        <ele>631.24292</ele>
        <time>2012-03-20T10:04:39Z</time>
      </trkpt>
      <trkpt lat="42.97767" lon="-0.42715">
        <ele>631.24292</ele>
        <time>2012-03-20T10:05:23Z</time>
      </trkpt>
      <trkpt lat="42.97765" lon="-0.4273">
        <ele>630.281494</ele>
        <time>2012-03-20T10:05:59Z</time>
      </trkpt>
      <trkpt lat="42.9776" lon="-0.42752">
        <ele>627.397705</ele>
        <time>2012-03-20T10:06:13Z</time>
      </trkpt>
      <trkpt lat="42.97754" lon="-0.4277">
        <ele>624.994385</ele>
        <time>2012-03-20T10:06:25Z</time>
      </trkpt>
      <trkpt lat="42.97749" lon="-0.42785">
        <ele>623.071777</ele>
        <time>2012-03-20T10:06:37Z</time>
      </trkpt>
      <trkpt lat="42.97743" lon="-0.42796">
        <ele>622.591064</ele>
        <time>2012-03-20T10:06:47Z</time>
      </trkpt>
      <trkpt lat="42.97731" lon="-0.42823">
        <ele>620.668457</ele>
        <time>2012-03-20T10:07:05Z</time>
      </trkpt>
      <trkpt lat="42.9772" lon="-0.42844">
        <ele>619.707031</ele>
        <time>2012-03-20T10:07:19Z</time>
      </trkpt>
      <trkpt lat="42.97711" lon="-0.42864">
        <ele>618.745605</ele>
        <time>2012-03-20T10:07:32Z</time>
      </trkpt>
      <trkpt lat="42.97701" lon="-0.42876">
        <ele>618.264893</ele>
        <time>2012-03-20T10:07:42Z</time>
      </trkpt>
      <trkpt lat="42.97682" lon="-0.42903">
        <ele>616.342285</ele>
        <time>2012-03-20T10:08:02Z</time>
      </trkpt>
      <trkpt lat="42.97664" lon="-0.42924">
        <ele>614.900391</ele>
        <time>2012-03-20T10:08:19Z</time>
      </trkpt>
      <trkpt lat="42.97656" lon="-0.42935">
        <ele>614.900391</ele>
        <time>2012-03-20T10:08:27Z</time>
      </trkpt>
      <trkpt lat="42.97642" lon="-0.42948">
        <ele>614.419678</ele>
        <time>2012-03-20T10:08:39Z</time>
      </trkpt>
      <trkpt lat="42.9763" lon="-0.42961">
        <ele>613.458496</ele>
        <time>2012-03-20T10:08:51Z</time>
      </trkpt>
      <trkpt lat="42.97613" lon="-0.42981">
        <ele>612.977783</ele>
        <time>2012-03-20T10:09:07Z</time>
      </trkpt>
      <trkpt lat="42.97607" lon="-0.42986">
        <ele>612.016602</ele>
        <time>2012-03-20T10:09:13Z</time>
      </trkpt>
      <trkpt lat="42.97603" lon="-0.42991">
        <ele>612.016602</ele>
        <time>2012-03-20T10:09:17Z</time>
      </trkpt>
      <trkpt lat="42.97601" lon="-0.42993">
        <ele>612.016602</ele>
        <time>2012-03-20T10:09:19Z</time>
      </trkpt>
      <trkpt lat="42.97593" lon="-0.42999">
        <ele>611.535889</ele>
        <time>2012-03-20T10:09:25Z</time>
      </trkpt>
      <trkpt lat="42.97589" lon="-0.43006">
        <ele>611.535889</ele>
        <time>2012-03-20T10:09:30Z</time>
      </trkpt>
      <trkpt lat="42.97582" lon="-0.43016">
        <ele>610.574463</ele>
        <time>2012-03-20T10:09:37Z</time>
      </trkpt>
      <trkpt lat="42.97565" lon="-0.43039">
        <ele>609.613281</ele>
        <time>2012-03-20T10:09:54Z</time>
      </trkpt>
      <trkpt lat="42.97547" lon="-0.43058">
        <ele>609.132568</ele>
        <time>2012-03-20T10:10:11Z</time>
      </trkpt>
      <trkpt lat="42.97544" lon="-0.4306">
        <ele>609.132568</ele>
        <time>2012-03-20T10:10:13Z</time>
      </trkpt>
      <trkpt lat="42.97529" lon="-0.4307">
        <ele>608.651855</ele>
        <time>2012-03-20T10:10:24Z</time>
      </trkpt>
      <trkpt lat="42.97527" lon="-0.43076">
        <ele>608.651855</ele>
        <time>2012-03-20T10:10:28Z</time>
      </trkpt>
      <trkpt lat="42.97519" lon="-0.43083">
        <ele>607.690674</ele>
        <time>2012-03-20T10:10:34Z</time>
      </trkpt>
      <trkpt lat="42.97513" lon="-0.43092">
        <ele>607.690674</ele>
        <time>2012-03-20T10:10:40Z</time>
      </trkpt>
      <trkpt lat="42.97486" lon="-0.43108">
        <ele>606.729248</ele>
        <time>2012-03-20T10:10:58Z</time>
      </trkpt>
      <trkpt lat="42.97478" lon="-0.43109">
        <ele>605.768066</ele>
        <time>2012-03-20T10:11:02Z</time>
      </trkpt>
      <trkpt lat="42.97474" lon="-0.43114">
        <ele>605.287354</ele>
        <time>2012-03-20T10:11:06Z</time>
      </trkpt>
      <trkpt lat="42.9746" lon="-0.43153">
        <ele>602.883789</ele>
        <time>2012-03-20T10:11:30Z</time>
      </trkpt>
      <trkpt lat="42.97444" lon="-0.43189">
        <ele>600.480713</ele>
        <time>2012-03-20T10:11:53Z</time>
      </trkpt>
      <trkpt lat="42.97434" lon="-0.43205">
        <ele>600.480713</ele>
        <time>2012-03-20T10:12:13Z</time>
      </trkpt>
      <trkpt lat="42.97434" lon="-0.43203">
        <ele>600.480713</ele>
        <time>2012-03-20T10:12:46Z</time>
      </trkpt>
      <trkpt lat="42.97432" lon="-0.43207">
        <ele>600.480713</ele>
        <time>2012-03-20T10:13:17Z</time>
      </trkpt>
      <trkpt lat="42.97431" lon="-0.43208">
        <ele>600</ele>
        <time>2012-03-20T10:13:56Z</time>
      </trkpt>
      <trkpt lat="42.97434" lon="-0.43202">
        <ele>600</ele>
        <time>2012-03-20T10:14:07Z</time>
      </trkpt>
      <trkpt lat="42.97439" lon="-0.43195">
        <ele>600.480713</ele>
        <time>2012-03-20T10:14:19Z</time>
      </trkpt>
      <trkpt lat="42.97435" lon="-0.43198">
        <ele>600</ele>
        <time>2012-03-20T10:14:42Z</time>
      </trkpt>
      <trkpt lat="42.97431" lon="-0.43206">
        <ele>600</ele>
        <time>2012-03-20T10:15:06Z</time>
      </trkpt>
      <trkpt lat="42.97432" lon="-0.43204">
        <ele>600</ele>
        <time>2012-03-20T10:15:09Z</time>
      </trkpt>
      <trkpt lat="42.97434" lon="-0.43195">
        <ele>600</ele>
        <time>2012-03-20T10:15:22Z</time>
      </trkpt>
      <trkpt lat="42.97428" lon="-0.43199">
        <ele>599.038574</ele>
        <time>2012-03-20T10:16:07Z</time>
      </trkpt>
      <trkpt lat="42.97442" lon="-0.43197">
        <ele>598.557861</ele>
        <time>2012-03-20T10:16:36Z</time>
      </trkpt>
      <trkpt lat="42.97426" lon="-0.4319">
        <ele>599.519287</ele>
        <time>2012-03-20T10:17:29Z</time>
      </trkpt>
      <trkpt lat="42.97432" lon="-0.43196">
        <ele>598.557861</ele>
        <time>2012-03-20T10:18:20Z</time>
      </trkpt>
      <trkpt lat="42.97436" lon="-0.43196">
        <ele>599.038574</ele>
        <time>2012-03-20T10:18:53Z</time>
      </trkpt>
      <trkpt lat="42.97448" lon="-0.43189">
        <ele>598.557861</ele>
        <time>2012-03-20T10:19:44Z</time>
      </trkpt>
      <trkpt lat="42.9744" lon="-0.4319">
        <ele>599.038574</ele>
        <time>2012-03-20T10:20:00Z</time>
      </trkpt>
      <trkpt lat="42.97428" lon="-0.43199">
        <ele>599.038574</ele>
        <time>2012-03-20T10:20:36Z</time>
      </trkpt>
      <trkpt lat="42.97426" lon="-0.43202">
        <ele>598.557861</ele>
        <time>2012-03-20T10:20:39Z</time>
      </trkpt>
      <trkpt lat="42.97419" lon="-0.43215">
        <ele>598.557861</ele>
        <time>2012-03-20T10:20:52Z</time>
      </trkpt>
      <trkpt lat="42.9742" lon="-0.43228">
        <ele>597.59668</ele>
        <time>2012-03-20T10:21:05Z</time>
      </trkpt>
      <trkpt lat="42.97417" lon="-0.43236">
        <ele>597.59668</ele>
        <time>2012-03-20T10:21:21Z</time>
      </trkpt>
      <trkpt lat="42.97418" lon="-0.43244">
        <ele>598.557861</ele>
        <time>2012-03-20T10:21:43Z</time>
      </trkpt>
      <trkpt lat="42.97411" lon="-0.43249">
        <ele>599.519287</ele>
        <time>2012-03-20T10:21:54Z</time>
      </trkpt>
      <trkpt lat="42.97403" lon="-0.43264">
        <ele>601.922607</ele>
        <time>2012-03-20T10:22:09Z</time>
      </trkpt>
      <trkpt lat="42.97395" lon="-0.43275">
        <ele>600.961182</ele>
        <time>2012-03-20T10:22:20Z</time>
      </trkpt>
      <trkpt lat="42.97389" lon="-0.43278">
        <ele>600.961182</ele>
        <time>2012-03-20T10:22:35Z</time>
      </trkpt>
      <trkpt lat="42.9739" lon="-0.43277">
        <ele>601.441895</ele>
        <time>2012-03-20T10:22:45Z</time>
      </trkpt>
      <trkpt lat="42.97398" lon="-0.43272">
        <ele>601.441895</ele>
        <time>2012-03-20T10:22:53Z</time>
      </trkpt>
      <trkpt lat="42.97412" lon="-0.43252">
        <ele>600</ele>
        <time>2012-03-20T10:23:10Z</time>
      </trkpt>
      <trkpt lat="42.97421" lon="-0.43239">
        <ele>597.59668</ele>
        <time>2012-03-20T10:23:24Z</time>
      </trkpt>
      <trkpt lat="42.97424" lon="-0.43236">
        <ele>596.635498</ele>
        <time>2012-03-20T10:23:38Z</time>
      </trkpt>
      <trkpt lat="42.97428" lon="-0.43233">
        <ele>597.59668</ele>
        <time>2012-03-20T10:24:40Z</time>
      </trkpt>
      <trkpt lat="42.97432" lon="-0.43232">
        <ele>596.635498</ele>
        <time>2012-03-20T10:26:16Z</time>
      </trkpt>
      <trkpt lat="42.97424" lon="-0.43235">
        <ele>595.674072</ele>
        <time>2012-03-20T10:29:08Z</time>
      </trkpt>
      <trkpt lat="42.97425" lon="-0.43236">
        <ele>595.674072</ele>
        <time>2012-03-20T10:29:42Z</time>
      </trkpt>
      <trkpt lat="42.97421" lon="-0.43244">
        <ele>596.154785</ele>
        <time>2012-03-20T10:29:51Z</time>
      </trkpt>
      <trkpt lat="42.97418" lon="-0.43247">
        <ele>596.635498</ele>
        <time>2012-03-20T10:29:55Z</time>
      </trkpt>
      <trkpt lat="42.97412" lon="-0.43254">
        <ele>597.115967</ele>
        <time>2012-03-20T10:30:05Z</time>
      </trkpt>
      <trkpt lat="42.9741" lon="-0.43254">
        <ele>597.59668</ele>
        <time>2012-03-20T10:30:23Z</time>
      </trkpt>
      <trkpt lat="42.97401" lon="-0.43275">
        <ele>600</ele>
        <time>2012-03-20T10:30:39Z</time>
      </trkpt>
      <trkpt lat="42.97391" lon="-0.43283">
        <ele>598.557861</ele>
        <time>2012-03-20T10:30:48Z</time>
      </trkpt>
      <trkpt lat="42.97382" lon="-0.4331">
        <ele>599.519287</ele>
        <time>2012-03-20T10:31:05Z</time>
      </trkpt>
      <trkpt lat="42.97382" lon="-0.43324">
        <ele>603.364502</ele>
        <time>2012-03-20T10:31:16Z</time>
      </trkpt>
      <trkpt lat="42.97382" lon="-0.43325">
        <ele>602.883789</ele>
        <time>2012-03-20T10:31:17Z</time>
      </trkpt>
      <trkpt lat="42.97381" lon="-0.43337">
        <ele>605.768066</ele>
        <time>2012-03-20T10:31:26Z</time>
      </trkpt>
      <trkpt lat="42.97385" lon="-0.43345">
        <ele>609.132568</ele>
        <time>2012-03-20T10:31:40Z</time>
      </trkpt>
      <trkpt lat="42.97382" lon="-0.43361">
        <ele>612.016602</ele>
        <time>2012-03-20T10:31:51Z</time>
      </trkpt>
      <trkpt lat="42.97374" lon="-0.43384">
        <ele>613.458496</ele>
        <time>2012-03-20T10:32:09Z</time>
      </trkpt>
      <trkpt lat="42.97373" lon="-0.43386">
        <ele>613.458496</ele>
        <time>2012-03-20T10:32:10Z</time>
      </trkpt>
      <trkpt lat="42.97369" lon="-0.43404">
        <ele>610.09375</ele>
        <time>2012-03-20T10:32:25Z</time>
      </trkpt>
      <trkpt lat="42.97365" lon="-0.43409">
        <ele>610.09375</ele>
        <time>2012-03-20T10:32:30Z</time>
      </trkpt>
      <trkpt lat="42.97364" lon="-0.43411">
        <ele>610.09375</ele>
        <time>2012-03-20T10:32:32Z</time>
      </trkpt>
      <trkpt lat="42.97362" lon="-0.43424">
        <ele>610.09375</ele>
        <time>2012-03-20T10:32:44Z</time>
      </trkpt>
      <trkpt lat="42.97357" lon="-0.43431">
        <ele>609.132568</ele>
        <time>2012-03-20T10:32:53Z</time>
      </trkpt>
      <trkpt lat="42.97351" lon="-0.43433">
        <ele>607.690674</ele>
        <time>2012-03-20T10:33:00Z</time>
      </trkpt>
      <trkpt lat="42.97346" lon="-0.43445">
        <ele>606.248535</ele>
        <time>2012-03-20T10:33:10Z</time>
      </trkpt>
      <trkpt lat="42.9734" lon="-0.43457">
        <ele>606.248535</ele>
        <time>2012-03-20T10:33:22Z</time>
      </trkpt>
      <trkpt lat="42.97332" lon="-0.43463">
        <ele>603.845215</ele>
        <time>2012-03-20T10:33:33Z</time>
      </trkpt>
      <trkpt lat="42.97325" lon="-0.43467">
        <ele>604.326172</ele>
        <time>2012-03-20T10:33:38Z</time>
      </trkpt>
      <trkpt lat="42.97322" lon="-0.43478">
        <ele>605.768066</ele>
        <time>2012-03-20T10:33:47Z</time>
      </trkpt>
      <trkpt lat="42.97322" lon="-0.4349">
        <ele>608.171387</ele>
        <time>2012-03-20T10:34:00Z</time>
      </trkpt>
      <trkpt lat="42.97319" lon="-0.43502">
        <ele>607.209961</ele>
        <time>2012-03-20T10:34:11Z</time>
      </trkpt>
      <trkpt lat="42.97316" lon="-0.43506">
        <ele>608.651855</ele>
        <time>2012-03-20T10:34:15Z</time>
      </trkpt>
      <trkpt lat="42.97307" lon="-0.43511">
        <ele>605.768066</ele>
        <time>2012-03-20T10:34:25Z</time>
      </trkpt>
      <trkpt lat="42.97303" lon="-0.43523">
        <ele>608.651855</ele>
        <time>2012-03-20T10:34:42Z</time>
      </trkpt>
      <trkpt lat="42.97292" lon="-0.43523">
        <ele>607.690674</ele>
        <time>2012-03-20T10:34:52Z</time>
      </trkpt>
      <trkpt lat="42.97293" lon="-0.43536">
        <ele>609.613281</ele>
        <time>2012-03-20T10:35:07Z</time>
      </trkpt>
      <trkpt lat="42.97282" lon="-0.4355">
        <ele>612.49707</ele>
        <time>2012-03-20T10:35:22Z</time>
      </trkpt>
      <trkpt lat="42.97278" lon="-0.43556">
        <ele>613.458496</ele>
        <time>2012-03-20T10:35:27Z</time>
      </trkpt>
      <trkpt lat="42.9727" lon="-0.43573">
        <ele>613.938965</ele>
        <time>2012-03-20T10:35:40Z</time>
      </trkpt>
      <trkpt lat="42.97264" lon="-0.43575">
        <ele>612.016602</ele>
        <time>2012-03-20T10:35:46Z</time>
      </trkpt>
      <trkpt lat="42.97253" lon="-0.43584">
        <ele>610.574463</ele>
        <time>2012-03-20T10:35:56Z</time>
      </trkpt>
      <trkpt lat="42.97247" lon="-0.43592">
        <ele>609.613281</ele>
        <time>2012-03-20T10:36:04Z</time>
      </trkpt>
      <trkpt lat="42.97237" lon="-0.436">
        <ele>611.055176</ele>
        <time>2012-03-20T10:36:15Z</time>
      </trkpt>
      <trkpt lat="42.97226" lon="-0.43602">
        <ele>611.055176</ele>
        <time>2012-03-20T10:36:25Z</time>
      </trkpt>
      <trkpt lat="42.9722" lon="-0.43608">
        <ele>610.09375</ele>
        <time>2012-03-20T10:36:35Z</time>
      </trkpt>
      <trkpt lat="42.97219" lon="-0.43609">
        <ele>610.574463</ele>
        <time>2012-03-20T10:36:36Z</time>
      </trkpt>
      <trkpt lat="42.97211" lon="-0.43613">
        <ele>610.574463</ele>
        <time>2012-03-20T10:36:48Z</time>
      </trkpt>
      <trkpt lat="42.97206" lon="-0.43618">
        <ele>610.574463</ele>
        <time>2012-03-20T10:36:55Z</time>
      </trkpt>
      <trkpt lat="42.97196" lon="-0.43629">
        <ele>613.458496</ele>
        <time>2012-03-20T10:37:15Z</time>
      </trkpt>
      <trkpt lat="42.97189" lon="-0.43633">
        <ele>616.342285</ele>
        <time>2012-03-20T10:37:28Z</time>
      </trkpt>
      <trkpt lat="42.97188" lon="-0.43645">
        <ele>619.707031</ele>
        <time>2012-03-20T10:37:38Z</time>
      </trkpt>
      <trkpt lat="42.97187" lon="-0.43655">
        <ele>622.591064</ele>
        <time>2012-03-20T10:37:48Z</time>
      </trkpt>
      <trkpt lat="42.97198" lon="-0.4366">
        <ele>625.955566</ele>
        <time>2012-03-20T10:38:01Z</time>
      </trkpt>
      <trkpt lat="42.97199" lon="-0.43664">
        <ele>628.8396</ele>
        <time>2012-03-20T10:38:19Z</time>
      </trkpt>
      <trkpt lat="42.97187" lon="-0.43672">
        <ele>630.762207</ele>
        <time>2012-03-20T10:38:34Z</time>
      </trkpt>
      <trkpt lat="42.97186" lon="-0.43672">
        <ele>630.762207</ele>
        <time>2012-03-20T10:38:35Z</time>
      </trkpt>
      <trkpt lat="42.97174" lon="-0.43685">
        <ele>632.684814</ele>
        <time>2012-03-20T10:38:49Z</time>
      </trkpt>
      <trkpt lat="42.97171" lon="-0.43694">
        <ele>633.645996</ele>
        <time>2012-03-20T10:39:04Z</time>
      </trkpt>
      <trkpt lat="42.97175" lon="-0.43694">
        <ele>635.088135</ele>
        <time>2012-03-20T10:39:07Z</time>
      </trkpt>
      <trkpt lat="42.97183" lon="-0.43685">
        <ele>637.010742</ele>
        <time>2012-03-20T10:39:22Z</time>
      </trkpt>
      <trkpt lat="42.97197" lon="-0.43683">
        <ele>637.491455</ele>
        <time>2012-03-20T10:39:41Z</time>
      </trkpt>
      <trkpt lat="42.97196" lon="-0.43688">
        <ele>640.855957</ele>
        <time>2012-03-20T10:39:53Z</time>
      </trkpt>
      <trkpt lat="42.97191" lon="-0.43688">
        <ele>640.375488</ele>
        <time>2012-03-20T10:39:57Z</time>
      </trkpt>
      <trkpt lat="42.97182" lon="-0.43698">
        <ele>641.817383</ele>
        <time>2012-03-20T10:40:09Z</time>
      </trkpt>
      <trkpt lat="42.97177" lon="-0.43705">
        <ele>644.220703</ele>
        <time>2012-03-20T10:40:16Z</time>
      </trkpt>
      <trkpt lat="42.97163" lon="-0.43712">
        <ele>645.181885</ele>
        <time>2012-03-20T10:40:27Z</time>
      </trkpt>
      <trkpt lat="42.97146" lon="-0.43716">
        <ele>644.220703</ele>
        <time>2012-03-20T10:40:41Z</time>
      </trkpt>
      <trkpt lat="42.97139" lon="-0.43732">
        <ele>644.220703</ele>
        <time>2012-03-20T10:40:53Z</time>
      </trkpt>
      <trkpt lat="42.97135" lon="-0.43744">
        <ele>644.220703</ele>
        <time>2012-03-20T10:41:05Z</time>
      </trkpt>
      <trkpt lat="42.97132" lon="-0.4375">
        <ele>643.259277</ele>
        <time>2012-03-20T10:41:09Z</time>
      </trkpt>
      <trkpt lat="42.97126" lon="-0.43751">
        <ele>640.855957</ele>
        <time>2012-03-20T10:41:16Z</time>
      </trkpt>
      <trkpt lat="42.97126" lon="-0.43749">
        <ele>639.894775</ele>
        <time>2012-03-20T10:41:18Z</time>
      </trkpt>
      <trkpt lat="42.9712" lon="-0.43747">
        <ele>637.972168</ele>
        <time>2012-03-20T10:41:24Z</time>
      </trkpt>
      <trkpt lat="42.9711" lon="-0.43751">
        <ele>635.568604</ele>
        <time>2012-03-20T10:41:35Z</time>
      </trkpt>
      <trkpt lat="42.97106" lon="-0.43757">
        <ele>634.607422</ele>
        <time>2012-03-20T10:41:40Z</time>
      </trkpt>
      <trkpt lat="42.97098" lon="-0.43765">
        <ele>632.684814</ele>
        <time>2012-03-20T10:41:49Z</time>
      </trkpt>
      <trkpt lat="42.97092" lon="-0.43774">
        <ele>629.800781</ele>
        <time>2012-03-20T10:42:00Z</time>
      </trkpt>
      <trkpt lat="42.97092" lon="-0.43772">
        <ele>628.358887</ele>
        <time>2012-03-20T10:42:03Z</time>
      </trkpt>
      <trkpt lat="42.97096" lon="-0.43762">
        <ele>625.955566</ele>
        <time>2012-03-20T10:42:13Z</time>
      </trkpt>
      <trkpt lat="42.97103" lon="-0.43754">
        <ele>623.55249</ele>
        <time>2012-03-20T10:42:28Z</time>
      </trkpt>
      <trkpt lat="42.97111" lon="-0.43768">
        <ele>620.668457</ele>
        <time>2012-03-20T10:42:59Z</time>
      </trkpt>
      <trkpt lat="42.97101" lon="-0.43792">
        <ele>618.745605</ele>
        <time>2012-03-20T10:43:19Z</time>
      </trkpt>
      <trkpt lat="42.97098" lon="-0.43806">
        <ele>617.303711</ele>
        <time>2012-03-20T10:43:27Z</time>
      </trkpt>
      <trkpt lat="42.97108" lon="-0.43816">
        <ele>613.938965</ele>
        <time>2012-03-20T10:43:42Z</time>
      </trkpt>
    </trkseg>
  </trk>
  <trk>
    <name><![CDATA[ACTIVE LOG 010]]></name>
    <trkseg>
      <trkpt lat="42.9712" lon="-0.43826">
        <ele>616.342285</ele>
        <time>2012-03-20T10:44:00Z</time>
      </trkpt>
      <trkpt lat="42.9712" lon="-0.43826">
        <ele>613.938965</ele>
        <time>2012-03-20T10:44:19Z</time>
      </trkpt>
    </trkseg>
  </trk>
  <trk>
    <name><![CDATA[ACTIVE LOG 011]]></name>
    <trkseg>
      <trkpt lat="42.97058" lon="-0.43839">
        <ele>612.49707</ele>
        <time>2012-03-20T10:44:22Z</time>
      </trkpt>
      <trkpt lat="42.97047" lon="-0.43849">
        <ele>613.458496</ele>
        <time>2012-03-20T10:44:36Z</time>
      </trkpt>
      <trkpt lat="42.97042" lon="-0.43851">
        <ele>613.458496</ele>
        <time>2012-03-20T10:44:40Z</time>
      </trkpt>
      <trkpt lat="42.97017" lon="-0.43893">
        <ele>611.535889</ele>
        <time>2012-03-20T10:45:14Z</time>
      </trkpt>
      <trkpt lat="42.97011" lon="-0.43898">
        <ele>610.574463</ele>
        <time>2012-03-20T10:45:21Z</time>
      </trkpt>
      <trkpt lat="42.97012" lon="-0.43905">
        <ele>608.171387</ele>
        <time>2012-03-20T10:45:36Z</time>
      </trkpt>
    </trkseg>
  </trk>
  <trk>
    <name><![CDATA[ACTIVE LOG 012]]></name>
    <trkseg>
      <trkpt lat="42.97023" lon="-0.43909">
        <ele>606.248535</ele>
        <time>2012-03-20T10:45:56Z</time>
      </trkpt>
    </trkseg>
  </trk>
  <trk>
    <name><![CDATA[ACTIVE LOG 013]]></name>
    <trkseg>
      <trkpt lat="42.96998" lon="-0.4389">
        <ele>606.248535</ele>
        <time>2012-03-20T10:45:58Z</time>
      </trkpt>
    </trkseg>
  </trk>
  <trk>
    <name><![CDATA[ACTIVE LOG 014]]></name>
    <trkseg>
      <trkpt lat="42.97" lon="-0.43892">
        <ele>605.287354</ele>
        <time>2012-03-20T10:46:43Z</time>
      </trkpt>
    </trkseg>
  </trk>
  <trk>
    <name><![CDATA[ACTIVE LOG 015]]></name>
    <trkseg>
      <trkpt lat="42.96993" lon="-0.43897">
        <ele>605.768066</ele>
        <time>2012-03-20T10:46:52Z</time>
      </trkpt>
      <trkpt lat="42.97016" lon="-0.43895">
        <ele>605.287354</ele>
        <time>2012-03-20T10:47:23Z</time>
      </trkpt>
      <trkpt lat="42.97015" lon="-0.43894">
        <ele>606.729248</ele>
        <time>2012-03-20T10:47:28Z</time>
      </trkpt>
      <trkpt lat="42.96992" lon="-0.43881">
        <ele>605.768066</ele>
        <time>2012-03-20T10:48:36Z</time>
      </trkpt>
      <trkpt lat="42.96987" lon="-0.43865">
        <ele>606.729248</ele>
        <time>2012-03-20T10:48:51Z</time>
      </trkpt>
    </trkseg>
  </trk>
  <trk>
    <name><![CDATA[ACTIVE LOG 016]]></name>
    <trkseg>
      <trkpt lat="42.96981" lon="-0.43832">
        <ele>607.690674</ele>
        <time>2012-03-20T10:49:19Z</time>
      </trkpt>
      <trkpt lat="42.96981" lon="-0.43832">
        <ele>611.055176</ele>
        <time>2012-03-20T10:49:45Z</time>
      </trkpt>
    </trkseg>
  </trk>
  <trk>
    <name><![CDATA[ACTIVE LOG 017]]></name>
    <trkseg>
      <trkpt lat="42.96985" lon="-0.43823">
        <ele>610.574463</ele>
        <time>2012-03-20T10:49:47Z</time>
      </trkpt>
      <trkpt lat="42.96992" lon="-0.43818">
        <ele>613.458496</ele>
        <time>2012-03-20T10:49:56Z</time>
      </trkpt>
      <trkpt lat="42.97" lon="-0.43808">
        <ele>615.861816</ele>
        <time>2012-03-20T10:50:06Z</time>
      </trkpt>
      <trkpt lat="42.97008" lon="-0.43798">
        <ele>618.745605</ele>
        <time>2012-03-20T10:50:22Z</time>
      </trkpt>
      <trkpt lat="42.97002" lon="-0.43786">
        <ele>622.110352</ele>
        <time>2012-03-20T10:50:52Z</time>
      </trkpt>
      <trkpt lat="42.97001" lon="-0.43786">
        <ele>622.110352</ele>
        <time>2012-03-20T10:50:53Z</time>
      </trkpt>
      <trkpt lat="42.96989" lon="-0.4378">
        <ele>625.474854</ele>
        <time>2012-03-20T10:51:08Z</time>
      </trkpt>
      <trkpt lat="42.96987" lon="-0.43771">
        <ele>626.916992</ele>
        <time>2012-03-20T10:51:32Z</time>
      </trkpt>
      <trkpt lat="42.96998" lon="-0.43763">
        <ele>629.320068</ele>
        <time>2012-03-20T10:51:44Z</time>
      </trkpt>
      <trkpt lat="42.97005" lon="-0.43755">
        <ele>630.762207</ele>
        <time>2012-03-20T10:51:54Z</time>
      </trkpt>
      <trkpt lat="42.97014" lon="-0.43751">
        <ele>630.281494</ele>
        <time>2012-03-20T10:52:00Z</time>
      </trkpt>
      <trkpt lat="42.97018" lon="-0.43741">
        <ele>634.126709</ele>
        <time>2012-03-20T10:52:12Z</time>
      </trkpt>
      <trkpt lat="42.97015" lon="-0.43734">
        <ele>637.010742</ele>
        <time>2012-03-20T10:52:25Z</time>
      </trkpt>
      <trkpt lat="42.96999" lon="-0.43736">
        <ele>640.375488</ele>
        <time>2012-03-20T10:52:44Z</time>
      </trkpt>
      <trkpt lat="42.97004" lon="-0.43728">
        <ele>641.817383</ele>
        <time>2012-03-20T10:52:55Z</time>
      </trkpt>
      <trkpt lat="42.97005" lon="-0.43726">
        <ele>643.259277</ele>
        <time>2012-03-20T10:52:58Z</time>
      </trkpt>
      <trkpt lat="42.97007" lon="-0.43721">
        <ele>643.73999</ele>
        <time>2012-03-20T10:53:03Z</time>
      </trkpt>
      <trkpt lat="42.97013" lon="-0.43711">
        <ele>645.662598</ele>
        <time>2012-03-20T10:53:15Z</time>
      </trkpt>
      <trkpt lat="42.97016" lon="-0.43703">
        <ele>647.104492</ele>
        <time>2012-03-20T10:53:23Z</time>
      </trkpt>
      <trkpt lat="42.97019" lon="-0.43693">
        <ele>648.546387</ele>
        <time>2012-03-20T10:53:34Z</time>
      </trkpt>
      <trkpt lat="42.97019" lon="-0.43691">
        <ele>650.949707</ele>
        <time>2012-03-20T10:53:43Z</time>
      </trkpt>
      <trkpt lat="42.97006" lon="-0.43692">
        <ele>653.353271</ele>
        <time>2012-03-20T10:53:54Z</time>
      </trkpt>
      <trkpt lat="42.96993" lon="-0.43695">
        <ele>654.795166</ele>
        <time>2012-03-20T10:54:04Z</time>
      </trkpt>
      <trkpt lat="42.9698" lon="-0.43704">
        <ele>654.314697</ele>
        <time>2012-03-20T10:54:15Z</time>
      </trkpt>
      <trkpt lat="42.9697" lon="-0.43713">
        <ele>654.314697</ele>
        <time>2012-03-20T10:54:26Z</time>
      </trkpt>
      <trkpt lat="42.96959" lon="-0.43721">
        <ele>654.314697</ele>
        <time>2012-03-20T10:54:38Z</time>
      </trkpt>
      <trkpt lat="42.96949" lon="-0.43731">
        <ele>655.275879</ele>
        <time>2012-03-20T10:54:50Z</time>
      </trkpt>
      <trkpt lat="42.96945" lon="-0.43741">
        <ele>656.237061</ele>
        <time>2012-03-20T10:55:07Z</time>
      </trkpt>
      <trkpt lat="42.96931" lon="-0.43751">
        <ele>656.237061</ele>
        <time>2012-03-20T10:55:19Z</time>
      </trkpt>
      <trkpt lat="42.9692" lon="-0.43759">
        <ele>656.237061</ele>
        <time>2012-03-20T10:55:29Z</time>
      </trkpt>
      <trkpt lat="42.96907" lon="-0.43761">
        <ele>655.275879</ele>
        <time>2012-03-20T10:55:41Z</time>
      </trkpt>
      <trkpt lat="42.96897" lon="-0.43764">
        <ele>653.833984</ele>
        <time>2012-03-20T10:55:50Z</time>
      </trkpt>
      <trkpt lat="42.96883" lon="-0.43773">
        <ele>650.469238</ele>
        <time>2012-03-20T10:56:11Z</time>
      </trkpt>
      <trkpt lat="42.96868" lon="-0.43777">
        <ele>651.911133</ele>
        <time>2012-03-20T10:56:36Z</time>
      </trkpt>
      <trkpt lat="42.96852" lon="-0.4378">
        <ele>653.833984</ele>
        <time>2012-03-20T10:56:50Z</time>
      </trkpt>
      <trkpt lat="42.96838" lon="-0.4378">
        <ele>655.275879</ele>
        <time>2012-03-20T10:57:02Z</time>
      </trkpt>
      <trkpt lat="42.96821" lon="-0.43782">
        <ele>656.717773</ele>
        <time>2012-03-20T10:57:15Z</time>
      </trkpt>
      <trkpt lat="42.96818" lon="-0.43783">
        <ele>656.717773</ele>
        <time>2012-03-20T10:57:16Z</time>
      </trkpt>
      <trkpt lat="42.96801" lon="-0.4378">
        <ele>655.756592</ele>
        <time>2012-03-20T10:57:37Z</time>
      </trkpt>
    </trkseg>
  </trk>
  <trk>
    <name><![CDATA[ACTIVE LOG 018]]></name>
    <trkseg>
      <trkpt lat="42.96794" lon="-0.4377">
        <ele>654.795166</ele>
        <time>2012-03-20T10:57:55Z</time>
      </trkpt>
    </trkseg>
  </trk>
  <trk>
    <name><![CDATA[ACTIVE LOG 019]]></name>
    <trkseg>
      <trkpt lat="42.96771" lon="-0.43791">
        <ele>654.795166</ele>
        <time>2012-03-20T10:58:03Z</time>
      </trkpt>
    </trkseg>
  </trk>
  <trk>
    <name><![CDATA[ACTIVE LOG 020]]></name>
    <trkseg>
      <trkpt lat="42.96685" lon="-0.43804">
        <ele>655.275879</ele>
        <time>2012-03-20T10:59:02Z</time>
      </trkpt>
      <trkpt lat="42.96685" lon="-0.43804">
        <ele>651.911133</ele>
        <time>2012-03-20T10:59:49Z</time>
      </trkpt>
      <trkpt lat="42.96685" lon="-0.43804">
        <ele>650.949707</ele>
        <time>2012-03-20T11:00:46Z</time>
      </trkpt>
      <trkpt lat="42.96637" lon="-0.43845">
        <ele>649.0271</ele>
        <time>2012-03-20T11:01:01Z</time>
      </trkpt>
      <trkpt lat="42.96718" lon="-0.43875">
        <ele>645.662598</ele>
        <time>2012-03-20T11:01:19Z</time>
      </trkpt>
      <trkpt lat="42.96716" lon="-0.43882">
        <ele>644.701172</ele>
        <time>2012-03-20T11:01:25Z</time>
      </trkpt>
      <trkpt lat="42.96712" lon="-0.43889">
        <ele>643.73999</ele>
        <time>2012-03-20T11:01:30Z</time>
      </trkpt>
      <trkpt lat="42.967" lon="-0.43894">
        <ele>642.778809</ele>
        <time>2012-03-20T11:01:38Z</time>
      </trkpt>
      <trkpt lat="42.96676" lon="-0.43905">
        <ele>642.298096</ele>
        <time>2012-03-20T11:01:50Z</time>
      </trkpt>
      <trkpt lat="42.96673" lon="-0.43915">
        <ele>640.855957</ele>
        <time>2012-03-20T11:02:00Z</time>
      </trkpt>
      <trkpt lat="42.96664" lon="-0.43923">
        <ele>637.491455</ele>
        <time>2012-03-20T11:02:10Z</time>
      </trkpt>
      <trkpt lat="42.96654" lon="-0.43931">
        <ele>636.530273</ele>
        <time>2012-03-20T11:02:19Z</time>
      </trkpt>
      <trkpt lat="42.96653" lon="-0.43932">
        <ele>637.010742</ele>
        <time>2012-03-20T11:02:21Z</time>
      </trkpt>
      <trkpt lat="42.96602" lon="-0.43922">
        <ele>640.375488</ele>
        <time>2012-03-20T11:02:54Z</time>
      </trkpt>
    </trkseg>
  </trk>
  <trk>
    <name><![CDATA[ACTIVE LOG 021]]></name>
    <trkseg>
      <trkpt lat="42.96602" lon="-0.43922">
        <ele>640.855957</ele>
        <time>2012-03-20T11:02:55Z</time>
      </trkpt>
      <trkpt lat="42.96602" lon="-0.43922">
        <ele>643.73999</ele>
        <time>2012-03-20T11:03:10Z</time>
      </trkpt>
      <trkpt lat="42.96602" lon="-0.43922">
        <ele>640.375488</ele>
        <time>2012-03-20T11:04:11Z</time>
      </trkpt>
      <trkpt lat="42.96602" lon="-0.43922">
        <ele>639.894775</ele>
        <time>2012-03-20T11:04:12Z</time>
      </trkpt>
      <trkpt lat="42.96602" lon="-0.43922">
        <ele>641.817383</ele>
        <time>2012-03-20T11:05:58Z</time>
      </trkpt>
      <trkpt lat="42.96602" lon="-0.43922">
        <ele>644.701172</ele>
        <time>2012-03-20T11:06:44Z</time>
      </trkpt>
      <trkpt lat="42.96602" lon="-0.43922">
        <ele>648.065918</ele>
        <time>2012-03-20T11:06:54Z</time>
      </trkpt>
      <trkpt lat="42.96602" lon="-0.43922">
        <ele>646.143311</ele>
        <time>2012-03-20T11:07:06Z</time>
      </trkpt>
      <trkpt lat="42.96602" lon="-0.43922">
        <ele>642.778809</ele>
        <time>2012-03-20T11:07:31Z</time>
      </trkpt>
      <trkpt lat="42.96602" lon="-0.43922">
        <ele>639.414062</ele>
        <time>2012-03-20T11:08:07Z</time>
      </trkpt>
      <trkpt lat="42.96602" lon="-0.43922">
        <ele>636.049561</ele>
        <time>2012-03-20T11:08:23Z</time>
      </trkpt>
    </trkseg>
  </trk>
  <trk>
    <name><![CDATA[ACTIVE LOG 022]]></name>
    <trkseg>
      <trkpt lat="42.96334" lon="-0.44032">
        <ele>635.568604</ele>
        <time>2012-03-20T11:08:57Z</time>
      </trkpt>
      <trkpt lat="42.96294" lon="-0.44013">
        <ele>636.049561</ele>
        <time>2012-03-20T11:09:09Z</time>
      </trkpt>
      <trkpt lat="42.96292" lon="-0.44015">
        <ele>636.049561</ele>
        <time>2012-03-20T11:09:30Z</time>
      </trkpt>
      <trkpt lat="42.96272" lon="-0.44006">
        <ele>635.568604</ele>
        <time>2012-03-20T11:09:44Z</time>
      </trkpt>
      <trkpt lat="42.96281" lon="-0.44009">
        <ele>635.568604</ele>
        <time>2012-03-20T11:09:50Z</time>
      </trkpt>
      <trkpt lat="42.96288" lon="-0.44011">
        <ele>635.568604</ele>
        <time>2012-03-20T11:09:55Z</time>
      </trkpt>
      <trkpt lat="42.96301" lon="-0.44017">
        <ele>634.126709</ele>
        <time>2012-03-20T11:10:14Z</time>
      </trkpt>
      <trkpt lat="42.96292" lon="-0.4402">
        <ele>631.24292</ele>
        <time>2012-03-20T11:10:28Z</time>
      </trkpt>
      <trkpt lat="42.96291" lon="-0.44024">
        <ele>630.281494</ele>
        <time>2012-03-20T11:10:37Z</time>
      </trkpt>
      <trkpt lat="42.96288" lon="-0.44029">
        <ele>629.320068</ele>
        <time>2012-03-20T11:10:48Z</time>
      </trkpt>
      <trkpt lat="42.96285" lon="-0.4403">
        <ele>627.878174</ele>
        <time>2012-03-20T11:10:53Z</time>
      </trkpt>
      <trkpt lat="42.96282" lon="-0.44031">
        <ele>626.916992</ele>
        <time>2012-03-20T11:10:57Z</time>
      </trkpt>
      <trkpt lat="42.96274" lon="-0.44035">
        <ele>625.955566</ele>
        <time>2012-03-20T11:11:10Z</time>
      </trkpt>
      <trkpt lat="42.96259" lon="-0.44038">
        <ele>626.436279</ele>
        <time>2012-03-20T11:11:22Z</time>
      </trkpt>
      <trkpt lat="42.96245" lon="-0.44038">
        <ele>627.397705</ele>
        <time>2012-03-20T11:11:32Z</time>
      </trkpt>
      <trkpt lat="42.96232" lon="-0.44036">
        <ele>627.878174</ele>
        <time>2012-03-20T11:11:42Z</time>
      </trkpt>
      <trkpt lat="42.96231" lon="-0.44036">
        <ele>627.878174</ele>
        <time>2012-03-20T11:11:43Z</time>
      </trkpt>
      <trkpt lat="42.96215" lon="-0.44038">
        <ele>627.878174</ele>
        <time>2012-03-20T11:11:52Z</time>
      </trkpt>
      <trkpt lat="42.96207" lon="-0.44043">
        <ele>627.397705</ele>
        <time>2012-03-20T11:11:59Z</time>
      </trkpt>
      <trkpt lat="42.96198" lon="-0.44045">
        <ele>628.358887</ele>
        <time>2012-03-20T11:12:06Z</time>
      </trkpt>
      <trkpt lat="42.96191" lon="-0.44049">
        <ele>626.916992</ele>
        <time>2012-03-20T11:12:13Z</time>
      </trkpt>
      <trkpt lat="42.96175" lon="-0.44053">
        <ele>628.358887</ele>
        <time>2012-03-20T11:12:25Z</time>
      </trkpt>
      <trkpt lat="42.96164" lon="-0.44063">
        <ele>627.397705</ele>
        <time>2012-03-20T11:12:40Z</time>
      </trkpt>
      <trkpt lat="42.96158" lon="-0.44061">
        <ele>627.397705</ele>
        <time>2012-03-20T11:12:59Z</time>
      </trkpt>
      <trkpt lat="42.96154" lon="-0.44061">
        <ele>628.358887</ele>
        <time>2012-03-20T11:13:14Z</time>
      </trkpt>
      <trkpt lat="42.9615" lon="-0.4406">
        <ele>628.358887</ele>
        <time>2012-03-20T11:13:17Z</time>
      </trkpt>
      <trkpt lat="42.96134" lon="-0.44056">
        <ele>627.878174</ele>
        <time>2012-03-20T11:13:30Z</time>
      </trkpt>
      <trkpt lat="42.96123" lon="-0.44057">
        <ele>625.955566</ele>
        <time>2012-03-20T11:13:41Z</time>
      </trkpt>
      <trkpt lat="42.96114" lon="-0.44052">
        <ele>626.436279</ele>
        <time>2012-03-20T11:13:54Z</time>
      </trkpt>
      <trkpt lat="42.96101" lon="-0.44043">
        <ele>626.916992</ele>
        <time>2012-03-20T11:14:10Z</time>
      </trkpt>
      <trkpt lat="42.96098" lon="-0.44038">
        <ele>626.436279</ele>
        <time>2012-03-20T11:14:16Z</time>
      </trkpt>
      <trkpt lat="42.96085" lon="-0.44032">
        <ele>628.358887</ele>
        <time>2012-03-20T11:14:26Z</time>
      </trkpt>
      <trkpt lat="42.96074" lon="-0.4403">
        <ele>627.878174</ele>
        <time>2012-03-20T11:14:35Z</time>
      </trkpt>
      <trkpt lat="42.96063" lon="-0.44035">
        <ele>626.916992</ele>
        <time>2012-03-20T11:14:52Z</time>
      </trkpt>
      <trkpt lat="42.9606" lon="-0.44028">
        <ele>626.436279</ele>
        <time>2012-03-20T11:15:08Z</time>
      </trkpt>
      <trkpt lat="42.96055" lon="-0.44027">
        <ele>626.436279</ele>
        <time>2012-03-20T11:15:21Z</time>
      </trkpt>
      <trkpt lat="42.96052" lon="-0.44023">
        <ele>626.436279</ele>
        <time>2012-03-20T11:15:36Z</time>
      </trkpt>
      <trkpt lat="42.96047" lon="-0.44025">
        <ele>627.397705</ele>
        <time>2012-03-20T11:16:01Z</time>
      </trkpt>
      <trkpt lat="42.96037" lon="-0.44028">
        <ele>627.397705</ele>
        <time>2012-03-20T11:16:15Z</time>
      </trkpt>
      <trkpt lat="42.96031" lon="-0.44024">
        <ele>627.397705</ele>
        <time>2012-03-20T11:16:27Z</time>
      </trkpt>
      <trkpt lat="42.96031" lon="-0.44023">
        <ele>629.320068</ele>
        <time>2012-03-20T11:16:29Z</time>
      </trkpt>
      <trkpt lat="42.9602" lon="-0.44024">
        <ele>629.320068</ele>
        <time>2012-03-20T11:16:43Z</time>
      </trkpt>
      <trkpt lat="42.9601" lon="-0.44018">
        <ele>630.281494</ele>
        <time>2012-03-20T11:16:55Z</time>
      </trkpt>
      <trkpt lat="42.95996" lon="-0.44017">
        <ele>631.24292</ele>
        <time>2012-03-20T11:17:07Z</time>
      </trkpt>
      <trkpt lat="42.95987" lon="-0.44023">
        <ele>632.204102</ele>
        <time>2012-03-20T11:17:14Z</time>
      </trkpt>
      <trkpt lat="42.95969" lon="-0.44027">
        <ele>632.204102</ele>
        <time>2012-03-20T11:17:28Z</time>
      </trkpt>
      <trkpt lat="42.95957" lon="-0.44026">
        <ele>632.684814</ele>
        <time>2012-03-20T11:17:41Z</time>
      </trkpt>
      <trkpt lat="42.95943" lon="-0.44029">
        <ele>631.723389</ele>
        <time>2012-03-20T11:17:53Z</time>
      </trkpt>
      <trkpt lat="42.95931" lon="-0.44038">
        <ele>631.723389</ele>
        <time>2012-03-20T11:18:10Z</time>
      </trkpt>
      <trkpt lat="42.95918" lon="-0.44039">
        <ele>631.723389</ele>
        <time>2012-03-20T11:18:24Z</time>
      </trkpt>
      <trkpt lat="42.95904" lon="-0.4404">
        <ele>632.684814</ele>
        <time>2012-03-20T11:18:39Z</time>
      </trkpt>
      <trkpt lat="42.95894" lon="-0.44036">
        <ele>634.126709</ele>
        <time>2012-03-20T11:18:50Z</time>
      </trkpt>
      <trkpt lat="42.95879" lon="-0.44037">
        <ele>634.607422</ele>
        <time>2012-03-20T11:19:07Z</time>
      </trkpt>
      <trkpt lat="42.95871" lon="-0.4404">
        <ele>635.568604</ele>
        <time>2012-03-20T11:19:13Z</time>
      </trkpt>
      <trkpt lat="42.95858" lon="-0.4404">
        <ele>636.049561</ele>
        <time>2012-03-20T11:19:22Z</time>
      </trkpt>
      <trkpt lat="42.95837" lon="-0.44041">
        <ele>636.530273</ele>
        <time>2012-03-20T11:19:39Z</time>
      </trkpt>
      <trkpt lat="42.95819" lon="-0.44043">
        <ele>636.049561</ele>
        <time>2012-03-20T11:19:51Z</time>
      </trkpt>
      <trkpt lat="42.95816" lon="-0.44044">
        <ele>636.530273</ele>
        <time>2012-03-20T11:19:53Z</time>
      </trkpt>
      <trkpt lat="42.95805" lon="-0.44047">
        <ele>636.530273</ele>
        <time>2012-03-20T11:20:07Z</time>
      </trkpt>
      <trkpt lat="42.95793" lon="-0.44043">
        <ele>636.530273</ele>
        <time>2012-03-20T11:20:20Z</time>
      </trkpt>
      <trkpt lat="42.95791" lon="-0.44043">
        <ele>636.530273</ele>
        <time>2012-03-20T11:20:21Z</time>
      </trkpt>
      <trkpt lat="42.95781" lon="-0.44035">
        <ele>638.452881</ele>
        <time>2012-03-20T11:20:32Z</time>
      </trkpt>
      <trkpt lat="42.95768" lon="-0.44038">
        <ele>638.452881</ele>
        <time>2012-03-20T11:20:41Z</time>
      </trkpt>
      <trkpt lat="42.95767" lon="-0.44038">
        <ele>638.933594</ele>
        <time>2012-03-20T11:20:42Z</time>
      </trkpt>
      <trkpt lat="42.95747" lon="-0.44037">
        <ele>639.894775</ele>
        <time>2012-03-20T11:20:58Z</time>
      </trkpt>
      <trkpt lat="42.95737" lon="-0.44025">
        <ele>640.375488</ele>
        <time>2012-03-20T11:21:14Z</time>
      </trkpt>
      <trkpt lat="42.95719" lon="-0.44">
        <ele>641.33667</ele>
        <time>2012-03-20T11:21:35Z</time>
      </trkpt>
      <trkpt lat="42.95694" lon="-0.4398">
        <ele>640.855957</ele>
        <time>2012-03-20T11:21:56Z</time>
      </trkpt>
      <trkpt lat="42.95672" lon="-0.43966">
        <ele>641.817383</ele>
        <time>2012-03-20T11:22:15Z</time>
      </trkpt>
      <trkpt lat="42.95645" lon="-0.43946">
        <ele>642.778809</ele>
        <time>2012-03-20T11:22:38Z</time>
      </trkpt>
      <trkpt lat="42.95644" lon="-0.43941">
        <ele>643.259277</ele>
        <time>2012-03-20T11:22:57Z</time>
      </trkpt>
      <trkpt lat="42.95646" lon="-0.43936">
        <ele>644.220703</ele>
        <time>2012-03-20T11:23:17Z</time>
      </trkpt>
      <trkpt lat="42.95654" lon="-0.43937">
        <ele>647.104492</ele>
        <time>2012-03-20T11:23:44Z</time>
      </trkpt>
      <trkpt lat="42.95648" lon="-0.43928">
        <ele>649.507812</ele>
        <time>2012-03-20T11:23:59Z</time>
      </trkpt>
      <trkpt lat="42.95645" lon="-0.43923">
        <ele>653.353271</ele>
        <time>2012-03-20T11:24:08Z</time>
      </trkpt>
      <trkpt lat="42.95636" lon="-0.43909">
        <ele>656.717773</ele>
        <time>2012-03-20T11:24:27Z</time>
      </trkpt>
      <trkpt lat="42.95627" lon="-0.43902">
        <ele>658.159912</ele>
        <time>2012-03-20T11:24:38Z</time>
      </trkpt>
      <trkpt lat="42.95617" lon="-0.43895">
        <ele>661.043701</ele>
        <time>2012-03-20T11:24:50Z</time>
      </trkpt>
      <trkpt lat="42.95601" lon="-0.43891">
        <ele>662.966309</ele>
        <time>2012-03-20T11:25:04Z</time>
      </trkpt>
      <trkpt lat="42.95592" lon="-0.43887">
        <ele>665.850342</ele>
        <time>2012-03-20T11:25:16Z</time>
      </trkpt>
      <trkpt lat="42.95591" lon="-0.43885">
        <ele>666.330811</ele>
        <time>2012-03-20T11:25:29Z</time>
      </trkpt>
      <trkpt lat="42.9559" lon="-0.43885">
        <ele>667.292236</ele>
        <time>2012-03-20T11:25:35Z</time>
      </trkpt>
      <trkpt lat="42.95586" lon="-0.43883">
        <ele>667.772705</ele>
        <time>2012-03-20T11:25:43Z</time>
      </trkpt>
      <trkpt lat="42.95584" lon="-0.43878">
        <ele>667.292236</ele>
        <time>2012-03-20T11:26:01Z</time>
      </trkpt>
      <trkpt lat="42.95584" lon="-0.43877">
        <ele>667.772705</ele>
        <time>2012-03-20T11:26:03Z</time>
      </trkpt>
      <trkpt lat="42.95566" lon="-0.43875">
        <ele>667.292236</ele>
        <time>2012-03-20T11:26:18Z</time>
      </trkpt>
      <trkpt lat="42.95549" lon="-0.43875">
        <ele>668.734375</ele>
        <time>2012-03-20T11:26:34Z</time>
      </trkpt>
      <trkpt lat="42.95548" lon="-0.43874">
        <ele>669.215088</ele>
        <time>2012-03-20T11:26:36Z</time>
      </trkpt>
      <trkpt lat="42.95532" lon="-0.43871">
        <ele>670.17627</ele>
        <time>2012-03-20T11:26:49Z</time>
      </trkpt>
      <trkpt lat="42.95514" lon="-0.43884">
        <ele>670.656982</ele>
        <time>2012-03-20T11:27:06Z</time>
      </trkpt>
      <trkpt lat="42.95493" lon="-0.43906">
        <ele>672.098877</ele>
        <time>2012-03-20T11:27:28Z</time>
      </trkpt>
      <trkpt lat="42.95465" lon="-0.43917">
        <ele>672.57959</ele>
        <time>2012-03-20T11:27:50Z</time>
      </trkpt>
      <trkpt lat="42.95437" lon="-0.43918">
        <ele>671.618164</ele>
        <time>2012-03-20T11:28:12Z</time>
      </trkpt>
      <trkpt lat="42.95413" lon="-0.43925">
        <ele>669.215088</ele>
        <time>2012-03-20T11:28:34Z</time>
      </trkpt>
      <trkpt lat="42.95386" lon="-0.43934">
        <ele>667.772705</ele>
        <time>2012-03-20T11:28:55Z</time>
      </trkpt>
      <trkpt lat="42.95369" lon="-0.43949">
        <ele>667.772705</ele>
        <time>2012-03-20T11:29:11Z</time>
      </trkpt>
      <trkpt lat="42.95368" lon="-0.43984">
        <ele>667.772705</ele>
        <time>2012-03-20T11:29:32Z</time>
      </trkpt>
      <trkpt lat="42.95369" lon="-0.43995">
        <ele>667.772705</ele>
        <time>2012-03-20T11:29:39Z</time>
      </trkpt>
      <trkpt lat="42.95372" lon="-0.43997">
        <ele>667.772705</ele>
        <time>2012-03-20T11:29:51Z</time>
      </trkpt>
      <trkpt lat="42.95374" lon="-0.44">
        <ele>667.292236</ele>
        <time>2012-03-20T11:30:18Z</time>
      </trkpt>
      <trkpt lat="42.95374" lon="-0.43993">
        <ele>666.811523</ele>
        <time>2012-03-20T11:31:11Z</time>
      </trkpt>
    </trkseg>
  </trk>
  <trk>
    <name><![CDATA[ACTIVE LOG 023]]></name>
    <trkseg>
      <trkpt lat="42.95374" lon="-0.43996">
        <ele>670.656982</ele>
        <time>2012-03-20T11:51:33Z</time>
      </trkpt>
    </trkseg>
  </trk>
  <trk>
    <name><![CDATA[ACTIVE LOG 024]]></name>
    <trkseg>
      <trkpt lat="42.95371" lon="-0.44004">
        <ele>659.121094</ele>
        <time>2012-03-20T11:51:34Z</time>
      </trkpt>
      <trkpt lat="42.9537" lon="-0.44008">
        <ele>660.562988</ele>
        <time>2012-03-20T11:52:21Z</time>
      </trkpt>
      <trkpt lat="42.95369" lon="-0.44008">
        <ele>659.121094</ele>
        <time>2012-03-20T11:52:23Z</time>
      </trkpt>
      <trkpt lat="42.95377" lon="-0.43995">
        <ele>661.043701</ele>
        <time>2012-03-20T11:53:45Z</time>
      </trkpt>
      <trkpt lat="42.95375" lon="-0.43993">
        <ele>660.082275</ele>
        <time>2012-03-20T11:54:07Z</time>
      </trkpt>
      <trkpt lat="42.95376" lon="-0.43995">
        <ele>661.043701</ele>
        <time>2012-03-20T11:54:23Z</time>
      </trkpt>
      <trkpt lat="42.95381" lon="-0.44015">
        <ele>662.005127</ele>
        <time>2012-03-20T11:54:38Z</time>
      </trkpt>
      <trkpt lat="42.95382" lon="-0.44027">
        <ele>661.043701</ele>
        <time>2012-03-20T11:54:50Z</time>
      </trkpt>
      <trkpt lat="42.95386" lon="-0.44025">
        <ele>661.524414</ele>
        <time>2012-03-20T11:55:11Z</time>
      </trkpt>
      <trkpt lat="42.95382" lon="-0.44025">
        <ele>661.043701</ele>
        <time>2012-03-20T11:55:15Z</time>
      </trkpt>
      <trkpt lat="42.95368" lon="-0.44024">
        <ele>661.524414</ele>
        <time>2012-03-20T11:55:29Z</time>
      </trkpt>
      <trkpt lat="42.95364" lon="-0.44024">
        <ele>662.005127</ele>
        <time>2012-03-20T11:55:34Z</time>
      </trkpt>
      <trkpt lat="42.95354" lon="-0.44032">
        <ele>663.92749</ele>
        <time>2012-03-20T11:55:46Z</time>
      </trkpt>
      <trkpt lat="42.95345" lon="-0.44035">
        <ele>666.330811</ele>
        <time>2012-03-20T11:55:57Z</time>
      </trkpt>
      <trkpt lat="42.95344" lon="-0.44035">
        <ele>666.330811</ele>
        <time>2012-03-20T11:55:58Z</time>
      </trkpt>
      <trkpt lat="42.9533" lon="-0.44043">
        <ele>668.734375</ele>
        <time>2012-03-20T11:56:13Z</time>
      </trkpt>
      <trkpt lat="42.95319" lon="-0.44043">
        <ele>667.772705</ele>
        <time>2012-03-20T11:56:23Z</time>
      </trkpt>
      <trkpt lat="42.95303" lon="-0.44048">
        <ele>668.734375</ele>
        <time>2012-03-20T11:56:37Z</time>
      </trkpt>
      <trkpt lat="42.95296" lon="-0.44055">
        <ele>669.695801</ele>
        <time>2012-03-20T11:56:46Z</time>
      </trkpt>
      <trkpt lat="42.95293" lon="-0.44059">
        <ele>670.17627</ele>
        <time>2012-03-20T11:56:50Z</time>
      </trkpt>
      <trkpt lat="42.95275" lon="-0.44073">
        <ele>670.17627</ele>
        <time>2012-03-20T11:57:07Z</time>
      </trkpt>
      <trkpt lat="42.95273" lon="-0.44076">
        <ele>670.656982</ele>
        <time>2012-03-20T11:57:10Z</time>
      </trkpt>
      <trkpt lat="42.95266" lon="-0.44086">
        <ele>672.57959</ele>
        <time>2012-03-20T11:57:21Z</time>
      </trkpt>
      <trkpt lat="42.95258" lon="-0.44094">
        <ele>674.021484</ele>
        <time>2012-03-20T11:57:29Z</time>
      </trkpt>
      <trkpt lat="42.95249" lon="-0.44106">
        <ele>675.463379</ele>
        <time>2012-03-20T11:57:44Z</time>
      </trkpt>
      <trkpt lat="42.95238" lon="-0.44114">
        <ele>674.502197</ele>
        <time>2012-03-20T11:57:56Z</time>
      </trkpt>
      <trkpt lat="42.95231" lon="-0.44114">
        <ele>674.021484</ele>
        <time>2012-03-20T11:58:03Z</time>
      </trkpt>
      <trkpt lat="42.95221" lon="-0.44112">
        <ele>674.021484</ele>
        <time>2012-03-20T11:58:13Z</time>
      </trkpt>
      <trkpt lat="42.95217" lon="-0.44115">
        <ele>673.060303</ele>
        <time>2012-03-20T11:58:17Z</time>
      </trkpt>
      <trkpt lat="42.95201" lon="-0.44127">
        <ele>674.021484</ele>
        <time>2012-03-20T11:58:34Z</time>
      </trkpt>
      <trkpt lat="42.95187" lon="-0.4414">
        <ele>674.98291</ele>
        <time>2012-03-20T11:58:51Z</time>
      </trkpt>
      <trkpt lat="42.95181" lon="-0.44142">
        <ele>676.424805</ele>
        <time>2012-03-20T11:58:58Z</time>
      </trkpt>
      <trkpt lat="42.9517" lon="-0.44149">
        <ele>677.866699</ele>
        <time>2012-03-20T11:59:10Z</time>
      </trkpt>
      <trkpt lat="42.95158" lon="-0.44158">
        <ele>678.828125</ele>
        <time>2012-03-20T11:59:23Z</time>
      </trkpt>
      <trkpt lat="42.95142" lon="-0.44165">
        <ele>679.789307</ele>
        <time>2012-03-20T11:59:38Z</time>
      </trkpt>
      <trkpt lat="42.95125" lon="-0.44166">
        <ele>678.828125</ele>
        <time>2012-03-20T11:59:52Z</time>
      </trkpt>
      <trkpt lat="42.95112" lon="-0.44174">
        <ele>679.308594</ele>
        <time>2012-03-20T12:00:04Z</time>
      </trkpt>
      <trkpt lat="42.95103" lon="-0.44183">
        <ele>678.828125</ele>
        <time>2012-03-20T12:00:15Z</time>
      </trkpt>
      <trkpt lat="42.95076" lon="-0.44197">
        <ele>678.347412</ele>
        <time>2012-03-20T12:00:36Z</time>
      </trkpt>
      <trkpt lat="42.95061" lon="-0.44216">
        <ele>679.789307</ele>
        <time>2012-03-20T12:00:51Z</time>
      </trkpt>
      <trkpt lat="42.95061" lon="-0.44221">
        <ele>680.27002</ele>
        <time>2012-03-20T12:00:54Z</time>
      </trkpt>
      <trkpt lat="42.95055" lon="-0.44247">
        <ele>683.634521</ele>
        <time>2012-03-20T12:01:12Z</time>
      </trkpt>
      <trkpt lat="42.95053" lon="-0.4425">
        <ele>685.557373</ele>
        <time>2012-03-20T12:01:15Z</time>
      </trkpt>
      <trkpt lat="42.95046" lon="-0.4427">
        <ele>685.557373</ele>
        <time>2012-03-20T12:01:32Z</time>
      </trkpt>
      <trkpt lat="42.95045" lon="-0.44272">
        <ele>685.557373</ele>
        <time>2012-03-20T12:01:34Z</time>
      </trkpt>
      <trkpt lat="42.95043" lon="-0.44284">
        <ele>685.076904</ele>
        <time>2012-03-20T12:01:41Z</time>
      </trkpt>
      <trkpt lat="42.95033" lon="-0.44296">
        <ele>685.557373</ele>
        <time>2012-03-20T12:01:55Z</time>
      </trkpt>
      <trkpt lat="42.95023" lon="-0.44315">
        <ele>687.47998</ele>
        <time>2012-03-20T12:02:10Z</time>
      </trkpt>
      <trkpt lat="42.95009" lon="-0.44327">
        <ele>688.922119</ele>
        <time>2012-03-20T12:02:23Z</time>
      </trkpt>
      <trkpt lat="42.95003" lon="-0.44329">
        <ele>689.883301</ele>
        <time>2012-03-20T12:02:29Z</time>
      </trkpt>
      <trkpt lat="42.9499" lon="-0.44337">
        <ele>690.364014</ele>
        <time>2012-03-20T12:02:46Z</time>
      </trkpt>
      <trkpt lat="42.94988" lon="-0.44338">
        <ele>690.844482</ele>
        <time>2012-03-20T12:03:00Z</time>
      </trkpt>
      <trkpt lat="42.94968" lon="-0.44346">
        <ele>691.325195</ele>
        <time>2012-03-20T12:03:19Z</time>
      </trkpt>
      <trkpt lat="42.94961" lon="-0.44348">
        <ele>690.844482</ele>
        <time>2012-03-20T12:03:31Z</time>
      </trkpt>
      <trkpt lat="42.94957" lon="-0.44341">
        <ele>690.844482</ele>
        <time>2012-03-20T12:03:35Z</time>
      </trkpt>
      <trkpt lat="42.94935" lon="-0.44322">
        <ele>688.922119</ele>
        <time>2012-03-20T12:03:55Z</time>
      </trkpt>
      <trkpt lat="42.94934" lon="-0.44322">
        <ele>688.441406</ele>
        <time>2012-03-20T12:04:05Z</time>
      </trkpt>
      <trkpt lat="42.94922" lon="-0.44324">
        <ele>688.441406</ele>
        <time>2012-03-20T12:04:19Z</time>
      </trkpt>
      <trkpt lat="42.94913" lon="-0.4433">
        <ele>688.922119</ele>
        <time>2012-03-20T12:04:31Z</time>
      </trkpt>
      <trkpt lat="42.94889" lon="-0.44324">
        <ele>691.325195</ele>
        <time>2012-03-20T12:04:50Z</time>
      </trkpt>
      <trkpt lat="42.94876" lon="-0.44331">
        <ele>692.767334</ele>
        <time>2012-03-20T12:05:06Z</time>
      </trkpt>
      <trkpt lat="42.94864" lon="-0.44342">
        <ele>696.612549</ele>
        <time>2012-03-20T12:05:22Z</time>
      </trkpt>
      <trkpt lat="42.9485" lon="-0.44342">
        <ele>699.496338</ele>
        <time>2012-03-20T12:05:37Z</time>
      </trkpt>
      <trkpt lat="42.94833" lon="-0.44334">
        <ele>702.380371</ele>
        <time>2012-03-20T12:05:55Z</time>
      </trkpt>
      <trkpt lat="42.94826" lon="-0.44345">
        <ele>703.82251</ele>
        <time>2012-03-20T12:06:10Z</time>
      </trkpt>
      <trkpt lat="42.94831" lon="-0.44348">
        <ele>705.264404</ele>
        <time>2012-03-20T12:06:21Z</time>
      </trkpt>
      <trkpt lat="42.94833" lon="-0.44351">
        <ele>704.783691</ele>
        <time>2012-03-20T12:06:25Z</time>
      </trkpt>
      <trkpt lat="42.94835" lon="-0.44352">
        <ele>705.745117</ele>
        <time>2012-03-20T12:06:28Z</time>
      </trkpt>
      <trkpt lat="42.94843" lon="-0.4436">
        <ele>706.706299</ele>
        <time>2012-03-20T12:06:40Z</time>
      </trkpt>
      <trkpt lat="42.94854" lon="-0.44369">
        <ele>710.070801</ele>
        <time>2012-03-20T12:06:52Z</time>
      </trkpt>
      <trkpt lat="42.94867" lon="-0.44376">
        <ele>712.474121</ele>
        <time>2012-03-20T12:07:07Z</time>
      </trkpt>
      <trkpt lat="42.94877" lon="-0.44383">
        <ele>715.358154</ele>
        <time>2012-03-20T12:07:19Z</time>
      </trkpt>
      <trkpt lat="42.94886" lon="-0.44384">
        <ele>716.800293</ele>
        <time>2012-03-20T12:07:31Z</time>
      </trkpt>
      <trkpt lat="42.949" lon="-0.44388">
        <ele>719.203613</ele>
        <time>2012-03-20T12:07:46Z</time>
      </trkpt>
      <trkpt lat="42.94912" lon="-0.44392">
        <ele>722.087402</ele>
        <time>2012-03-20T12:07:58Z</time>
      </trkpt>
      <trkpt lat="42.9492" lon="-0.44394">
        <ele>723.529541</ele>
        <time>2012-03-20T12:08:08Z</time>
      </trkpt>
      <trkpt lat="42.94929" lon="-0.444">
        <ele>726.894043</ele>
        <time>2012-03-20T12:08:22Z</time>
      </trkpt>
      <trkpt lat="42.94939" lon="-0.44398">
        <ele>728.81665</ele>
        <time>2012-03-20T12:08:36Z</time>
      </trkpt>
      <trkpt lat="42.94948" lon="-0.44403">
        <ele>731.219971</ele>
        <time>2012-03-20T12:08:46Z</time>
      </trkpt>
      <trkpt lat="42.94958" lon="-0.44414">
        <ele>734.104004</ele>
        <time>2012-03-20T12:08:59Z</time>
      </trkpt>
      <trkpt lat="42.94952" lon="-0.44416">
        <ele>736.026611</ele>
        <time>2012-03-20T12:09:11Z</time>
      </trkpt>
      <trkpt lat="42.94945" lon="-0.4442">
        <ele>737.949219</ele>
        <time>2012-03-20T12:09:22Z</time>
      </trkpt>
      <trkpt lat="42.94935" lon="-0.4442">
        <ele>741.313721</ele>
        <time>2012-03-20T12:09:33Z</time>
      </trkpt>
      <trkpt lat="42.9494" lon="-0.44422">
        <ele>739.871826</ele>
        <time>2012-03-20T12:09:47Z</time>
      </trkpt>
      <trkpt lat="42.94947" lon="-0.4442">
        <ele>738.429932</ele>
        <time>2012-03-20T12:09:57Z</time>
      </trkpt>
      <trkpt lat="42.94954" lon="-0.44423">
        <ele>736.026611</ele>
        <time>2012-03-20T12:10:29Z</time>
      </trkpt>
      <trkpt lat="42.94955" lon="-0.44403">
        <ele>737.468506</ele>
        <time>2012-03-20T12:12:40Z</time>
      </trkpt>
      <trkpt lat="42.94957" lon="-0.4441">
        <ele>736.507324</ele>
        <time>2012-03-20T12:13:15Z</time>
      </trkpt>
      <trkpt lat="42.94957" lon="-0.4443">
        <ele>737.468506</ele>
        <time>2012-03-20T12:14:17Z</time>
      </trkpt>
      <trkpt lat="42.94953" lon="-0.44428">
        <ele>738.910645</ele>
        <time>2012-03-20T12:15:12Z</time>
      </trkpt>
      <trkpt lat="42.94947" lon="-0.44427">
        <ele>740.833008</ele>
        <time>2012-03-20T12:15:25Z</time>
      </trkpt>
      <trkpt lat="42.94935" lon="-0.44426">
        <ele>742.275146</ele>
        <time>2012-03-20T12:15:39Z</time>
      </trkpt>
      <trkpt lat="42.9492" lon="-0.44425">
        <ele>745.158936</ele>
        <time>2012-03-20T12:15:56Z</time>
      </trkpt>
      <trkpt lat="42.94911" lon="-0.44424">
        <ele>747.562256</ele>
        <time>2012-03-20T12:16:07Z</time>
      </trkpt>
      <trkpt lat="42.94897" lon="-0.44424">
        <ele>751.407715</ele>
        <time>2012-03-20T12:16:21Z</time>
      </trkpt>
      <trkpt lat="42.94885" lon="-0.44427">
        <ele>752.368896</ele>
        <time>2012-03-20T12:16:36Z</time>
      </trkpt>
      <trkpt lat="42.94885" lon="-0.44432">
        <ele>755.733643</ele>
        <time>2012-03-20T12:16:42Z</time>
      </trkpt>
      <trkpt lat="42.94901" lon="-0.44446">
        <ele>758.136963</ele>
        <time>2012-03-20T12:16:59Z</time>
      </trkpt>
      <trkpt lat="42.94909" lon="-0.44447">
        <ele>759.578857</ele>
        <time>2012-03-20T12:17:10Z</time>
      </trkpt>
      <trkpt lat="42.94915" lon="-0.44449">
        <ele>762.943359</ele>
        <time>2012-03-20T12:17:22Z</time>
      </trkpt>
      <trkpt lat="42.94926" lon="-0.44457">
        <ele>764.866211</ele>
        <time>2012-03-20T12:17:35Z</time>
      </trkpt>
      <trkpt lat="42.94938" lon="-0.44467">
        <ele>766.788818</ele>
        <time>2012-03-20T12:17:46Z</time>
      </trkpt>
      <trkpt lat="42.94935" lon="-0.44471">
        <ele>768.230713</ele>
        <time>2012-03-20T12:17:55Z</time>
      </trkpt>
      <trkpt lat="42.94924" lon="-0.44473">
        <ele>769.672852</ele>
        <time>2012-03-20T12:18:09Z</time>
      </trkpt>
      <trkpt lat="42.94915" lon="-0.44476">
        <ele>772.556641</ele>
        <time>2012-03-20T12:18:22Z</time>
      </trkpt>
      <trkpt lat="42.949" lon="-0.44476">
        <ele>774.479248</ele>
        <time>2012-03-20T12:18:38Z</time>
      </trkpt>
      <trkpt lat="42.94888" lon="-0.44462">
        <ele>777.363281</ele>
        <time>2012-03-20T12:18:50Z</time>
      </trkpt>
      <trkpt lat="42.94877" lon="-0.44453">
        <ele>779.766357</ele>
        <time>2012-03-20T12:19:01Z</time>
      </trkpt>
      <trkpt lat="42.94876" lon="-0.44452">
        <ele>779.285645</ele>
        <time>2012-03-20T12:19:02Z</time>
      </trkpt>
      <trkpt lat="42.94861" lon="-0.44447">
        <ele>782.169922</ele>
        <time>2012-03-20T12:19:18Z</time>
      </trkpt>
      <trkpt lat="42.94848" lon="-0.44436">
        <ele>785.053955</ele>
        <time>2012-03-20T12:19:32Z</time>
      </trkpt>
      <trkpt lat="42.94837" lon="-0.44433">
        <ele>786.976318</ele>
        <time>2012-03-20T12:19:46Z</time>
      </trkpt>
      <trkpt lat="42.94826" lon="-0.44433">
        <ele>789.860352</ele>
        <time>2012-03-20T12:20:00Z</time>
      </trkpt>
      <trkpt lat="42.94812" lon="-0.44436">
        <ele>792.263672</ele>
        <time>2012-03-20T12:20:15Z</time>
      </trkpt>
      <trkpt lat="42.94796" lon="-0.44437">
        <ele>795.628174</ele>
        <time>2012-03-20T12:20:30Z</time>
      </trkpt>
      <trkpt lat="42.94794" lon="-0.44438">
        <ele>796.589844</ele>
        <time>2012-03-20T12:20:32Z</time>
      </trkpt>
      <trkpt lat="42.94783" lon="-0.44442">
        <ele>798.031738</ele>
        <time>2012-03-20T12:20:44Z</time>
      </trkpt>
      <trkpt lat="42.94773" lon="-0.44461">
        <ele>801.876953</ele>
        <time>2012-03-20T12:21:00Z</time>
      </trkpt>
      <trkpt lat="42.94769" lon="-0.44483">
        <ele>804.760742</ele>
        <time>2012-03-20T12:21:14Z</time>
      </trkpt>
      <trkpt lat="42.94767" lon="-0.44508">
        <ele>807.644775</ele>
        <time>2012-03-20T12:21:28Z</time>
      </trkpt>
      <trkpt lat="42.94775" lon="-0.44506">
        <ele>810.047852</ele>
        <time>2012-03-20T12:21:40Z</time>
      </trkpt>
      <trkpt lat="42.94779" lon="-0.44494">
        <ele>813.412842</ele>
        <time>2012-03-20T12:21:50Z</time>
      </trkpt>
      <trkpt lat="42.9479" lon="-0.44476">
        <ele>817.258057</ele>
        <time>2012-03-20T12:22:09Z</time>
      </trkpt>
      <trkpt lat="42.94802" lon="-0.44475">
        <ele>819.661377</ele>
        <time>2012-03-20T12:22:23Z</time>
      </trkpt>
      <trkpt lat="42.94809" lon="-0.44477">
        <ele>821.58374</ele>
        <time>2012-03-20T12:22:31Z</time>
      </trkpt>
      <trkpt lat="42.94822" lon="-0.44482">
        <ele>823.987061</ele>
        <time>2012-03-20T12:22:44Z</time>
      </trkpt>
      <trkpt lat="42.94838" lon="-0.44494">
        <ele>825.909668</ele>
        <time>2012-03-20T12:23:02Z</time>
      </trkpt>
      <trkpt lat="42.94845" lon="-0.44504">
        <ele>828.793945</ele>
        <time>2012-03-20T12:23:13Z</time>
      </trkpt>
      <trkpt lat="42.9485" lon="-0.44515">
        <ele>832.158447</ele>
        <time>2012-03-20T12:23:30Z</time>
      </trkpt>
      <trkpt lat="42.94849" lon="-0.44532">
        <ele>832.63916</ele>
        <time>2012-03-20T12:23:46Z</time>
      </trkpt>
      <trkpt lat="42.94849" lon="-0.44538">
        <ele>833.600342</ele>
        <time>2012-03-20T12:23:55Z</time>
      </trkpt>
      <trkpt lat="42.94849" lon="-0.44519">
        <ele>831.197266</ele>
        <time>2012-03-20T12:24:08Z</time>
      </trkpt>
      <trkpt lat="42.94846" lon="-0.44509">
        <ele>831.197266</ele>
        <time>2012-03-20T12:24:23Z</time>
      </trkpt>
      <trkpt lat="42.94844" lon="-0.44506">
        <ele>829.755127</ele>
        <time>2012-03-20T12:24:41Z</time>
      </trkpt>
      <trkpt lat="42.94838" lon="-0.44498">
        <ele>827.832275</ele>
        <time>2012-03-20T12:24:52Z</time>
      </trkpt>
      <trkpt lat="42.94835" lon="-0.44496">
        <ele>827.832275</ele>
        <time>2012-03-20T12:25:01Z</time>
      </trkpt>
      <trkpt lat="42.94821" lon="-0.44487">
        <ele>826.390381</ele>
        <time>2012-03-20T12:25:18Z</time>
      </trkpt>
      <trkpt lat="42.948" lon="-0.44488">
        <ele>824.948486</ele>
        <time>2012-03-20T12:25:37Z</time>
      </trkpt>
      <trkpt lat="42.94784" lon="-0.44513">
        <ele>822.064453</ele>
        <time>2012-03-20T12:25:58Z</time>
      </trkpt>
      <trkpt lat="42.94783" lon="-0.44516">
        <ele>821.103271</ele>
        <time>2012-03-20T12:26:00Z</time>
      </trkpt>
      <trkpt lat="42.94779" lon="-0.44543">
        <ele>818.219238</ele>
        <time>2012-03-20T12:26:16Z</time>
      </trkpt>
      <trkpt lat="42.94776" lon="-0.44571">
        <ele>814.374023</ele>
        <time>2012-03-20T12:26:32Z</time>
      </trkpt>
      <trkpt lat="42.94777" lon="-0.44611">
        <ele>813.412842</ele>
        <time>2012-03-20T12:26:56Z</time>
      </trkpt>
      <trkpt lat="42.94775" lon="-0.44628">
        <ele>811.48999</ele>
        <time>2012-03-20T12:27:08Z</time>
      </trkpt>
      <trkpt lat="42.94772" lon="-0.44633">
        <ele>810.528564</ele>
        <time>2012-03-20T12:27:13Z</time>
      </trkpt>
      <trkpt lat="42.94766" lon="-0.44646">
        <ele>809.08667</ele>
        <time>2012-03-20T12:27:23Z</time>
      </trkpt>
      <trkpt lat="42.94766" lon="-0.44647">
        <ele>809.08667</ele>
        <time>2012-03-20T12:27:24Z</time>
      </trkpt>
      <trkpt lat="42.94768" lon="-0.44651">
        <ele>809.08667</ele>
        <time>2012-03-20T12:27:35Z</time>
      </trkpt>
      <trkpt lat="42.94754" lon="-0.44668">
        <ele>807.644775</ele>
        <time>2012-03-20T12:27:52Z</time>
      </trkpt>
      <trkpt lat="42.94746" lon="-0.4467">
        <ele>806.68335</ele>
        <time>2012-03-20T12:27:59Z</time>
      </trkpt>
      <trkpt lat="42.94743" lon="-0.44646">
        <ele>805.722168</ele>
        <time>2012-03-20T12:28:15Z</time>
      </trkpt>
      <trkpt lat="42.94749" lon="-0.44627">
        <ele>802.357422</ele>
        <time>2012-03-20T12:28:27Z</time>
      </trkpt>
      <trkpt lat="42.94737" lon="-0.44598">
        <ele>798.99292</ele>
        <time>2012-03-20T12:28:47Z</time>
      </trkpt>
      <trkpt lat="42.94716" lon="-0.44569">
        <ele>796.589844</ele>
        <time>2012-03-20T12:29:11Z</time>
      </trkpt>
      <trkpt lat="42.94699" lon="-0.44551">
        <ele>793.705566</ele>
        <time>2012-03-20T12:29:27Z</time>
      </trkpt>
      <trkpt lat="42.94685" lon="-0.44528">
        <ele>791.302246</ele>
        <time>2012-03-20T12:29:45Z</time>
      </trkpt>
      <trkpt lat="42.94678" lon="-0.44499">
        <ele>789.379639</ele>
        <time>2012-03-20T12:30:03Z</time>
      </trkpt>
      <trkpt lat="42.94672" lon="-0.4448">
        <ele>786.49585</ele>
        <time>2012-03-20T12:30:15Z</time>
      </trkpt>
      <trkpt lat="42.94651" lon="-0.44461">
        <ele>785.053955</ele>
        <time>2012-03-20T12:30:34Z</time>
      </trkpt>
      <trkpt lat="42.94635" lon="-0.44455">
        <ele>783.611816</ele>
        <time>2012-03-20T12:31:29Z</time>
      </trkpt>
      <trkpt lat="42.9461" lon="-0.44444">
        <ele>781.20874</ele>
        <time>2012-03-20T12:31:51Z</time>
      </trkpt>
      <trkpt lat="42.94591" lon="-0.44433">
        <ele>779.285645</ele>
        <time>2012-03-20T12:32:08Z</time>
      </trkpt>
      <trkpt lat="42.94573" lon="-0.44421">
        <ele>775.44043</ele>
        <time>2012-03-20T12:32:25Z</time>
      </trkpt>
      <trkpt lat="42.94556" lon="-0.44407">
        <ele>772.556641</ele>
        <time>2012-03-20T12:32:40Z</time>
      </trkpt>
      <trkpt lat="42.94532" lon="-0.444">
        <ele>770.634033</ele>
        <time>2012-03-20T12:33:00Z</time>
      </trkpt>
      <trkpt lat="42.94503" lon="-0.444">
        <ele>768.230713</ele>
        <time>2012-03-20T12:33:23Z</time>
      </trkpt>
      <trkpt lat="42.94487" lon="-0.44399">
        <ele>766.308105</ele>
        <time>2012-03-20T12:33:36Z</time>
      </trkpt>
      <trkpt lat="42.94462" lon="-0.44396">
        <ele>764.385498</ele>
        <time>2012-03-20T12:33:55Z</time>
      </trkpt>
      <trkpt lat="42.94439" lon="-0.44395">
        <ele>761.501465</ele>
        <time>2012-03-20T12:34:13Z</time>
      </trkpt>
      <trkpt lat="42.9442" lon="-0.44401">
        <ele>758.136963</ele>
        <time>2012-03-20T12:34:28Z</time>
      </trkpt>
      <trkpt lat="42.94401" lon="-0.44407">
        <ele>755.25293</ele>
        <time>2012-03-20T12:34:43Z</time>
      </trkpt>
      <trkpt lat="42.94374" lon="-0.44405">
        <ele>752.368896</ele>
        <time>2012-03-20T12:35:05Z</time>
      </trkpt>
      <trkpt lat="42.94358" lon="-0.444">
        <ele>750.446533</ele>
        <time>2012-03-20T12:35:18Z</time>
      </trkpt>
      <trkpt lat="42.94328" lon="-0.44395">
        <ele>748.523682</ele>
        <time>2012-03-20T12:35:39Z</time>
      </trkpt>
      <trkpt lat="42.94301" lon="-0.44386">
        <ele>745.639648</ele>
        <time>2012-03-20T12:35:58Z</time>
      </trkpt>
      <trkpt lat="42.94286" lon="-0.44382">
        <ele>744.197754</ele>
        <time>2012-03-20T12:36:09Z</time>
      </trkpt>
      <trkpt lat="42.94278" lon="-0.44379">
        <ele>742.755859</ele>
        <time>2012-03-20T12:36:14Z</time>
      </trkpt>
      <trkpt lat="42.94255" lon="-0.4438">
        <ele>740.352539</ele>
        <time>2012-03-20T12:36:32Z</time>
      </trkpt>
      <trkpt lat="42.94253" lon="-0.44381">
        <ele>740.352539</ele>
        <time>2012-03-20T12:36:34Z</time>
      </trkpt>
      <trkpt lat="42.94247" lon="-0.44382">
        <ele>739.391113</ele>
        <time>2012-03-20T12:36:39Z</time>
      </trkpt>
      <trkpt lat="42.94223" lon="-0.4439">
        <ele>737.468506</ele>
        <time>2012-03-20T12:37:00Z</time>
      </trkpt>
      <trkpt lat="42.94219" lon="-0.44387">
        <ele>736.987793</ele>
        <time>2012-03-20T12:37:14Z</time>
      </trkpt>
      <trkpt lat="42.94221" lon="-0.44388">
        <ele>736.987793</ele>
        <time>2012-03-20T12:37:17Z</time>
      </trkpt>
      <trkpt lat="42.94226" lon="-0.44382">
        <ele>737.468506</ele>
        <time>2012-03-20T12:37:25Z</time>
      </trkpt>
      <trkpt lat="42.94204" lon="-0.44394">
        <ele>736.026611</ele>
        <time>2012-03-20T12:37:46Z</time>
      </trkpt>
      <trkpt lat="42.94203" lon="-0.44401">
        <ele>736.987793</ele>
        <time>2012-03-20T12:38:04Z</time>
      </trkpt>
      <trkpt lat="42.94196" lon="-0.44399">
        <ele>737.949219</ele>
        <time>2012-03-20T12:38:32Z</time>
      </trkpt>
      <trkpt lat="42.94187" lon="-0.44406">
        <ele>737.949219</ele>
        <time>2012-03-20T12:38:46Z</time>
      </trkpt>
      <trkpt lat="42.9418" lon="-0.44405">
        <ele>739.391113</ele>
        <time>2012-03-20T12:38:58Z</time>
      </trkpt>
      <trkpt lat="42.94176" lon="-0.44402">
        <ele>739.391113</ele>
        <time>2012-03-20T12:39:04Z</time>
      </trkpt>
      <trkpt lat="42.9416" lon="-0.44406">
        <ele>739.871826</ele>
        <time>2012-03-20T12:39:18Z</time>
      </trkpt>
      <trkpt lat="42.94147" lon="-0.44403">
        <ele>740.833008</ele>
        <time>2012-03-20T12:39:31Z</time>
      </trkpt>
      <trkpt lat="42.94128" lon="-0.44385">
        <ele>739.871826</ele>
        <time>2012-03-20T12:39:45Z</time>
      </trkpt>
      <trkpt lat="42.94117" lon="-0.44382">
        <ele>738.910645</ele>
        <time>2012-03-20T12:39:59Z</time>
      </trkpt>
      <trkpt lat="42.94112" lon="-0.4438">
        <ele>739.871826</ele>
        <time>2012-03-20T12:40:22Z</time>
      </trkpt>
      <trkpt lat="42.94112" lon="-0.4438">
        <ele>738.429932</ele>
        <time>2012-03-20T12:40:24Z</time>
      </trkpt>
      <trkpt lat="42.94117" lon="-0.44391">
        <ele>740.352539</ele>
        <time>2012-03-20T12:41:14Z</time>
      </trkpt>
      <trkpt lat="42.94112" lon="-0.44387">
        <ele>739.871826</ele>
        <time>2012-03-20T12:41:34Z</time>
      </trkpt>
      <trkpt lat="42.94112" lon="-0.44385">
        <ele>740.833008</ele>
        <time>2012-03-20T12:42:26Z</time>
      </trkpt>
      <trkpt lat="42.94106" lon="-0.44383">
        <ele>739.871826</ele>
        <time>2012-03-20T12:43:13Z</time>
      </trkpt>
      <trkpt lat="42.94109" lon="-0.44396">
        <ele>739.871826</ele>
        <time>2012-03-20T12:43:30Z</time>
      </trkpt>
      <trkpt lat="42.9411" lon="-0.444">
        <ele>739.871826</ele>
        <time>2012-03-20T12:43:52Z</time>
      </trkpt>
      <trkpt lat="42.94102" lon="-0.44388">
        <ele>739.391113</ele>
        <time>2012-03-20T12:44:12Z</time>
      </trkpt>
      <trkpt lat="42.94112" lon="-0.4439">
        <ele>738.429932</ele>
        <time>2012-03-20T12:44:22Z</time>
      </trkpt>
      <trkpt lat="42.94114" lon="-0.44393">
        <ele>738.910645</ele>
        <time>2012-03-20T12:44:39Z</time>
      </trkpt>
      <trkpt lat="42.94108" lon="-0.44382">
        <ele>737.468506</ele>
        <time>2012-03-20T12:45:07Z</time>
      </trkpt>
      <trkpt lat="42.94099" lon="-0.44387">
        <ele>738.429932</ele>
        <time>2012-03-20T12:45:20Z</time>
      </trkpt>
      <trkpt lat="42.94095" lon="-0.44393">
        <ele>739.871826</ele>
        <time>2012-03-20T12:45:33Z</time>
      </trkpt>
      <trkpt lat="42.94093" lon="-0.44393">
        <ele>739.391113</ele>
        <time>2012-03-20T12:45:34Z</time>
      </trkpt>
      <trkpt lat="42.94077" lon="-0.44393">
        <ele>741.313721</ele>
        <time>2012-03-20T12:45:47Z</time>
      </trkpt>
      <trkpt lat="42.94068" lon="-0.44401">
        <ele>742.275146</ele>
        <time>2012-03-20T12:46:01Z</time>
      </trkpt>
      <trkpt lat="42.94067" lon="-0.44401">
        <ele>742.275146</ele>
        <time>2012-03-20T12:46:02Z</time>
      </trkpt>
      <trkpt lat="42.94058" lon="-0.44404">
        <ele>741.313721</ele>
        <time>2012-03-20T12:46:11Z</time>
      </trkpt>
      <trkpt lat="42.94051" lon="-0.44399">
        <ele>742.275146</ele>
        <time>2012-03-20T12:46:16Z</time>
      </trkpt>
      <trkpt lat="42.94046" lon="-0.44407">
        <ele>742.275146</ele>
        <time>2012-03-20T12:46:23Z</time>
      </trkpt>
      <trkpt lat="42.94034" lon="-0.44402">
        <ele>742.275146</ele>
        <time>2012-03-20T12:46:39Z</time>
      </trkpt>
      <trkpt lat="42.94028" lon="-0.44391">
        <ele>741.313721</ele>
        <time>2012-03-20T12:46:48Z</time>
      </trkpt>
      <trkpt lat="42.94026" lon="-0.44401">
        <ele>741.794434</ele>
        <time>2012-03-20T12:46:52Z</time>
      </trkpt>
      <trkpt lat="42.94017" lon="-0.44404">
        <ele>740.833008</ele>
        <time>2012-03-20T12:47:00Z</time>
      </trkpt>
      <trkpt lat="42.9401" lon="-0.44407">
        <ele>740.833008</ele>
        <time>2012-03-20T12:47:11Z</time>
      </trkpt>
      <trkpt lat="42.93993" lon="-0.44397">
        <ele>740.352539</ele>
        <time>2012-03-20T12:47:24Z</time>
      </trkpt>
      <trkpt lat="42.9398" lon="-0.4439">
        <ele>741.313721</ele>
        <time>2012-03-20T12:47:37Z</time>
      </trkpt>
      <trkpt lat="42.93977" lon="-0.44389">
        <ele>741.794434</ele>
        <time>2012-03-20T12:47:39Z</time>
      </trkpt>
      <trkpt lat="42.93975" lon="-0.44392">
        <ele>741.794434</ele>
        <time>2012-03-20T12:47:41Z</time>
      </trkpt>
      <trkpt lat="42.93969" lon="-0.44392">
        <ele>742.275146</ele>
        <time>2012-03-20T12:47:46Z</time>
      </trkpt>
      <trkpt lat="42.93951" lon="-0.44388">
        <ele>743.717041</ele>
        <time>2012-03-20T12:48:01Z</time>
      </trkpt>
      <trkpt lat="42.9394" lon="-0.44388">
        <ele>742.755859</ele>
        <time>2012-03-20T12:48:11Z</time>
      </trkpt>
      <trkpt lat="42.93933" lon="-0.44384">
        <ele>740.833008</ele>
        <time>2012-03-20T12:48:23Z</time>
      </trkpt>
      <trkpt lat="42.93921" lon="-0.44382">
        <ele>739.871826</ele>
        <time>2012-03-20T12:48:37Z</time>
      </trkpt>
      <trkpt lat="42.93911" lon="-0.44383">
        <ele>737.949219</ele>
        <time>2012-03-20T12:48:50Z</time>
      </trkpt>
      <trkpt lat="42.93905" lon="-0.44386">
        <ele>737.949219</ele>
        <time>2012-03-20T12:48:58Z</time>
      </trkpt>
      <trkpt lat="42.93894" lon="-0.44381">
        <ele>737.949219</ele>
        <time>2012-03-20T12:49:09Z</time>
      </trkpt>
      <trkpt lat="42.93884" lon="-0.44379">
        <ele>738.429932</ele>
        <time>2012-03-20T12:49:26Z</time>
      </trkpt>
      <trkpt lat="42.93867" lon="-0.44367">
        <ele>739.391113</ele>
        <time>2012-03-20T12:49:53Z</time>
      </trkpt>
      <trkpt lat="42.93857" lon="-0.4436">
        <ele>739.391113</ele>
        <time>2012-03-20T12:50:05Z</time>
      </trkpt>
      <trkpt lat="42.93834" lon="-0.44337">
        <ele>738.910645</ele>
        <time>2012-03-20T12:50:17Z</time>
      </trkpt>
      <trkpt lat="42.93821" lon="-0.44325">
        <ele>738.910645</ele>
        <time>2012-03-20T12:50:27Z</time>
      </trkpt>
      <trkpt lat="42.93811" lon="-0.44323">
        <ele>737.468506</ele>
        <time>2012-03-20T12:50:36Z</time>
      </trkpt>
      <trkpt lat="42.93798" lon="-0.44324">
        <ele>738.910645</ele>
        <time>2012-03-20T12:50:47Z</time>
      </trkpt>
      <trkpt lat="42.93781" lon="-0.44318">
        <ele>737.949219</ele>
        <time>2012-03-20T12:51:01Z</time>
      </trkpt>
      <trkpt lat="42.93764" lon="-0.4431">
        <ele>737.468506</ele>
        <time>2012-03-20T12:51:16Z</time>
      </trkpt>
      <trkpt lat="42.9377" lon="-0.44302">
        <ele>734.104004</ele>
        <time>2012-03-20T12:51:33Z</time>
      </trkpt>
      <trkpt lat="42.93766" lon="-0.44288">
        <ele>734.104004</ele>
        <time>2012-03-20T12:52:18Z</time>
      </trkpt>
      <trkpt lat="42.93761" lon="-0.44256">
        <ele>734.104004</ele>
        <time>2012-03-20T12:53:54Z</time>
      </trkpt>
      <trkpt lat="42.93741" lon="-0.44209">
        <ele>736.507324</ele>
        <time>2012-03-20T12:55:29Z</time>
      </trkpt>
      <trkpt lat="42.93764" lon="-0.44226">
        <ele>739.391113</ele>
        <time>2012-03-20T12:56:18Z</time>
      </trkpt>
      <trkpt lat="42.93748" lon="-0.44206">
        <ele>740.352539</ele>
        <time>2012-03-20T12:56:49Z</time>
      </trkpt>
      <trkpt lat="42.93742" lon="-0.44228">
        <ele>743.236328</ele>
        <time>2012-03-20T12:57:34Z</time>
      </trkpt>
      <trkpt lat="42.93743" lon="-0.44231">
        <ele>742.275146</ele>
        <time>2012-03-20T12:57:44Z</time>
      </trkpt>
      <trkpt lat="42.93746" lon="-0.4424">
        <ele>739.871826</ele>
        <time>2012-03-20T12:57:59Z</time>
      </trkpt>
      <trkpt lat="42.93737" lon="-0.44247">
        <ele>740.833008</ele>
        <time>2012-03-20T12:58:16Z</time>
      </trkpt>
      <trkpt lat="42.93718" lon="-0.4425">
        <ele>743.236328</ele>
        <time>2012-03-20T12:58:34Z</time>
      </trkpt>
      <trkpt lat="42.93713" lon="-0.44252">
        <ele>743.236328</ele>
        <time>2012-03-20T12:58:43Z</time>
      </trkpt>
      <trkpt lat="42.93708" lon="-0.44246">
        <ele>743.717041</ele>
        <time>2012-03-20T12:58:51Z</time>
      </trkpt>
      <trkpt lat="42.93702" lon="-0.44246">
        <ele>743.717041</ele>
        <time>2012-03-20T12:58:55Z</time>
      </trkpt>
      <trkpt lat="42.93691" lon="-0.44256">
        <ele>744.678223</ele>
        <time>2012-03-20T12:59:06Z</time>
      </trkpt>
      <trkpt lat="42.93689" lon="-0.44261">
        <ele>745.158936</ele>
        <time>2012-03-20T12:59:09Z</time>
      </trkpt>
      <trkpt lat="42.93679" lon="-0.44284">
        <ele>746.601074</ele>
        <time>2012-03-20T12:59:25Z</time>
      </trkpt>
      <trkpt lat="42.93667" lon="-0.44324">
        <ele>748.043213</ele>
        <time>2012-03-20T12:59:43Z</time>
      </trkpt>
      <trkpt lat="42.93657" lon="-0.44343">
        <ele>748.043213</ele>
        <time>2012-03-20T12:59:56Z</time>
      </trkpt>
      <trkpt lat="42.93645" lon="-0.44354">
        <ele>747.562256</ele>
        <time>2012-03-20T13:00:12Z</time>
      </trkpt>
      <trkpt lat="42.93643" lon="-0.44361">
        <ele>747.081543</ele>
        <time>2012-03-20T13:00:29Z</time>
      </trkpt>
      <trkpt lat="42.93647" lon="-0.4436">
        <ele>747.562256</ele>
        <time>2012-03-20T13:00:41Z</time>
      </trkpt>
      <trkpt lat="42.93643" lon="-0.44371">
        <ele>745.639648</ele>
        <time>2012-03-20T13:00:55Z</time>
      </trkpt>
      <trkpt lat="42.93632" lon="-0.44378">
        <ele>747.081543</ele>
        <time>2012-03-20T13:01:07Z</time>
      </trkpt>
      <trkpt lat="42.9363" lon="-0.44382">
        <ele>747.562256</ele>
        <time>2012-03-20T13:01:23Z</time>
      </trkpt>
      <trkpt lat="42.93633" lon="-0.44379">
        <ele>748.043213</ele>
        <time>2012-03-20T13:01:26Z</time>
      </trkpt>
      <trkpt lat="42.93643" lon="-0.44372">
        <ele>747.081543</ele>
        <time>2012-03-20T13:01:39Z</time>
      </trkpt>
      <trkpt lat="42.93647" lon="-0.44374">
        <ele>747.081543</ele>
        <time>2012-03-20T13:01:42Z</time>
      </trkpt>
      <trkpt lat="42.93647" lon="-0.44365">
        <ele>747.562256</ele>
        <time>2012-03-20T13:01:57Z</time>
      </trkpt>
      <trkpt lat="42.93643" lon="-0.44352">
        <ele>746.601074</ele>
        <time>2012-03-20T13:02:20Z</time>
      </trkpt>
      <trkpt lat="42.9365" lon="-0.44355">
        <ele>745.158936</ele>
        <time>2012-03-20T13:04:27Z</time>
      </trkpt>
      <trkpt lat="42.93644" lon="-0.44366">
        <ele>743.717041</ele>
        <time>2012-03-20T13:06:01Z</time>
      </trkpt>
      <trkpt lat="42.9362" lon="-0.44381">
        <ele>743.717041</ele>
        <time>2012-03-20T13:06:25Z</time>
      </trkpt>
      <trkpt lat="42.93623" lon="-0.4439">
        <ele>742.275146</ele>
        <time>2012-03-20T13:06:40Z</time>
      </trkpt>
      <trkpt lat="42.93616" lon="-0.4438">
        <ele>740.833008</ele>
        <time>2012-03-20T13:06:59Z</time>
      </trkpt>
      <trkpt lat="42.93621" lon="-0.44381">
        <ele>741.794434</ele>
        <time>2012-03-20T13:07:10Z</time>
      </trkpt>
      <trkpt lat="42.93618" lon="-0.44381">
        <ele>742.275146</ele>
        <time>2012-03-20T13:07:13Z</time>
      </trkpt>
      <trkpt lat="42.93609" lon="-0.44384">
        <ele>741.794434</ele>
        <time>2012-03-20T13:07:30Z</time>
      </trkpt>
      <trkpt lat="42.93603" lon="-0.44378">
        <ele>742.275146</ele>
        <time>2012-03-20T13:07:46Z</time>
      </trkpt>
      <trkpt lat="42.93599" lon="-0.44373">
        <ele>742.275146</ele>
        <time>2012-03-20T13:07:50Z</time>
      </trkpt>
      <trkpt lat="42.93594" lon="-0.44365">
        <ele>742.275146</ele>
        <time>2012-03-20T13:08:02Z</time>
      </trkpt>
      <trkpt lat="42.93593" lon="-0.44374">
        <ele>742.755859</ele>
        <time>2012-03-20T13:08:22Z</time>
      </trkpt>
      <trkpt lat="42.93595" lon="-0.44365">
        <ele>742.755859</ele>
        <time>2012-03-20T13:09:02Z</time>
      </trkpt>
      <trkpt lat="42.9359" lon="-0.44365">
        <ele>746.120361</ele>
        <time>2012-03-20T13:09:12Z</time>
      </trkpt>
      <trkpt lat="42.93589" lon="-0.44359">
        <ele>749.004395</ele>
        <time>2012-03-20T13:09:24Z</time>
      </trkpt>
      <trkpt lat="42.93581" lon="-0.44369">
        <ele>749.485107</ele>
        <time>2012-03-20T13:09:38Z</time>
      </trkpt>
      <trkpt lat="42.93575" lon="-0.44376">
        <ele>749.004395</ele>
        <time>2012-03-20T13:09:50Z</time>
      </trkpt>
      <trkpt lat="42.93569" lon="-0.44384">
        <ele>749.485107</ele>
        <time>2012-03-20T13:09:56Z</time>
      </trkpt>
      <trkpt lat="42.93563" lon="-0.44395">
        <ele>749.004395</ele>
        <time>2012-03-20T13:10:04Z</time>
      </trkpt>
      <trkpt lat="42.93563" lon="-0.44398">
        <ele>749.485107</ele>
        <time>2012-03-20T13:10:06Z</time>
      </trkpt>
      <trkpt lat="42.93559" lon="-0.44404">
        <ele>749.96582</ele>
        <time>2012-03-20T13:10:12Z</time>
      </trkpt>
      <trkpt lat="42.93539" lon="-0.4441">
        <ele>749.485107</ele>
        <time>2012-03-20T13:10:30Z</time>
      </trkpt>
      <trkpt lat="42.9353" lon="-0.44416">
        <ele>749.004395</ele>
        <time>2012-03-20T13:10:40Z</time>
      </trkpt>
      <trkpt lat="42.93519" lon="-0.44431">
        <ele>749.485107</ele>
        <time>2012-03-20T13:10:55Z</time>
      </trkpt>
      <trkpt lat="42.93517" lon="-0.44437">
        <ele>749.004395</ele>
        <time>2012-03-20T13:11:02Z</time>
      </trkpt>
      <trkpt lat="42.93514" lon="-0.44459">
        <ele>748.523682</ele>
        <time>2012-03-20T13:11:16Z</time>
      </trkpt>
      <trkpt lat="42.93501" lon="-0.44475">
        <ele>747.562256</ele>
        <time>2012-03-20T13:11:32Z</time>
      </trkpt>
      <trkpt lat="42.93495" lon="-0.44474">
        <ele>748.043213</ele>
        <time>2012-03-20T13:11:38Z</time>
      </trkpt>
      <trkpt lat="42.93485" lon="-0.44483">
        <ele>749.004395</ele>
        <time>2012-03-20T13:11:51Z</time>
      </trkpt>
      <trkpt lat="42.93481" lon="-0.44484">
        <ele>748.043213</ele>
        <time>2012-03-20T13:11:56Z</time>
      </trkpt>
      <trkpt lat="42.93479" lon="-0.44489">
        <ele>748.523682</ele>
        <time>2012-03-20T13:11:59Z</time>
      </trkpt>
      <trkpt lat="42.93473" lon="-0.44495">
        <ele>748.043213</ele>
        <time>2012-03-20T13:12:06Z</time>
      </trkpt>
      <trkpt lat="42.93464" lon="-0.44501">
        <ele>748.043213</ele>
        <time>2012-03-20T13:12:15Z</time>
      </trkpt>
      <trkpt lat="42.93456" lon="-0.445">
        <ele>748.043213</ele>
        <time>2012-03-20T13:12:20Z</time>
      </trkpt>
      <trkpt lat="42.93452" lon="-0.44503">
        <ele>748.043213</ele>
        <time>2012-03-20T13:12:24Z</time>
      </trkpt>
      <trkpt lat="42.9345" lon="-0.44502">
        <ele>747.562256</ele>
        <time>2012-03-20T13:12:26Z</time>
      </trkpt>
      <trkpt lat="42.93447" lon="-0.44504">
        <ele>747.562256</ele>
        <time>2012-03-20T13:12:29Z</time>
      </trkpt>
      <trkpt lat="42.93438" lon="-0.44503">
        <ele>748.523682</ele>
        <time>2012-03-20T13:12:36Z</time>
      </trkpt>
      <trkpt lat="42.93426" lon="-0.44509">
        <ele>750.446533</ele>
        <time>2012-03-20T13:12:51Z</time>
      </trkpt>
      <trkpt lat="42.93423" lon="-0.4451">
        <ele>753.811035</ele>
        <time>2012-03-20T13:12:59Z</time>
      </trkpt>
      <trkpt lat="42.93422" lon="-0.4451">
        <ele>753.811035</ele>
        <time>2012-03-20T13:13:00Z</time>
      </trkpt>
      <trkpt lat="42.93414" lon="-0.44508">
        <ele>754.772217</ele>
        <time>2012-03-20T13:13:12Z</time>
      </trkpt>
      <trkpt lat="42.93408" lon="-0.44511">
        <ele>754.291748</ele>
        <time>2012-03-20T13:13:22Z</time>
      </trkpt>
      <trkpt lat="42.93399" lon="-0.44521">
        <ele>754.772217</ele>
        <time>2012-03-20T13:13:38Z</time>
      </trkpt>
      <trkpt lat="42.93385" lon="-0.44534">
        <ele>753.811035</ele>
        <time>2012-03-20T13:13:54Z</time>
      </trkpt>
      <trkpt lat="42.93362" lon="-0.44541">
        <ele>752.849609</ele>
        <time>2012-03-20T13:14:14Z</time>
      </trkpt>
      <trkpt lat="42.93354" lon="-0.44544">
        <ele>752.368896</ele>
        <time>2012-03-20T13:14:33Z</time>
      </trkpt>
      <trkpt lat="42.9334" lon="-0.44547">
        <ele>752.368896</ele>
        <time>2012-03-20T13:14:51Z</time>
      </trkpt>
      <trkpt lat="42.93327" lon="-0.44551">
        <ele>751.888428</ele>
        <time>2012-03-20T13:15:02Z</time>
      </trkpt>
      <trkpt lat="42.93315" lon="-0.44554">
        <ele>752.368896</ele>
        <time>2012-03-20T13:15:12Z</time>
      </trkpt>
      <trkpt lat="42.93294" lon="-0.44562">
        <ele>751.888428</ele>
        <time>2012-03-20T13:15:29Z</time>
      </trkpt>
      <trkpt lat="42.93272" lon="-0.44568">
        <ele>750.927002</ele>
        <time>2012-03-20T13:15:47Z</time>
      </trkpt>
      <trkpt lat="42.93258" lon="-0.4457">
        <ele>750.927002</ele>
        <time>2012-03-20T13:15:58Z</time>
      </trkpt>
      <trkpt lat="42.93242" lon="-0.44568">
        <ele>751.407715</ele>
        <time>2012-03-20T13:16:11Z</time>
      </trkpt>
      <trkpt lat="42.93233" lon="-0.44568">
        <ele>751.888428</ele>
        <time>2012-03-20T13:16:28Z</time>
      </trkpt>
      <trkpt lat="42.9323" lon="-0.44573">
        <ele>750.927002</ele>
        <time>2012-03-20T13:17:07Z</time>
      </trkpt>
      <trkpt lat="42.93233" lon="-0.44571">
        <ele>751.407715</ele>
        <time>2012-03-20T13:17:25Z</time>
      </trkpt>
      <trkpt lat="42.93227" lon="-0.4457">
        <ele>750.446533</ele>
        <time>2012-03-20T13:17:59Z</time>
      </trkpt>
      <trkpt lat="42.93215" lon="-0.44572">
        <ele>753.330322</ele>
        <time>2012-03-20T13:18:13Z</time>
      </trkpt>
      <trkpt lat="42.93208" lon="-0.44575">
        <ele>753.811035</ele>
        <time>2012-03-20T13:18:37Z</time>
      </trkpt>
      <trkpt lat="42.93206" lon="-0.44569">
        <ele>753.811035</ele>
        <time>2012-03-20T13:18:52Z</time>
      </trkpt>
      <trkpt lat="42.93208" lon="-0.44567">
        <ele>754.772217</ele>
        <time>2012-03-20T13:18:55Z</time>
      </trkpt>
      <trkpt lat="42.93211" lon="-0.44562">
        <ele>756.214111</ele>
        <time>2012-03-20T13:19:00Z</time>
      </trkpt>
      <trkpt lat="42.93207" lon="-0.44558">
        <ele>759.098145</ele>
        <time>2012-03-20T13:19:11Z</time>
      </trkpt>
      <trkpt lat="42.93202" lon="-0.44561">
        <ele>759.098145</ele>
        <time>2012-03-20T13:19:26Z</time>
      </trkpt>
      <trkpt lat="42.93198" lon="-0.44562">
        <ele>757.65625</ele>
        <time>2012-03-20T13:19:57Z</time>
      </trkpt>
      <trkpt lat="42.93196" lon="-0.44571">
        <ele>757.175537</ele>
        <time>2012-03-20T13:20:13Z</time>
      </trkpt>
      <trkpt lat="42.93188" lon="-0.44577">
        <ele>758.617432</ele>
        <time>2012-03-20T13:20:47Z</time>
      </trkpt>
      <trkpt lat="42.93184" lon="-0.44577">
        <ele>757.65625</ele>
        <time>2012-03-20T13:21:18Z</time>
      </trkpt>
      <trkpt lat="42.93182" lon="-0.4458">
        <ele>757.175537</ele>
        <time>2012-03-20T13:21:25Z</time>
      </trkpt>
      <trkpt lat="42.9318" lon="-0.44584">
        <ele>753.330322</ele>
        <time>2012-03-20T13:21:33Z</time>
      </trkpt>
      <trkpt lat="42.93177" lon="-0.44585">
        <ele>752.368896</ele>
        <time>2012-03-20T13:21:40Z</time>
      </trkpt>
      <trkpt lat="42.93172" lon="-0.44594">
        <ele>749.485107</ele>
        <time>2012-03-20T13:21:55Z</time>
      </trkpt>
      <trkpt lat="42.93166" lon="-0.44598">
        <ele>747.562256</ele>
        <time>2012-03-20T13:22:10Z</time>
      </trkpt>
      <trkpt lat="42.93159" lon="-0.44603">
        <ele>747.081543</ele>
        <time>2012-03-20T13:22:30Z</time>
      </trkpt>
      <trkpt lat="42.93151" lon="-0.44602">
        <ele>748.043213</ele>
        <time>2012-03-20T13:22:45Z</time>
      </trkpt>
      <trkpt lat="42.93144" lon="-0.44601">
        <ele>748.043213</ele>
        <time>2012-03-20T13:22:59Z</time>
      </trkpt>
      <trkpt lat="42.93129" lon="-0.44613">
        <ele>748.043213</ele>
        <time>2012-03-20T13:23:13Z</time>
      </trkpt>
      <trkpt lat="42.93118" lon="-0.44619">
        <ele>746.601074</ele>
        <time>2012-03-20T13:23:25Z</time>
      </trkpt>
      <trkpt lat="42.93106" lon="-0.44623">
        <ele>746.601074</ele>
        <time>2012-03-20T13:23:38Z</time>
      </trkpt>
      <trkpt lat="42.93104" lon="-0.44624">
        <ele>748.043213</ele>
        <time>2012-03-20T13:23:41Z</time>
      </trkpt>
      <trkpt lat="42.93101" lon="-0.44626">
        <ele>748.043213</ele>
        <time>2012-03-20T13:23:44Z</time>
      </trkpt>
      <trkpt lat="42.93084" lon="-0.44644">
        <ele>749.485107</ele>
        <time>2012-03-20T13:24:01Z</time>
      </trkpt>
      <trkpt lat="42.93072" lon="-0.44658">
        <ele>747.562256</ele>
        <time>2012-03-20T13:24:14Z</time>
      </trkpt>
      <trkpt lat="42.93066" lon="-0.44657">
        <ele>749.485107</ele>
        <time>2012-03-20T13:24:29Z</time>
      </trkpt>
      <trkpt lat="42.93055" lon="-0.4466">
        <ele>750.927002</ele>
        <time>2012-03-20T13:24:41Z</time>
      </trkpt>
      <trkpt lat="42.93053" lon="-0.44654">
        <ele>752.849609</ele>
        <time>2012-03-20T13:24:53Z</time>
      </trkpt>
      <trkpt lat="42.93045" lon="-0.44649">
        <ele>756.214111</ele>
        <time>2012-03-20T13:25:05Z</time>
      </trkpt>
      <trkpt lat="42.93044" lon="-0.44645">
        <ele>758.136963</ele>
        <time>2012-03-20T13:25:18Z</time>
      </trkpt>
      <trkpt lat="42.93042" lon="-0.4464">
        <ele>760.540039</ele>
        <time>2012-03-20T13:25:32Z</time>
      </trkpt>
      <trkpt lat="42.93035" lon="-0.44643">
        <ele>763.424072</ele>
        <time>2012-03-20T13:25:46Z</time>
      </trkpt>
      <trkpt lat="42.9303" lon="-0.44646">
        <ele>765.346924</ele>
        <time>2012-03-20T13:25:59Z</time>
      </trkpt>
      <trkpt lat="42.93029" lon="-0.44646">
        <ele>765.346924</ele>
        <time>2012-03-20T13:26:00Z</time>
      </trkpt>
      <trkpt lat="42.93026" lon="-0.44641">
        <ele>768.711426</ele>
        <time>2012-03-20T13:26:13Z</time>
      </trkpt>
      <trkpt lat="42.93019" lon="-0.44644">
        <ele>770.15332</ele>
        <time>2012-03-20T13:26:26Z</time>
      </trkpt>
      <trkpt lat="42.93013" lon="-0.44642">
        <ele>773.518066</ele>
        <time>2012-03-20T13:26:39Z</time>
      </trkpt>
      <trkpt lat="42.93011" lon="-0.44629">
        <ele>776.401855</ele>
        <time>2012-03-20T13:26:55Z</time>
      </trkpt>
      <trkpt lat="42.9301" lon="-0.44624">
        <ele>778.805176</ele>
        <time>2012-03-20T13:27:07Z</time>
      </trkpt>
      <trkpt lat="42.93003" lon="-0.44625">
        <ele>781.689209</ele>
        <time>2012-03-20T13:27:21Z</time>
      </trkpt>
      <trkpt lat="42.93003" lon="-0.44614">
        <ele>784.092529</ele>
        <time>2012-03-20T13:27:34Z</time>
      </trkpt>
      <trkpt lat="42.92996" lon="-0.44616">
        <ele>786.015137</ele>
        <time>2012-03-20T13:27:48Z</time>
      </trkpt>
      <trkpt lat="42.9299" lon="-0.44618">
        <ele>788.418457</ele>
        <time>2012-03-20T13:28:02Z</time>
      </trkpt>
      <trkpt lat="42.92985" lon="-0.4461">
        <ele>788.89917</ele>
        <time>2012-03-20T13:28:10Z</time>
      </trkpt>
      <trkpt lat="42.92972" lon="-0.44609">
        <ele>792.263672</ele>
        <time>2012-03-20T13:28:24Z</time>
      </trkpt>
      <trkpt lat="42.9297" lon="-0.44609">
        <ele>792.263672</ele>
        <time>2012-03-20T13:28:26Z</time>
      </trkpt>
      <trkpt lat="42.92959" lon="-0.44609">
        <ele>790.821533</ele>
        <time>2012-03-20T13:28:38Z</time>
      </trkpt>
      <trkpt lat="42.92949" lon="-0.44609">
        <ele>791.302246</ele>
        <time>2012-03-20T13:28:51Z</time>
      </trkpt>
      <trkpt lat="42.92934" lon="-0.44608">
        <ele>794.186279</ele>
        <time>2012-03-20T13:29:09Z</time>
      </trkpt>
      <trkpt lat="42.92927" lon="-0.44611">
        <ele>796.109131</ele>
        <time>2012-03-20T13:29:21Z</time>
      </trkpt>
      <trkpt lat="42.92917" lon="-0.44609">
        <ele>798.031738</ele>
        <time>2012-03-20T13:29:34Z</time>
      </trkpt>
      <trkpt lat="42.92915" lon="-0.44608">
        <ele>797.551025</ele>
        <time>2012-03-20T13:29:53Z</time>
      </trkpt>
      <trkpt lat="42.92903" lon="-0.44605">
        <ele>796.109131</ele>
        <time>2012-03-20T13:30:05Z</time>
      </trkpt>
      <trkpt lat="42.92876" lon="-0.44607">
        <ele>794.186279</ele>
        <time>2012-03-20T13:30:28Z</time>
      </trkpt>
      <trkpt lat="42.92872" lon="-0.44608">
        <ele>794.186279</ele>
        <time>2012-03-20T13:30:33Z</time>
      </trkpt>
      <trkpt lat="42.92859" lon="-0.44609">
        <ele>795.628174</ele>
        <time>2012-03-20T13:30:44Z</time>
      </trkpt>
      <trkpt lat="42.92856" lon="-0.446">
        <ele>797.551025</ele>
        <time>2012-03-20T13:30:56Z</time>
      </trkpt>
      <trkpt lat="42.92857" lon="-0.44592">
        <ele>798.512207</ele>
        <time>2012-03-20T13:31:10Z</time>
      </trkpt>
      <trkpt lat="42.92853" lon="-0.44588">
        <ele>799.473633</ele>
        <time>2012-03-20T13:31:36Z</time>
      </trkpt>
      <trkpt lat="42.92852" lon="-0.44582">
        <ele>799.954346</ele>
        <time>2012-03-20T13:32:07Z</time>
      </trkpt>
      <trkpt lat="42.92856" lon="-0.44586">
        <ele>797.551025</ele>
        <time>2012-03-20T13:32:40Z</time>
      </trkpt>
      <trkpt lat="42.92857" lon="-0.44586">
        <ele>799.473633</ele>
        <time>2012-03-20T13:33:10Z</time>
      </trkpt>
      <trkpt lat="42.92853" lon="-0.44589">
        <ele>798.99292</ele>
        <time>2012-03-20T13:33:50Z</time>
      </trkpt>
      <trkpt lat="42.92859" lon="-0.44589">
        <ele>797.551025</ele>
        <time>2012-03-20T13:34:23Z</time>
      </trkpt>
      <trkpt lat="42.92857" lon="-0.44594">
        <ele>799.954346</ele>
        <time>2012-03-20T13:34:45Z</time>
      </trkpt>
      <trkpt lat="42.92859" lon="-0.4459">
        <ele>798.031738</ele>
        <time>2012-03-20T13:35:36Z</time>
      </trkpt>
      <trkpt lat="42.92858" lon="-0.44596">
        <ele>797.551025</ele>
        <time>2012-03-20T13:36:12Z</time>
      </trkpt>
      <trkpt lat="42.92854" lon="-0.44597">
        <ele>797.551025</ele>
        <time>2012-03-20T13:36:21Z</time>
      </trkpt>
      <trkpt lat="42.92851" lon="-0.44589">
        <ele>799.473633</ele>
        <time>2012-03-20T13:36:29Z</time>
      </trkpt>
      <trkpt lat="42.92848" lon="-0.44575">
        <ele>803.799561</ele>
        <time>2012-03-20T13:36:42Z</time>
      </trkpt>
      <trkpt lat="42.92845" lon="-0.44567">
        <ele>807.164062</ele>
        <time>2012-03-20T13:36:52Z</time>
      </trkpt>
      <trkpt lat="42.92837" lon="-0.4456">
        <ele>809.08667</ele>
        <time>2012-03-20T13:37:06Z</time>
      </trkpt>
      <trkpt lat="42.92827" lon="-0.44559">
        <ele>810.047852</ele>
        <time>2012-03-20T13:37:14Z</time>
      </trkpt>
      <trkpt lat="42.92816" lon="-0.44555">
        <ele>810.047852</ele>
        <time>2012-03-20T13:37:25Z</time>
      </trkpt>
      <trkpt lat="42.92807" lon="-0.44548">
        <ele>809.567383</ele>
        <time>2012-03-20T13:37:35Z</time>
      </trkpt>
      <trkpt lat="42.92789" lon="-0.44548">
        <ele>809.08667</ele>
        <time>2012-03-20T13:37:50Z</time>
      </trkpt>
      <trkpt lat="42.92784" lon="-0.44553">
        <ele>809.567383</ele>
        <time>2012-03-20T13:37:57Z</time>
      </trkpt>
      <trkpt lat="42.92772" lon="-0.44573">
        <ele>810.047852</ele>
        <time>2012-03-20T13:38:16Z</time>
      </trkpt>
      <trkpt lat="42.92763" lon="-0.44579">
        <ele>810.047852</ele>
        <time>2012-03-20T13:38:29Z</time>
      </trkpt>
      <trkpt lat="42.9276" lon="-0.44578">
        <ele>811.970703</ele>
        <time>2012-03-20T13:38:32Z</time>
      </trkpt>
      <trkpt lat="42.92751" lon="-0.44577">
        <ele>814.374023</ele>
        <time>2012-03-20T13:38:42Z</time>
      </trkpt>
      <trkpt lat="42.92743" lon="-0.44576">
        <ele>817.258057</ele>
        <time>2012-03-20T13:38:53Z</time>
      </trkpt>
      <trkpt lat="42.92735" lon="-0.44575">
        <ele>818.699951</ele>
        <time>2012-03-20T13:39:05Z</time>
      </trkpt>
      <trkpt lat="42.92719" lon="-0.44565">
        <ele>821.103271</ele>
        <time>2012-03-20T13:39:23Z</time>
      </trkpt>
      <trkpt lat="42.92711" lon="-0.44561">
        <ele>820.141846</ele>
        <time>2012-03-20T13:39:33Z</time>
      </trkpt>
      <trkpt lat="42.92704" lon="-0.44555">
        <ele>819.661377</ele>
        <time>2012-03-20T13:39:47Z</time>
      </trkpt>
      <trkpt lat="42.92695" lon="-0.44557">
        <ele>818.219238</ele>
        <time>2012-03-20T13:40:01Z</time>
      </trkpt>
      <trkpt lat="42.9268" lon="-0.44559">
        <ele>817.258057</ele>
        <time>2012-03-20T13:40:18Z</time>
      </trkpt>
      <trkpt lat="42.92665" lon="-0.44568">
        <ele>815.816162</ele>
        <time>2012-03-20T13:40:35Z</time>
      </trkpt>
      <trkpt lat="42.92657" lon="-0.44575">
        <ele>813.893311</ele>
        <time>2012-03-20T13:40:46Z</time>
      </trkpt>
      <trkpt lat="42.92648" lon="-0.44577">
        <ele>813.893311</ele>
        <time>2012-03-20T13:40:59Z</time>
      </trkpt>
      <trkpt lat="42.92637" lon="-0.44581">
        <ele>812.932129</ele>
        <time>2012-03-20T13:41:14Z</time>
      </trkpt>
      <trkpt lat="42.9263" lon="-0.44584">
        <ele>810.047852</ele>
        <time>2012-03-20T13:41:28Z</time>
      </trkpt>
      <trkpt lat="42.92625" lon="-0.44586">
        <ele>808.605957</ele>
        <time>2012-03-20T13:41:35Z</time>
      </trkpt>
      <trkpt lat="42.92617" lon="-0.44594">
        <ele>805.722168</ele>
        <time>2012-03-20T13:41:50Z</time>
      </trkpt>
      <trkpt lat="42.92613" lon="-0.44611">
        <ele>803.318848</ele>
        <time>2012-03-20T13:42:08Z</time>
      </trkpt>
      <trkpt lat="42.92608" lon="-0.4462">
        <ele>801.39624</ele>
        <time>2012-03-20T13:42:24Z</time>
      </trkpt>
      <trkpt lat="42.92602" lon="-0.44633">
        <ele>799.473633</ele>
        <time>2012-03-20T13:42:41Z</time>
      </trkpt>
      <trkpt lat="42.92593" lon="-0.44637">
        <ele>797.551025</ele>
        <time>2012-03-20T13:42:56Z</time>
      </trkpt>
      <trkpt lat="42.92585" lon="-0.44635">
        <ele>795.147461</ele>
        <time>2012-03-20T13:43:08Z</time>
      </trkpt>
      <trkpt lat="42.92576" lon="-0.44637">
        <ele>793.224854</ele>
        <time>2012-03-20T13:43:22Z</time>
      </trkpt>
      <trkpt lat="42.92566" lon="-0.44637">
        <ele>790.821533</ele>
        <time>2012-03-20T13:43:37Z</time>
      </trkpt>
      <trkpt lat="42.92556" lon="-0.44629">
        <ele>788.418457</ele>
        <time>2012-03-20T13:43:50Z</time>
      </trkpt>
      <trkpt lat="42.92554" lon="-0.44629">
        <ele>786.976318</ele>
        <time>2012-03-20T13:43:53Z</time>
      </trkpt>
      <trkpt lat="42.92541" lon="-0.44631">
        <ele>785.053955</ele>
        <time>2012-03-20T13:44:07Z</time>
      </trkpt>
      <trkpt lat="42.92534" lon="-0.44625">
        <ele>783.131104</ele>
        <time>2012-03-20T13:44:18Z</time>
      </trkpt>
      <trkpt lat="42.92529" lon="-0.44621">
        <ele>779.766357</ele>
        <time>2012-03-20T13:44:27Z</time>
      </trkpt>
      <trkpt lat="42.92524" lon="-0.4462">
        <ele>777.84375</ele>
        <time>2012-03-20T13:44:39Z</time>
      </trkpt>
      <trkpt lat="42.92518" lon="-0.4462">
        <ele>777.363281</ele>
        <time>2012-03-20T13:44:50Z</time>
      </trkpt>
      <trkpt lat="42.92517" lon="-0.44619">
        <ele>777.363281</ele>
        <time>2012-03-20T13:44:51Z</time>
      </trkpt>
      <trkpt lat="42.92506" lon="-0.44604">
        <ele>776.882568</ele>
        <time>2012-03-20T13:45:06Z</time>
      </trkpt>
      <trkpt lat="42.925" lon="-0.44594">
        <ele>777.84375</ele>
        <time>2012-03-20T13:45:18Z</time>
      </trkpt>
      <trkpt lat="42.92497" lon="-0.44595">
        <ele>777.363281</ele>
        <time>2012-03-20T13:45:21Z</time>
      </trkpt>
      <trkpt lat="42.92494" lon="-0.44592">
        <ele>777.84375</ele>
        <time>2012-03-20T13:45:24Z</time>
      </trkpt>
      <trkpt lat="42.92485" lon="-0.44586">
        <ele>777.84375</ele>
        <time>2012-03-20T13:45:34Z</time>
      </trkpt>
      <trkpt lat="42.92476" lon="-0.44582">
        <ele>777.84375</ele>
        <time>2012-03-20T13:45:46Z</time>
      </trkpt>
      <trkpt lat="42.92475" lon="-0.44582">
        <ele>777.363281</ele>
        <time>2012-03-20T13:45:47Z</time>
      </trkpt>
      <trkpt lat="42.9247" lon="-0.44567">
        <ele>778.805176</ele>
        <time>2012-03-20T13:46:01Z</time>
      </trkpt>
      <trkpt lat="42.92463" lon="-0.44561">
        <ele>780.247314</ele>
        <time>2012-03-20T13:46:12Z</time>
      </trkpt>
      <trkpt lat="42.92457" lon="-0.44556">
        <ele>783.131104</ele>
        <time>2012-03-20T13:46:25Z</time>
      </trkpt>
      <trkpt lat="42.9245" lon="-0.44553">
        <ele>784.092529</ele>
        <time>2012-03-20T13:46:34Z</time>
      </trkpt>
      <trkpt lat="42.92447" lon="-0.44552">
        <ele>784.092529</ele>
        <time>2012-03-20T13:46:36Z</time>
      </trkpt>
      <trkpt lat="42.92441" lon="-0.44541">
        <ele>784.573242</ele>
        <time>2012-03-20T13:46:43Z</time>
      </trkpt>
      <trkpt lat="42.92434" lon="-0.44537">
        <ele>784.573242</ele>
        <time>2012-03-20T13:46:50Z</time>
      </trkpt>
      <trkpt lat="42.92423" lon="-0.44546">
        <ele>784.573242</ele>
        <time>2012-03-20T13:46:59Z</time>
      </trkpt>
      <trkpt lat="42.9242" lon="-0.44548">
        <ele>784.573242</ele>
        <time>2012-03-20T13:47:04Z</time>
      </trkpt>
      <trkpt lat="42.92405" lon="-0.44545">
        <ele>785.534424</ele>
        <time>2012-03-20T13:47:17Z</time>
      </trkpt>
      <trkpt lat="42.92391" lon="-0.44542">
        <ele>786.49585</ele>
        <time>2012-03-20T13:47:30Z</time>
      </trkpt>
      <trkpt lat="42.92378" lon="-0.44536">
        <ele>787.457031</ele>
        <time>2012-03-20T13:47:42Z</time>
      </trkpt>
      <trkpt lat="42.9237" lon="-0.44529">
        <ele>787.937744</ele>
        <time>2012-03-20T13:47:52Z</time>
      </trkpt>
      <trkpt lat="42.92362" lon="-0.44532">
        <ele>787.937744</ele>
        <time>2012-03-20T13:47:57Z</time>
      </trkpt>
      <trkpt lat="42.92355" lon="-0.44531">
        <ele>786.976318</ele>
        <time>2012-03-20T13:48:09Z</time>
      </trkpt>
      <trkpt lat="42.92351" lon="-0.44537">
        <ele>783.131104</ele>
        <time>2012-03-20T13:48:19Z</time>
      </trkpt>
      <trkpt lat="42.9235" lon="-0.44537">
        <ele>783.611816</ele>
        <time>2012-03-20T13:48:20Z</time>
      </trkpt>
      <trkpt lat="42.92339" lon="-0.44529">
        <ele>783.611816</ele>
        <time>2012-03-20T13:48:36Z</time>
      </trkpt>
      <trkpt lat="42.92333" lon="-0.44519">
        <ele>786.015137</ele>
        <time>2012-03-20T13:48:47Z</time>
      </trkpt>
      <trkpt lat="42.9233" lon="-0.44515">
        <ele>785.534424</ele>
        <time>2012-03-20T13:48:51Z</time>
      </trkpt>
      <trkpt lat="42.92325" lon="-0.44514">
        <ele>785.534424</ele>
        <time>2012-03-20T13:48:59Z</time>
      </trkpt>
      <trkpt lat="42.9232" lon="-0.44507">
        <ele>786.015137</ele>
        <time>2012-03-20T13:49:10Z</time>
      </trkpt>
      <trkpt lat="42.92314" lon="-0.445">
        <ele>786.976318</ele>
        <time>2012-03-20T13:49:21Z</time>
      </trkpt>
      <trkpt lat="42.92308" lon="-0.44494">
        <ele>788.89917</ele>
        <time>2012-03-20T13:49:31Z</time>
      </trkpt>
      <trkpt lat="42.92305" lon="-0.44487">
        <ele>790.821533</ele>
        <time>2012-03-20T13:49:42Z</time>
      </trkpt>
      <trkpt lat="42.92297" lon="-0.44482">
        <ele>790.821533</ele>
        <time>2012-03-20T13:49:53Z</time>
      </trkpt>
      <trkpt lat="42.92291" lon="-0.4448">
        <ele>790.341064</ele>
        <time>2012-03-20T13:50:00Z</time>
      </trkpt>
      <trkpt lat="42.92276" lon="-0.44482">
        <ele>789.379639</ele>
        <time>2012-03-20T13:50:14Z</time>
      </trkpt>
      <trkpt lat="42.92265" lon="-0.4448">
        <ele>788.89917</ele>
        <time>2012-03-20T13:50:25Z</time>
      </trkpt>
      <trkpt lat="42.92262" lon="-0.44477">
        <ele>788.418457</ele>
        <time>2012-03-20T13:50:29Z</time>
      </trkpt>
      <trkpt lat="42.92249" lon="-0.4447">
        <ele>787.457031</ele>
        <time>2012-03-20T13:50:42Z</time>
      </trkpt>
      <trkpt lat="42.92238" lon="-0.44468">
        <ele>787.457031</ele>
        <time>2012-03-20T13:50:54Z</time>
      </trkpt>
      <trkpt lat="42.92227" lon="-0.44462">
        <ele>788.418457</ele>
        <time>2012-03-20T13:51:06Z</time>
      </trkpt>
      <trkpt lat="42.92219" lon="-0.44459">
        <ele>789.379639</ele>
        <time>2012-03-20T13:51:13Z</time>
      </trkpt>
      <trkpt lat="42.92216" lon="-0.44458">
        <ele>788.89917</ele>
        <time>2012-03-20T13:51:16Z</time>
      </trkpt>
      <trkpt lat="42.92204" lon="-0.44452">
        <ele>789.379639</ele>
        <time>2012-03-20T13:51:27Z</time>
      </trkpt>
      <trkpt lat="42.92191" lon="-0.44441">
        <ele>789.379639</ele>
        <time>2012-03-20T13:51:41Z</time>
      </trkpt>
      <trkpt lat="42.92186" lon="-0.44433">
        <ele>789.860352</ele>
        <time>2012-03-20T13:51:48Z</time>
      </trkpt>
      <trkpt lat="42.92174" lon="-0.44424">
        <ele>791.302246</ele>
        <time>2012-03-20T13:52:00Z</time>
      </trkpt>
      <trkpt lat="42.92164" lon="-0.44418">
        <ele>790.821533</ele>
        <time>2012-03-20T13:52:13Z</time>
      </trkpt>
      <trkpt lat="42.92157" lon="-0.44415">
        <ele>791.302246</ele>
        <time>2012-03-20T13:52:20Z</time>
      </trkpt>
      <trkpt lat="42.92145" lon="-0.44402">
        <ele>792.263672</ele>
        <time>2012-03-20T13:52:34Z</time>
      </trkpt>
      <trkpt lat="42.92137" lon="-0.44394">
        <ele>792.263672</ele>
        <time>2012-03-20T13:52:44Z</time>
      </trkpt>
      <trkpt lat="42.92122" lon="-0.44386">
        <ele>793.224854</ele>
        <time>2012-03-20T13:52:58Z</time>
      </trkpt>
      <trkpt lat="42.92121" lon="-0.44385">
        <ele>793.224854</ele>
        <time>2012-03-20T13:52:59Z</time>
      </trkpt>
      <trkpt lat="42.92117" lon="-0.44381">
        <ele>793.705566</ele>
        <time>2012-03-20T13:53:04Z</time>
      </trkpt>
      <trkpt lat="42.92107" lon="-0.44361">
        <ele>793.705566</ele>
        <time>2012-03-20T13:53:19Z</time>
      </trkpt>
      <trkpt lat="42.921" lon="-0.44352">
        <ele>794.186279</ele>
        <time>2012-03-20T13:53:30Z</time>
      </trkpt>
      <trkpt lat="42.9209" lon="-0.44344">
        <ele>793.705566</ele>
        <time>2012-03-20T13:53:41Z</time>
      </trkpt>
      <trkpt lat="42.92082" lon="-0.44327">
        <ele>794.186279</ele>
        <time>2012-03-20T13:53:50Z</time>
      </trkpt>
      <trkpt lat="42.92071" lon="-0.4432">
        <ele>793.705566</ele>
        <time>2012-03-20T13:54:01Z</time>
      </trkpt>
      <trkpt lat="42.92069" lon="-0.44316">
        <ele>794.186279</ele>
        <time>2012-03-20T13:54:10Z</time>
      </trkpt>
      <trkpt lat="42.92069" lon="-0.44316">
        <ele>794.186279</ele>
        <time>2012-03-20T13:54:11Z</time>
      </trkpt>
      <trkpt lat="42.92069" lon="-0.44309">
        <ele>794.666748</ele>
        <time>2012-03-20T13:54:20Z</time>
      </trkpt>
      <trkpt lat="42.92069" lon="-0.44309">
        <ele>795.147461</ele>
        <time>2012-03-20T13:54:21Z</time>
      </trkpt>
      <trkpt lat="42.92057" lon="-0.44303">
        <ele>795.147461</ele>
        <time>2012-03-20T13:54:34Z</time>
      </trkpt>
      <trkpt lat="42.92048" lon="-0.44291">
        <ele>794.186279</ele>
        <time>2012-03-20T13:54:46Z</time>
      </trkpt>
      <trkpt lat="42.92044" lon="-0.44287">
        <ele>795.147461</ele>
        <time>2012-03-20T13:54:55Z</time>
      </trkpt>
      <trkpt lat="42.92043" lon="-0.44277">
        <ele>798.512207</ele>
        <time>2012-03-20T13:55:11Z</time>
      </trkpt>
      <trkpt lat="42.92037" lon="-0.44268">
        <ele>798.512207</ele>
        <time>2012-03-20T13:55:21Z</time>
      </trkpt>
      <trkpt lat="42.92031" lon="-0.4426">
        <ele>798.99292</ele>
        <time>2012-03-20T13:55:27Z</time>
      </trkpt>
      <trkpt lat="42.92021" lon="-0.44254">
        <ele>797.551025</ele>
        <time>2012-03-20T13:55:37Z</time>
      </trkpt>
      <trkpt lat="42.92015" lon="-0.4426">
        <ele>797.551025</ele>
        <time>2012-03-20T13:55:52Z</time>
      </trkpt>
      <trkpt lat="42.9201" lon="-0.44252">
        <ele>797.070312</ele>
        <time>2012-03-20T13:56:03Z</time>
      </trkpt>
      <trkpt lat="42.92003" lon="-0.44244">
        <ele>796.589844</ele>
        <time>2012-03-20T13:56:14Z</time>
      </trkpt>
      <trkpt lat="42.91992" lon="-0.44239">
        <ele>796.589844</ele>
        <time>2012-03-20T13:56:25Z</time>
      </trkpt>
      <trkpt lat="42.92" lon="-0.44227">
        <ele>799.473633</ele>
        <time>2012-03-20T13:56:36Z</time>
      </trkpt>
      <trkpt lat="42.91988" lon="-0.44222">
        <ele>799.954346</ele>
        <time>2012-03-20T13:56:49Z</time>
      </trkpt>
      <trkpt lat="42.9198" lon="-0.44224">
        <ele>798.512207</ele>
        <time>2012-03-20T13:56:56Z</time>
      </trkpt>
      <trkpt lat="42.91978" lon="-0.44224">
        <ele>798.031738</ele>
        <time>2012-03-20T13:57:00Z</time>
      </trkpt>
      <trkpt lat="42.91967" lon="-0.44224">
        <ele>797.551025</ele>
        <time>2012-03-20T13:57:13Z</time>
      </trkpt>
      <trkpt lat="42.91967" lon="-0.44216">
        <ele>798.99292</ele>
        <time>2012-03-20T13:57:21Z</time>
      </trkpt>
      <trkpt lat="42.91964" lon="-0.44211">
        <ele>798.512207</ele>
        <time>2012-03-20T13:57:24Z</time>
      </trkpt>
      <trkpt lat="42.91944" lon="-0.44208">
        <ele>798.512207</ele>
        <time>2012-03-20T13:57:38Z</time>
      </trkpt>
      <trkpt lat="42.9194" lon="-0.44209">
        <ele>798.512207</ele>
        <time>2012-03-20T13:57:40Z</time>
      </trkpt>
      <trkpt lat="42.91932" lon="-0.44199">
        <ele>798.99292</ele>
        <time>2012-03-20T13:57:52Z</time>
      </trkpt>
      <trkpt lat="42.91919" lon="-0.442">
        <ele>798.031738</ele>
        <time>2012-03-20T13:58:03Z</time>
      </trkpt>
      <trkpt lat="42.91917" lon="-0.442">
        <ele>798.031738</ele>
        <time>2012-03-20T13:58:16Z</time>
      </trkpt>
      <trkpt lat="42.91911" lon="-0.44193">
        <ele>797.551025</ele>
        <time>2012-03-20T13:58:28Z</time>
      </trkpt>
      <trkpt lat="42.91902" lon="-0.44189">
        <ele>798.031738</ele>
        <time>2012-03-20T13:58:37Z</time>
      </trkpt>
      <trkpt lat="42.91893" lon="-0.44185">
        <ele>798.031738</ele>
        <time>2012-03-20T13:58:44Z</time>
      </trkpt>
      <trkpt lat="42.91884" lon="-0.44184">
        <ele>798.99292</ele>
        <time>2012-03-20T13:58:50Z</time>
      </trkpt>
      <trkpt lat="42.91875" lon="-0.44181">
        <ele>799.473633</ele>
        <time>2012-03-20T13:58:56Z</time>
      </trkpt>
      <trkpt lat="42.91868" lon="-0.44177">
        <ele>799.473633</ele>
        <time>2012-03-20T13:59:02Z</time>
      </trkpt>
      <trkpt lat="42.91864" lon="-0.44165">
        <ele>799.473633</ele>
        <time>2012-03-20T13:59:12Z</time>
      </trkpt>
      <trkpt lat="42.91864" lon="-0.44161">
        <ele>799.954346</ele>
        <time>2012-03-20T13:59:14Z</time>
      </trkpt>
      <trkpt lat="42.91857" lon="-0.44157">
        <ele>799.954346</ele>
        <time>2012-03-20T13:59:20Z</time>
      </trkpt>
      <trkpt lat="42.91852" lon="-0.44145">
        <ele>799.954346</ele>
        <time>2012-03-20T13:59:27Z</time>
      </trkpt>
      <trkpt lat="42.91849" lon="-0.44138">
        <ele>800.435059</ele>
        <time>2012-03-20T13:59:33Z</time>
      </trkpt>
      <trkpt lat="42.91847" lon="-0.44125">
        <ele>800.915527</ele>
        <time>2012-03-20T13:59:40Z</time>
      </trkpt>
      <trkpt lat="42.91839" lon="-0.44116">
        <ele>801.39624</ele>
        <time>2012-03-20T13:59:52Z</time>
      </trkpt>
      <trkpt lat="42.9184" lon="-0.44096">
        <ele>802.357422</ele>
        <time>2012-03-20T14:00:04Z</time>
      </trkpt>
      <trkpt lat="42.91846" lon="-0.44085">
        <ele>803.318848</ele>
        <time>2012-03-20T14:00:11Z</time>
      </trkpt>
      <trkpt lat="42.91839" lon="-0.44078">
        <ele>803.799561</ele>
        <time>2012-03-20T14:00:16Z</time>
      </trkpt>
      <trkpt lat="42.91832" lon="-0.44068">
        <ele>804.760742</ele>
        <time>2012-03-20T14:00:27Z</time>
      </trkpt>
      <trkpt lat="42.91825" lon="-0.44057">
        <ele>804.280273</ele>
        <time>2012-03-20T14:01:00Z</time>
      </trkpt>
      <trkpt lat="42.91821" lon="-0.44039">
        <ele>804.280273</ele>
        <time>2012-03-20T14:01:22Z</time>
      </trkpt>
      <trkpt lat="42.91824" lon="-0.4403">
        <ele>803.799561</ele>
        <time>2012-03-20T14:01:37Z</time>
      </trkpt>
      <trkpt lat="42.91808" lon="-0.44037">
        <ele>805.241455</ele>
        <time>2012-03-20T14:01:58Z</time>
      </trkpt>
      <trkpt lat="42.91807" lon="-0.44029">
        <ele>804.280273</ele>
        <time>2012-03-20T14:02:14Z</time>
      </trkpt>
      <trkpt lat="42.91808" lon="-0.44023">
        <ele>804.280273</ele>
        <time>2012-03-20T14:02:19Z</time>
      </trkpt>
      <trkpt lat="42.9181" lon="-0.44004">
        <ele>804.280273</ele>
        <time>2012-03-20T14:02:33Z</time>
      </trkpt>
      <trkpt lat="42.91813" lon="-0.43998">
        <ele>804.760742</ele>
        <time>2012-03-20T14:02:37Z</time>
      </trkpt>
      <trkpt lat="42.9181" lon="-0.43985">
        <ele>804.280273</ele>
        <time>2012-03-20T14:02:47Z</time>
      </trkpt>
      <trkpt lat="42.91798" lon="-0.43989">
        <ele>805.241455</ele>
        <time>2012-03-20T14:03:06Z</time>
      </trkpt>
      <trkpt lat="42.91794" lon="-0.43981">
        <ele>804.280273</ele>
        <time>2012-03-20T14:03:18Z</time>
      </trkpt>
      <trkpt lat="42.91787" lon="-0.43962">
        <ele>804.280273</ele>
        <time>2012-03-20T14:03:32Z</time>
      </trkpt>
      <trkpt lat="42.91773" lon="-0.43954">
        <ele>804.760742</ele>
        <time>2012-03-20T14:03:47Z</time>
      </trkpt>
      <trkpt lat="42.91766" lon="-0.43948">
        <ele>805.241455</ele>
        <time>2012-03-20T14:03:57Z</time>
      </trkpt>
      <trkpt lat="42.91771" lon="-0.43921">
        <ele>805.722168</ele>
        <time>2012-03-20T14:04:08Z</time>
      </trkpt>
      <trkpt lat="42.91773" lon="-0.43906">
        <ele>806.202637</ele>
        <time>2012-03-20T14:04:16Z</time>
      </trkpt>
      <trkpt lat="42.91772" lon="-0.43887">
        <ele>808.125488</ele>
        <time>2012-03-20T14:04:31Z</time>
      </trkpt>
      <trkpt lat="42.9177" lon="-0.43876">
        <ele>811.009277</ele>
        <time>2012-03-20T14:04:45Z</time>
      </trkpt>
      <trkpt lat="42.9177" lon="-0.43874">
        <ele>811.970703</ele>
        <time>2012-03-20T14:04:47Z</time>
      </trkpt>
      <trkpt lat="42.91773" lon="-0.43866">
        <ele>815.816162</ele>
        <time>2012-03-20T14:05:02Z</time>
      </trkpt>
      <trkpt lat="42.91756" lon="-0.43852">
        <ele>818.219238</ele>
        <time>2012-03-20T14:05:29Z</time>
      </trkpt>
      <trkpt lat="42.91742" lon="-0.43833">
        <ele>818.219238</ele>
        <time>2012-03-20T14:05:57Z</time>
      </trkpt>
      <trkpt lat="42.91737" lon="-0.43826">
        <ele>817.738525</ele>
        <time>2012-03-20T14:06:06Z</time>
      </trkpt>
      <trkpt lat="42.91727" lon="-0.43816">
        <ele>819.661377</ele>
        <time>2012-03-20T14:06:18Z</time>
      </trkpt>
      <trkpt lat="42.91718" lon="-0.43806">
        <ele>821.58374</ele>
        <time>2012-03-20T14:06:27Z</time>
      </trkpt>
      <trkpt lat="42.91715" lon="-0.43799">
        <ele>823.506592</ele>
        <time>2012-03-20T14:06:37Z</time>
      </trkpt>
      <trkpt lat="42.91717" lon="-0.43792">
        <ele>823.987061</ele>
        <time>2012-03-20T14:06:44Z</time>
      </trkpt>
      <trkpt lat="42.91717" lon="-0.43789">
        <ele>825.909668</ele>
        <time>2012-03-20T14:06:48Z</time>
      </trkpt>
      <trkpt lat="42.91714" lon="-0.43782">
        <ele>827.832275</ele>
        <time>2012-03-20T14:06:57Z</time>
      </trkpt>
      <trkpt lat="42.91711" lon="-0.43779">
        <ele>827.351807</ele>
        <time>2012-03-20T14:07:01Z</time>
      </trkpt>
      <trkpt lat="42.91703" lon="-0.43777">
        <ele>826.390381</ele>
        <time>2012-03-20T14:07:14Z</time>
      </trkpt>
      <trkpt lat="42.91695" lon="-0.43765">
        <ele>826.871094</ele>
        <time>2012-03-20T14:07:25Z</time>
      </trkpt>
      <trkpt lat="42.9168" lon="-0.43766">
        <ele>827.832275</ele>
        <time>2012-03-20T14:07:33Z</time>
      </trkpt>
      <trkpt lat="42.91666" lon="-0.43759">
        <ele>828.313232</ele>
        <time>2012-03-20T14:07:45Z</time>
      </trkpt>
      <trkpt lat="42.91658" lon="-0.43746">
        <ele>826.871094</ele>
        <time>2012-03-20T14:07:54Z</time>
      </trkpt>
      <trkpt lat="42.91651" lon="-0.43738">
        <ele>828.313232</ele>
        <time>2012-03-20T14:08:03Z</time>
      </trkpt>
      <trkpt lat="42.91648" lon="-0.43737">
        <ele>828.313232</ele>
        <time>2012-03-20T14:08:06Z</time>
      </trkpt>
      <trkpt lat="42.91642" lon="-0.43725">
        <ele>831.197266</ele>
        <time>2012-03-20T14:08:19Z</time>
      </trkpt>
      <trkpt lat="42.91635" lon="-0.43718">
        <ele>833.119629</ele>
        <time>2012-03-20T14:08:29Z</time>
      </trkpt>
      <trkpt lat="42.91631" lon="-0.43711">
        <ele>833.600342</ele>
        <time>2012-03-20T14:08:38Z</time>
      </trkpt>
      <trkpt lat="42.91625" lon="-0.43705">
        <ele>833.119629</ele>
        <time>2012-03-20T14:08:47Z</time>
      </trkpt>
      <trkpt lat="42.9162" lon="-0.43699">
        <ele>834.081055</ele>
        <time>2012-03-20T14:08:58Z</time>
      </trkpt>
      <trkpt lat="42.91616" lon="-0.43694">
        <ele>834.561768</ele>
        <time>2012-03-20T14:09:02Z</time>
      </trkpt>
      <trkpt lat="42.91613" lon="-0.43692">
        <ele>834.561768</ele>
        <time>2012-03-20T14:09:05Z</time>
      </trkpt>
      <trkpt lat="42.91607" lon="-0.43686">
        <ele>834.561768</ele>
        <time>2012-03-20T14:09:11Z</time>
      </trkpt>
      <trkpt lat="42.91597" lon="-0.43678">
        <ele>836.003662</ele>
        <time>2012-03-20T14:09:21Z</time>
      </trkpt>
      <trkpt lat="42.9159" lon="-0.43668">
        <ele>837.92627</ele>
        <time>2012-03-20T14:09:32Z</time>
      </trkpt>
      <trkpt lat="42.91583" lon="-0.43657">
        <ele>839.368164</ele>
        <time>2012-03-20T14:09:41Z</time>
      </trkpt>
      <trkpt lat="42.91576" lon="-0.43654">
        <ele>841.290771</ele>
        <time>2012-03-20T14:09:48Z</time>
      </trkpt>
      <trkpt lat="42.9157" lon="-0.4365">
        <ele>841.290771</ele>
        <time>2012-03-20T14:09:56Z</time>
      </trkpt>
      <trkpt lat="42.91565" lon="-0.43646">
        <ele>841.771484</ele>
        <time>2012-03-20T14:10:01Z</time>
      </trkpt>
      <trkpt lat="42.9156" lon="-0.43637">
        <ele>841.771484</ele>
        <time>2012-03-20T14:10:07Z</time>
      </trkpt>
      <trkpt lat="42.91555" lon="-0.43632">
        <ele>841.771484</ele>
        <time>2012-03-20T14:10:11Z</time>
      </trkpt>
      <trkpt lat="42.91542" lon="-0.43624">
        <ele>840.32959</ele>
        <time>2012-03-20T14:10:23Z</time>
      </trkpt>
      <trkpt lat="42.91529" lon="-0.43621">
        <ele>841.290771</ele>
        <time>2012-03-20T14:10:37Z</time>
      </trkpt>
      <trkpt lat="42.91514" lon="-0.43618">
        <ele>841.771484</ele>
        <time>2012-03-20T14:10:50Z</time>
      </trkpt>
      <trkpt lat="42.9149" lon="-0.43612">
        <ele>841.290771</ele>
        <time>2012-03-20T14:11:07Z</time>
      </trkpt>
      <trkpt lat="42.91483" lon="-0.43608">
        <ele>841.771484</ele>
        <time>2012-03-20T14:11:12Z</time>
      </trkpt>
      <trkpt lat="42.91469" lon="-0.43601">
        <ele>841.290771</ele>
        <time>2012-03-20T14:11:25Z</time>
      </trkpt>
      <trkpt lat="42.91457" lon="-0.43592">
        <ele>843.213379</ele>
        <time>2012-03-20T14:11:38Z</time>
      </trkpt>
      <trkpt lat="42.91451" lon="-0.43578">
        <ele>843.213379</ele>
        <time>2012-03-20T14:11:54Z</time>
      </trkpt>
      <trkpt lat="42.9145" lon="-0.43563">
        <ele>843.213379</ele>
        <time>2012-03-20T14:12:06Z</time>
      </trkpt>
      <trkpt lat="42.91448" lon="-0.43554">
        <ele>844.655518</ele>
        <time>2012-03-20T14:12:22Z</time>
      </trkpt>
      <trkpt lat="42.91441" lon="-0.43547">
        <ele>845.13623</ele>
        <time>2012-03-20T14:12:35Z</time>
      </trkpt>
      <trkpt lat="42.91436" lon="-0.4354">
        <ele>845.616943</ele>
        <time>2012-03-20T14:12:42Z</time>
      </trkpt>
      <trkpt lat="42.91424" lon="-0.43528">
        <ele>845.616943</ele>
        <time>2012-03-20T14:12:56Z</time>
      </trkpt>
      <trkpt lat="42.91414" lon="-0.43524">
        <ele>846.097656</ele>
        <time>2012-03-20T14:13:11Z</time>
      </trkpt>
      <trkpt lat="42.91401" lon="-0.43516">
        <ele>845.616943</ele>
        <time>2012-03-20T14:13:24Z</time>
      </trkpt>
      <trkpt lat="42.91399" lon="-0.43515">
        <ele>846.097656</ele>
        <time>2012-03-20T14:13:27Z</time>
      </trkpt>
      <trkpt lat="42.91388" lon="-0.43506">
        <ele>847.539551</ele>
        <time>2012-03-20T14:13:40Z</time>
      </trkpt>
      <trkpt lat="42.9138" lon="-0.43495">
        <ele>847.539551</ele>
        <time>2012-03-20T14:13:48Z</time>
      </trkpt>
      <trkpt lat="42.91363" lon="-0.4349">
        <ele>848.981445</ele>
        <time>2012-03-20T14:14:04Z</time>
      </trkpt>
      <trkpt lat="42.91353" lon="-0.43486">
        <ele>848.981445</ele>
        <time>2012-03-20T14:14:20Z</time>
      </trkpt>
      <trkpt lat="42.91352" lon="-0.43485">
        <ele>847.539551</ele>
        <time>2012-03-20T14:14:32Z</time>
      </trkpt>
      <trkpt lat="42.91343" lon="-0.43485">
        <ele>847.058838</ele>
        <time>2012-03-20T14:14:46Z</time>
      </trkpt>
      <trkpt lat="42.9134" lon="-0.43494">
        <ele>845.616943</ele>
        <time>2012-03-20T14:14:57Z</time>
      </trkpt>
      <trkpt lat="42.91333" lon="-0.43491">
        <ele>847.539551</ele>
        <time>2012-03-20T14:15:18Z</time>
      </trkpt>
      <trkpt lat="42.91321" lon="-0.43479">
        <ele>848.020264</ele>
        <time>2012-03-20T14:15:32Z</time>
      </trkpt>
      <trkpt lat="42.91315" lon="-0.43474">
        <ele>846.578369</ele>
        <time>2012-03-20T14:15:38Z</time>
      </trkpt>
      <trkpt lat="42.91308" lon="-0.43466">
        <ele>845.616943</ele>
        <time>2012-03-20T14:15:57Z</time>
      </trkpt>
      <trkpt lat="42.91305" lon="-0.43462">
        <ele>846.578369</ele>
        <time>2012-03-20T14:16:03Z</time>
      </trkpt>
      <trkpt lat="42.91291" lon="-0.43454">
        <ele>845.13623</ele>
        <time>2012-03-20T14:16:13Z</time>
      </trkpt>
      <trkpt lat="42.91282" lon="-0.43447">
        <ele>845.13623</ele>
        <time>2012-03-20T14:16:22Z</time>
      </trkpt>
      <trkpt lat="42.91274" lon="-0.43443">
        <ele>846.097656</ele>
        <time>2012-03-20T14:16:29Z</time>
      </trkpt>
      <trkpt lat="42.91265" lon="-0.43436">
        <ele>846.097656</ele>
        <time>2012-03-20T14:16:36Z</time>
      </trkpt>
      <trkpt lat="42.91262" lon="-0.43433">
        <ele>846.097656</ele>
        <time>2012-03-20T14:16:40Z</time>
      </trkpt>
      <trkpt lat="42.91256" lon="-0.43426">
        <ele>845.13623</ele>
        <time>2012-03-20T14:16:44Z</time>
      </trkpt>
      <trkpt lat="42.91245" lon="-0.43422">
        <ele>843.694092</ele>
        <time>2012-03-20T14:16:58Z</time>
      </trkpt>
      <trkpt lat="42.91233" lon="-0.4343">
        <ele>841.771484</ele>
        <time>2012-03-20T14:17:12Z</time>
      </trkpt>
      <trkpt lat="42.91212" lon="-0.43458">
        <ele>840.32959</ele>
        <time>2012-03-20T14:17:30Z</time>
      </trkpt>
      <trkpt lat="42.91206" lon="-0.43473">
        <ele>839.368164</ele>
        <time>2012-03-20T14:17:41Z</time>
      </trkpt>
      <trkpt lat="42.91205" lon="-0.43486">
        <ele>837.92627</ele>
        <time>2012-03-20T14:17:48Z</time>
      </trkpt>
      <trkpt lat="42.91206" lon="-0.43496">
        <ele>837.445557</ele>
        <time>2012-03-20T14:17:55Z</time>
      </trkpt>
      <trkpt lat="42.91207" lon="-0.43512">
        <ele>835.522949</ele>
        <time>2012-03-20T14:18:09Z</time>
      </trkpt>
      <trkpt lat="42.91205" lon="-0.43526">
        <ele>835.522949</ele>
        <time>2012-03-20T14:18:18Z</time>
      </trkpt>
      <trkpt lat="42.91201" lon="-0.43533">
        <ele>835.522949</ele>
        <time>2012-03-20T14:18:33Z</time>
      </trkpt>
      <trkpt lat="42.912" lon="-0.43535">
        <ele>835.522949</ele>
        <time>2012-03-20T14:18:46Z</time>
      </trkpt>
      <trkpt lat="42.912" lon="-0.43532">
        <ele>835.522949</ele>
        <time>2012-03-20T14:19:06Z</time>
      </trkpt>
      <trkpt lat="42.91196" lon="-0.43537">
        <ele>834.561768</ele>
        <time>2012-03-20T14:19:29Z</time>
      </trkpt>
      <trkpt lat="42.91201" lon="-0.43533">
        <ele>834.561768</ele>
        <time>2012-03-20T14:19:45Z</time>
      </trkpt>
      <trkpt lat="42.91196" lon="-0.43529">
        <ele>834.561768</ele>
        <time>2012-03-20T14:20:19Z</time>
      </trkpt>
      <trkpt lat="42.91184" lon="-0.43535">
        <ele>834.081055</ele>
        <time>2012-03-20T14:20:54Z</time>
      </trkpt>
      <trkpt lat="42.91184" lon="-0.43542">
        <ele>834.081055</ele>
        <time>2012-03-20T14:21:11Z</time>
      </trkpt>
      <trkpt lat="42.91178" lon="-0.43559">
        <ele>833.119629</ele>
        <time>2012-03-20T14:21:23Z</time>
      </trkpt>
      <trkpt lat="42.91181" lon="-0.43572">
        <ele>832.158447</ele>
        <time>2012-03-20T14:21:33Z</time>
      </trkpt>
      <trkpt lat="42.91179" lon="-0.43576">
        <ele>832.158447</ele>
        <time>2012-03-20T14:21:35Z</time>
      </trkpt>
      <trkpt lat="42.91176" lon="-0.4359">
        <ele>829.755127</ele>
        <time>2012-03-20T14:21:45Z</time>
      </trkpt>
      <trkpt lat="42.91167" lon="-0.43604">
        <ele>827.832275</ele>
        <time>2012-03-20T14:21:58Z</time>
      </trkpt>
      <trkpt lat="42.91156" lon="-0.43615">
        <ele>825.428955</ele>
        <time>2012-03-20T14:22:11Z</time>
      </trkpt>
      <trkpt lat="42.91159" lon="-0.43621">
        <ele>825.428955</ele>
        <time>2012-03-20T14:22:26Z</time>
      </trkpt>
      <trkpt lat="42.91155" lon="-0.43608">
        <ele>826.871094</ele>
        <time>2012-03-20T14:22:37Z</time>
      </trkpt>
      <trkpt lat="42.91148" lon="-0.43602">
        <ele>827.351807</ele>
        <time>2012-03-20T14:22:44Z</time>
      </trkpt>
      <trkpt lat="42.91131" lon="-0.43593">
        <ele>829.755127</ele>
        <time>2012-03-20T14:23:01Z</time>
      </trkpt>
      <trkpt lat="42.91118" lon="-0.43584">
        <ele>831.677734</ele>
        <time>2012-03-20T14:23:17Z</time>
      </trkpt>
      <trkpt lat="42.91099" lon="-0.43574">
        <ele>833.119629</ele>
        <time>2012-03-20T14:23:35Z</time>
      </trkpt>
      <trkpt lat="42.91084" lon="-0.43562">
        <ele>836.003662</ele>
        <time>2012-03-20T14:23:52Z</time>
      </trkpt>
      <trkpt lat="42.91076" lon="-0.43552">
        <ele>836.003662</ele>
        <time>2012-03-20T14:24:03Z</time>
      </trkpt>
      <trkpt lat="42.91069" lon="-0.43548">
        <ele>836.484375</ele>
        <time>2012-03-20T14:24:10Z</time>
      </trkpt>
      <trkpt lat="42.91058" lon="-0.43538">
        <ele>839.848877</ele>
        <time>2012-03-20T14:24:25Z</time>
      </trkpt>
      <trkpt lat="42.91046" lon="-0.43527">
        <ele>842.73291</ele>
        <time>2012-03-20T14:24:42Z</time>
      </trkpt>
      <trkpt lat="42.91033" lon="-0.43514">
        <ele>845.616943</ele>
        <time>2012-03-20T14:25:00Z</time>
      </trkpt>
      <trkpt lat="42.91023" lon="-0.43497">
        <ele>848.981445</ele>
        <time>2012-03-20T14:25:17Z</time>
      </trkpt>
      <trkpt lat="42.91014" lon="-0.43485">
        <ele>851.384766</ele>
        <time>2012-03-20T14:25:29Z</time>
      </trkpt>
      <trkpt lat="42.91008" lon="-0.43477">
        <ele>854.268799</ele>
        <time>2012-03-20T14:25:39Z</time>
      </trkpt>
      <trkpt lat="42.91007" lon="-0.43476">
        <ele>854.268799</ele>
        <time>2012-03-20T14:25:40Z</time>
      </trkpt>
      <trkpt lat="42.90995" lon="-0.43467">
        <ele>855.22998</ele>
        <time>2012-03-20T14:25:50Z</time>
      </trkpt>
      <trkpt lat="42.90986" lon="-0.43461">
        <ele>856.191162</ele>
        <time>2012-03-20T14:25:59Z</time>
      </trkpt>
      <trkpt lat="42.90983" lon="-0.43456">
        <ele>857.152588</ele>
        <time>2012-03-20T14:26:03Z</time>
      </trkpt>
      <trkpt lat="42.90976" lon="-0.43435">
        <ele>860.517334</ele>
        <time>2012-03-20T14:26:21Z</time>
      </trkpt>
      <trkpt lat="42.90977" lon="-0.43419">
        <ele>861.47876</ele>
        <time>2012-03-20T14:26:31Z</time>
      </trkpt>
      <trkpt lat="42.90975" lon="-0.434">
        <ele>864.843262</ele>
        <time>2012-03-20T14:26:46Z</time>
      </trkpt>
      <trkpt lat="42.90975" lon="-0.43399">
        <ele>864.843262</ele>
        <time>2012-03-20T14:26:47Z</time>
      </trkpt>
      <trkpt lat="42.9097" lon="-0.43387">
        <ele>867.246582</ele>
        <time>2012-03-20T14:26:59Z</time>
      </trkpt>
      <trkpt lat="42.9096" lon="-0.43376">
        <ele>870.130371</ele>
        <time>2012-03-20T14:27:11Z</time>
      </trkpt>
      <trkpt lat="42.90957" lon="-0.43364">
        <ele>873.495117</ele>
        <time>2012-03-20T14:27:21Z</time>
      </trkpt>
      <trkpt lat="42.90952" lon="-0.43353">
        <ele>875.41748</ele>
        <time>2012-03-20T14:27:32Z</time>
      </trkpt>
      <trkpt lat="42.90945" lon="-0.43331">
        <ele>877.340576</ele>
        <time>2012-03-20T14:27:50Z</time>
      </trkpt>
      <trkpt lat="42.90943" lon="-0.43319">
        <ele>880.705078</ele>
        <time>2012-03-20T14:27:59Z</time>
      </trkpt>
      <trkpt lat="42.90947" lon="-0.43295">
        <ele>884.06958</ele>
        <time>2012-03-20T14:28:15Z</time>
      </trkpt>
      <trkpt lat="42.90947" lon="-0.43286">
        <ele>886.4729</ele>
        <time>2012-03-20T14:28:23Z</time>
      </trkpt>
      <trkpt lat="42.90947" lon="-0.43265">
        <ele>887.434082</ele>
        <time>2012-03-20T14:28:38Z</time>
      </trkpt>
      <trkpt lat="42.90947" lon="-0.43255">
        <ele>889.356689</ele>
        <time>2012-03-20T14:28:48Z</time>
      </trkpt>
      <trkpt lat="42.90943" lon="-0.43228">
        <ele>892.240967</ele>
        <time>2012-03-20T14:29:08Z</time>
      </trkpt>
      <trkpt lat="42.90944" lon="-0.43226">
        <ele>892.72168</ele>
        <time>2012-03-20T14:29:10Z</time>
      </trkpt>
      <trkpt lat="42.90942" lon="-0.43216">
        <ele>895.124756</ele>
        <time>2012-03-20T14:29:18Z</time>
      </trkpt>
      <trkpt lat="42.90945" lon="-0.43198">
        <ele>898.008789</ele>
        <time>2012-03-20T14:29:31Z</time>
      </trkpt>
      <trkpt lat="42.90945" lon="-0.43196">
        <ele>898.489258</ele>
        <time>2012-03-20T14:29:33Z</time>
      </trkpt>
      <trkpt lat="42.90942" lon="-0.43174">
        <ele>900.892578</ele>
        <time>2012-03-20T14:29:50Z</time>
      </trkpt>
      <trkpt lat="42.9094" lon="-0.4316">
        <ele>903.776611</ele>
        <time>2012-03-20T14:30:01Z</time>
      </trkpt>
      <trkpt lat="42.90937" lon="-0.43149">
        <ele>905.218506</ele>
        <time>2012-03-20T14:30:09Z</time>
      </trkpt>
      <trkpt lat="42.90933" lon="-0.43138">
        <ele>907.621826</ele>
        <time>2012-03-20T14:30:20Z</time>
      </trkpt>
      <trkpt lat="42.90929" lon="-0.43127">
        <ele>909.544678</ele>
        <time>2012-03-20T14:30:30Z</time>
      </trkpt>
      <trkpt lat="42.90926" lon="-0.43116">
        <ele>912.428467</ele>
        <time>2012-03-20T14:30:39Z</time>
      </trkpt>
      <trkpt lat="42.90924" lon="-0.43094">
        <ele>914.831787</ele>
        <time>2012-03-20T14:30:57Z</time>
      </trkpt>
      <trkpt lat="42.90927" lon="-0.43082">
        <ele>916.273682</ele>
        <time>2012-03-20T14:31:09Z</time>
      </trkpt>
      <trkpt lat="42.90928" lon="-0.43077">
        <ele>918.196289</ele>
        <time>2012-03-20T14:31:14Z</time>
      </trkpt>
      <trkpt lat="42.90932" lon="-0.43063">
        <ele>920.118896</ele>
        <time>2012-03-20T14:31:27Z</time>
      </trkpt>
      <trkpt lat="42.90934" lon="-0.4305">
        <ele>923.483643</ele>
        <time>2012-03-20T14:31:41Z</time>
      </trkpt>
      <trkpt lat="42.90937" lon="-0.43037">
        <ele>925.886963</ele>
        <time>2012-03-20T14:31:53Z</time>
      </trkpt>
      <trkpt lat="42.90939" lon="-0.43033">
        <ele>927.80957</ele>
        <time>2012-03-20T14:31:59Z</time>
      </trkpt>
      <trkpt lat="42.90944" lon="-0.43023">
        <ele>929.732178</ele>
        <time>2012-03-20T14:32:09Z</time>
      </trkpt>
      <trkpt lat="42.90939" lon="-0.43023">
        <ele>930.693604</ele>
        <time>2012-03-20T14:32:15Z</time>
      </trkpt>
      <trkpt lat="42.90936" lon="-0.43019">
        <ele>931.174316</ele>
        <time>2012-03-20T14:32:32Z</time>
      </trkpt>
      <trkpt lat="42.90937" lon="-0.43014">
        <ele>932.135498</ele>
        <time>2012-03-20T14:32:45Z</time>
      </trkpt>
      <trkpt lat="42.90934" lon="-0.43015">
        <ele>931.654785</ele>
        <time>2012-03-20T14:32:57Z</time>
      </trkpt>
      <trkpt lat="42.90937" lon="-0.43023">
        <ele>928.770996</ele>
        <time>2012-03-20T14:42:31Z</time>
      </trkpt>
      <trkpt lat="42.90928" lon="-0.43006">
        <ele>930.212891</ele>
        <time>2012-03-20T14:43:09Z</time>
      </trkpt>
      <trkpt lat="42.90932" lon="-0.43001">
        <ele>933.577393</ele>
        <time>2012-03-20T14:43:42Z</time>
      </trkpt>
      <trkpt lat="42.90929" lon="-0.42991">
        <ele>934.058105</ele>
        <time>2012-03-20T14:43:57Z</time>
      </trkpt>
      <trkpt lat="42.90929" lon="-0.4299">
        <ele>933.577393</ele>
        <time>2012-03-20T14:43:58Z</time>
      </trkpt>
      <trkpt lat="42.90932" lon="-0.42979">
        <ele>934.058105</ele>
        <time>2012-03-20T14:44:09Z</time>
      </trkpt>
      <trkpt lat="42.90932" lon="-0.42979">
        <ele>934.058105</ele>
        <time>2012-03-20T14:44:10Z</time>
      </trkpt>
      <trkpt lat="42.90935" lon="-0.42966">
        <ele>935.019531</ele>
        <time>2012-03-20T14:44:21Z</time>
      </trkpt>
      <trkpt lat="42.90934" lon="-0.42951">
        <ele>937.90332</ele>
        <time>2012-03-20T14:44:37Z</time>
      </trkpt>
      <trkpt lat="42.90934" lon="-0.42941">
        <ele>940.787354</ele>
        <time>2012-03-20T14:44:49Z</time>
      </trkpt>
      <trkpt lat="42.90941" lon="-0.42933">
        <ele>943.671387</ele>
        <time>2012-03-20T14:45:04Z</time>
      </trkpt>
      <trkpt lat="42.90943" lon="-0.42925">
        <ele>945.113281</ele>
        <time>2012-03-20T14:45:18Z</time>
      </trkpt>
      <trkpt lat="42.90945" lon="-0.42921">
        <ele>948.477783</ele>
        <time>2012-03-20T14:45:33Z</time>
      </trkpt>
      <trkpt lat="42.90947" lon="-0.42912">
        <ele>951.361816</ele>
        <time>2012-03-20T14:45:57Z</time>
      </trkpt>
      <trkpt lat="42.90947" lon="-0.42911">
        <ele>951.842529</ele>
        <time>2012-03-20T14:45:58Z</time>
      </trkpt>
      <trkpt lat="42.90947" lon="-0.42902">
        <ele>952.803711</ele>
        <time>2012-03-20T14:46:14Z</time>
      </trkpt>
      <trkpt lat="42.90935" lon="-0.42897">
        <ele>955.687744</ele>
        <time>2012-03-20T14:46:26Z</time>
      </trkpt>
      <trkpt lat="42.90934" lon="-0.42896">
        <ele>956.64917</ele>
        <time>2012-03-20T14:46:28Z</time>
      </trkpt>
      <trkpt lat="42.9093" lon="-0.42891">
        <ele>956.64917</ele>
        <time>2012-03-20T14:46:33Z</time>
      </trkpt>
      <trkpt lat="42.90918" lon="-0.42877">
        <ele>954.726318</ele>
        <time>2012-03-20T14:46:47Z</time>
      </trkpt>
      <trkpt lat="42.90911" lon="-0.4287">
        <ele>953.284424</ele>
        <time>2012-03-20T14:46:58Z</time>
      </trkpt>
      <trkpt lat="42.90903" lon="-0.4286">
        <ele>954.24585</ele>
        <time>2012-03-20T14:47:08Z</time>
      </trkpt>
      <trkpt lat="42.90892" lon="-0.42848">
        <ele>954.24585</ele>
        <time>2012-03-20T14:47:20Z</time>
      </trkpt>
      <trkpt lat="42.90885" lon="-0.42841">
        <ele>954.726318</ele>
        <time>2012-03-20T14:47:29Z</time>
      </trkpt>
      <trkpt lat="42.9087" lon="-0.42834">
        <ele>955.207031</ele>
        <time>2012-03-20T14:47:40Z</time>
      </trkpt>
      <trkpt lat="42.90863" lon="-0.42825">
        <ele>956.168457</ele>
        <time>2012-03-20T14:47:49Z</time>
      </trkpt>
      <trkpt lat="42.90855" lon="-0.4282">
        <ele>955.687744</ele>
        <time>2012-03-20T14:47:58Z</time>
      </trkpt>
      <trkpt lat="42.90841" lon="-0.42811">
        <ele>954.726318</ele>
        <time>2012-03-20T14:48:08Z</time>
      </trkpt>
      <trkpt lat="42.90838" lon="-0.42813">
        <ele>955.207031</ele>
        <time>2012-03-20T14:48:12Z</time>
      </trkpt>
      <trkpt lat="42.90824" lon="-0.42808">
        <ele>955.687744</ele>
        <time>2012-03-20T14:48:24Z</time>
      </trkpt>
      <trkpt lat="42.90814" lon="-0.42813">
        <ele>956.168457</ele>
        <time>2012-03-20T14:48:34Z</time>
      </trkpt>
      <trkpt lat="42.90805" lon="-0.42822">
        <ele>955.687744</ele>
        <time>2012-03-20T14:48:44Z</time>
      </trkpt>
      <trkpt lat="42.90795" lon="-0.42831">
        <ele>954.726318</ele>
        <time>2012-03-20T14:48:52Z</time>
      </trkpt>
      <trkpt lat="42.90783" lon="-0.42834">
        <ele>956.168457</ele>
        <time>2012-03-20T14:49:04Z</time>
      </trkpt>
      <trkpt lat="42.90774" lon="-0.42838">
        <ele>957.610596</ele>
        <time>2012-03-20T14:49:16Z</time>
      </trkpt>
      <trkpt lat="42.90765" lon="-0.42842">
        <ele>959.05249</ele>
        <time>2012-03-20T14:49:27Z</time>
      </trkpt>
      <trkpt lat="42.90758" lon="-0.42842">
        <ele>961.936523</ele>
        <time>2012-03-20T14:49:38Z</time>
      </trkpt>
      <trkpt lat="42.9075" lon="-0.42842">
        <ele>963.858887</ele>
        <time>2012-03-20T14:49:49Z</time>
      </trkpt>
      <trkpt lat="42.90742" lon="-0.42845">
        <ele>965.781738</ele>
        <time>2012-03-20T14:50:02Z</time>
      </trkpt>
      <trkpt lat="42.90733" lon="-0.42845">
        <ele>968.665527</ele>
        <time>2012-03-20T14:50:14Z</time>
      </trkpt>
      <trkpt lat="42.90726" lon="-0.42843">
        <ele>971.549316</ele>
        <time>2012-03-20T14:50:22Z</time>
      </trkpt>
      <trkpt lat="42.90725" lon="-0.42843">
        <ele>971.068848</ele>
        <time>2012-03-20T14:50:23Z</time>
      </trkpt>
      <trkpt lat="42.90722" lon="-0.42843">
        <ele>972.510986</ele>
        <time>2012-03-20T14:50:27Z</time>
      </trkpt>
      <trkpt lat="42.90716" lon="-0.42846">
        <ele>973.472412</ele>
        <time>2012-03-20T14:50:38Z</time>
      </trkpt>
      <trkpt lat="42.90705" lon="-0.42852">
        <ele>973.952881</ele>
        <time>2012-03-20T14:50:50Z</time>
      </trkpt>
      <trkpt lat="42.90697" lon="-0.42859">
        <ele>972.030273</ele>
        <time>2012-03-20T14:51:00Z</time>
      </trkpt>
      <trkpt lat="42.90687" lon="-0.42859">
        <ele>975.394775</ele>
        <time>2012-03-20T14:51:10Z</time>
      </trkpt>
      <trkpt lat="42.90677" lon="-0.42857">
        <ele>974.914307</ele>
        <time>2012-03-20T14:51:19Z</time>
      </trkpt>
      <trkpt lat="42.90666" lon="-0.42856">
        <ele>975.394775</ele>
        <time>2012-03-20T14:51:33Z</time>
      </trkpt>
      <trkpt lat="42.90646" lon="-0.42864">
        <ele>971.549316</ele>
        <time>2012-03-20T14:51:52Z</time>
      </trkpt>
      <trkpt lat="42.90635" lon="-0.42866">
        <ele>972.510986</ele>
        <time>2012-03-20T14:52:07Z</time>
      </trkpt>
      <trkpt lat="42.90624" lon="-0.42864">
        <ele>971.549316</ele>
        <time>2012-03-20T14:52:26Z</time>
      </trkpt>
      <trkpt lat="42.90612" lon="-0.42862">
        <ele>973.952881</ele>
        <time>2012-03-20T14:52:37Z</time>
      </trkpt>
      <trkpt lat="42.90611" lon="-0.42862">
        <ele>975.875488</ele>
        <time>2012-03-20T14:52:42Z</time>
      </trkpt>
      <trkpt lat="42.90603" lon="-0.42866">
        <ele>979.720703</ele>
        <time>2012-03-20T14:52:51Z</time>
      </trkpt>
      <trkpt lat="42.90602" lon="-0.42865">
        <ele>979.23999</ele>
        <time>2012-03-20T14:52:52Z</time>
      </trkpt>
      <trkpt lat="42.90589" lon="-0.4286">
        <ele>978.278809</ele>
        <time>2012-03-20T14:53:09Z</time>
      </trkpt>
      <trkpt lat="42.90579" lon="-0.42863">
        <ele>980.201416</ele>
        <time>2012-03-20T14:53:27Z</time>
      </trkpt>
      <trkpt lat="42.90562" lon="-0.42858">
        <ele>976.836914</ele>
        <time>2012-03-20T14:53:43Z</time>
      </trkpt>
      <trkpt lat="42.90544" lon="-0.42873">
        <ele>978.759521</ele>
        <time>2012-03-20T14:53:59Z</time>
      </trkpt>
      <trkpt lat="42.90533" lon="-0.4286">
        <ele>979.720703</ele>
        <time>2012-03-20T14:54:15Z</time>
      </trkpt>
      <trkpt lat="42.90521" lon="-0.42858">
        <ele>978.759521</ele>
        <time>2012-03-20T14:54:29Z</time>
      </trkpt>
      <trkpt lat="42.90507" lon="-0.42852">
        <ele>979.23999</ele>
        <time>2012-03-20T14:54:41Z</time>
      </trkpt>
      <trkpt lat="42.90491" lon="-0.42858">
        <ele>979.23999</ele>
        <time>2012-03-20T14:54:55Z</time>
      </trkpt>
      <trkpt lat="42.90488" lon="-0.42861">
        <ele>979.720703</ele>
        <time>2012-03-20T14:54:57Z</time>
      </trkpt>
      <trkpt lat="42.9048" lon="-0.42868">
        <ele>980.201416</ele>
        <time>2012-03-20T14:55:07Z</time>
      </trkpt>
      <trkpt lat="42.90473" lon="-0.42872">
        <ele>978.759521</ele>
        <time>2012-03-20T14:55:17Z</time>
      </trkpt>
      <trkpt lat="42.90452" lon="-0.42881">
        <ele>975.875488</ele>
        <time>2012-03-20T14:55:37Z</time>
      </trkpt>
      <trkpt lat="42.90448" lon="-0.4288">
        <ele>974.914307</ele>
        <time>2012-03-20T14:55:40Z</time>
      </trkpt>
      <trkpt lat="42.90437" lon="-0.42888">
        <ele>973.952881</ele>
        <time>2012-03-20T14:55:51Z</time>
      </trkpt>
      <trkpt lat="42.9043" lon="-0.42896">
        <ele>974.914307</ele>
        <time>2012-03-20T14:56:00Z</time>
      </trkpt>
      <trkpt lat="42.90418" lon="-0.42902">
        <ele>977.317627</ele>
        <time>2012-03-20T14:56:13Z</time>
      </trkpt>
      <trkpt lat="42.90413" lon="-0.42902">
        <ele>980.201416</ele>
        <time>2012-03-20T14:56:23Z</time>
      </trkpt>
      <trkpt lat="42.90408" lon="-0.42903">
        <ele>983.085205</ele>
        <time>2012-03-20T14:56:33Z</time>
      </trkpt>
      <trkpt lat="42.90399" lon="-0.42899">
        <ele>986.449951</ele>
        <time>2012-03-20T14:56:49Z</time>
      </trkpt>
      <trkpt lat="42.90385" lon="-0.42902">
        <ele>987.891846</ele>
        <time>2012-03-20T14:57:05Z</time>
      </trkpt>
      <trkpt lat="42.90375" lon="-0.42901">
        <ele>990.29541</ele>
        <time>2012-03-20T14:57:17Z</time>
      </trkpt>
      <trkpt lat="42.90364" lon="-0.42901">
        <ele>993.179199</ele>
        <time>2012-03-20T14:57:28Z</time>
      </trkpt>
      <trkpt lat="42.90351" lon="-0.42904">
        <ele>994.621094</ele>
        <time>2012-03-20T14:57:43Z</time>
      </trkpt>
      <trkpt lat="42.90341" lon="-0.42907">
        <ele>995.101807</ele>
        <time>2012-03-20T14:57:55Z</time>
      </trkpt>
      <trkpt lat="42.90339" lon="-0.42907">
        <ele>995.101807</ele>
        <time>2012-03-20T14:57:57Z</time>
      </trkpt>
      <trkpt lat="42.90328" lon="-0.42904">
        <ele>993.179199</ele>
        <time>2012-03-20T14:58:09Z</time>
      </trkpt>
      <trkpt lat="42.90315" lon="-0.42898">
        <ele>990.29541</ele>
        <time>2012-03-20T14:58:22Z</time>
      </trkpt>
      <trkpt lat="42.90309" lon="-0.42897">
        <ele>990.29541</ele>
        <time>2012-03-20T14:58:30Z</time>
      </trkpt>
      <trkpt lat="42.90303" lon="-0.42895">
        <ele>988.372803</ele>
        <time>2012-03-20T14:58:37Z</time>
      </trkpt>
      <trkpt lat="42.903" lon="-0.42897">
        <ele>988.372803</ele>
        <time>2012-03-20T14:58:40Z</time>
      </trkpt>
      <trkpt lat="42.90297" lon="-0.42902">
        <ele>987.891846</ele>
        <time>2012-03-20T14:58:44Z</time>
      </trkpt>
      <trkpt lat="42.90289" lon="-0.42904">
        <ele>986.449951</ele>
        <time>2012-03-20T14:58:51Z</time>
      </trkpt>
      <trkpt lat="42.9028" lon="-0.42915">
        <ele>985.008057</ele>
        <time>2012-03-20T14:59:03Z</time>
      </trkpt>
      <trkpt lat="42.90279" lon="-0.42917">
        <ele>984.527344</ele>
        <time>2012-03-20T14:59:13Z</time>
      </trkpt>
      <trkpt lat="42.90272" lon="-0.42927">
        <ele>983.085205</ele>
        <time>2012-03-20T14:59:22Z</time>
      </trkpt>
      <trkpt lat="42.90269" lon="-0.42936">
        <ele>980.682129</ele>
        <time>2012-03-20T14:59:32Z</time>
      </trkpt>
      <trkpt lat="42.90269" lon="-0.42938">
        <ele>980.201416</ele>
        <time>2012-03-20T14:59:34Z</time>
      </trkpt>
      <trkpt lat="42.90266" lon="-0.42945">
        <ele>977.317627</ele>
        <time>2012-03-20T14:59:44Z</time>
      </trkpt>
      <trkpt lat="42.9026" lon="-0.42955">
        <ele>975.875488</ele>
        <time>2012-03-20T14:59:55Z</time>
      </trkpt>
      <trkpt lat="42.90255" lon="-0.42967">
        <ele>975.875488</ele>
        <time>2012-03-20T15:00:04Z</time>
      </trkpt>
      <trkpt lat="42.90245" lon="-0.42982">
        <ele>973.952881</ele>
        <time>2012-03-20T15:00:23Z</time>
      </trkpt>
      <trkpt lat="42.90237" lon="-0.42981">
        <ele>974.433594</ele>
        <time>2012-03-20T15:00:30Z</time>
      </trkpt>
      <trkpt lat="42.9023" lon="-0.42991">
        <ele>971.068848</ele>
        <time>2012-03-20T15:00:40Z</time>
      </trkpt>
      <trkpt lat="42.90225" lon="-0.43004">
        <ele>968.665527</ele>
        <time>2012-03-20T15:00:52Z</time>
      </trkpt>
      <trkpt lat="42.9021" lon="-0.43009">
        <ele>969.14624</ele>
        <time>2012-03-20T15:01:07Z</time>
      </trkpt>
      <trkpt lat="42.90201" lon="-0.43015">
        <ele>969.14624</ele>
        <time>2012-03-20T15:01:19Z</time>
      </trkpt>
      <trkpt lat="42.90191" lon="-0.43017">
        <ele>969.626953</ele>
        <time>2012-03-20T15:01:31Z</time>
      </trkpt>
      <trkpt lat="42.9018" lon="-0.43021">
        <ele>970.107422</ele>
        <time>2012-03-20T15:01:43Z</time>
      </trkpt>
      <trkpt lat="42.90174" lon="-0.43036">
        <ele>971.549316</ele>
        <time>2012-03-20T15:01:54Z</time>
      </trkpt>
      <trkpt lat="42.90172" lon="-0.43041">
        <ele>971.549316</ele>
        <time>2012-03-20T15:01:57Z</time>
      </trkpt>
      <trkpt lat="42.90164" lon="-0.43069">
        <ele>969.626953</ele>
        <time>2012-03-20T15:02:12Z</time>
      </trkpt>
      <trkpt lat="42.90159" lon="-0.43084">
        <ele>968.184814</ele>
        <time>2012-03-20T15:02:22Z</time>
      </trkpt>
      <trkpt lat="42.90154" lon="-0.43094">
        <ele>965.781738</ele>
        <time>2012-03-20T15:02:34Z</time>
      </trkpt>
      <trkpt lat="42.90153" lon="-0.431">
        <ele>965.301025</ele>
        <time>2012-03-20T15:02:39Z</time>
      </trkpt>
      <trkpt lat="42.90152" lon="-0.43104">
        <ele>963.858887</ele>
        <time>2012-03-20T15:02:41Z</time>
      </trkpt>
      <trkpt lat="42.90149" lon="-0.43108">
        <ele>961.936523</ele>
        <time>2012-03-20T15:02:47Z</time>
      </trkpt>
      <trkpt lat="42.90145" lon="-0.4311">
        <ele>961.455811</ele>
        <time>2012-03-20T15:02:49Z</time>
      </trkpt>
      <trkpt lat="42.90148" lon="-0.43115">
        <ele>958.571777</ele>
        <time>2012-03-20T15:03:01Z</time>
      </trkpt>
      <trkpt lat="42.90155" lon="-0.43115">
        <ele>955.687744</ele>
        <time>2012-03-20T15:03:12Z</time>
      </trkpt>
      <trkpt lat="42.90152" lon="-0.43115">
        <ele>955.687744</ele>
        <time>2012-03-20T15:03:16Z</time>
      </trkpt>
      <trkpt lat="42.90142" lon="-0.43121">
        <ele>955.207031</ele>
        <time>2012-03-20T15:03:27Z</time>
      </trkpt>
      <trkpt lat="42.90131" lon="-0.43133">
        <ele>952.803711</ele>
        <time>2012-03-20T15:03:42Z</time>
      </trkpt>
      <trkpt lat="42.90126" lon="-0.43137">
        <ele>952.803711</ele>
        <time>2012-03-20T15:03:48Z</time>
      </trkpt>
      <trkpt lat="42.90123" lon="-0.43145">
        <ele>950.881104</ele>
        <time>2012-03-20T15:04:02Z</time>
      </trkpt>
      <trkpt lat="42.90111" lon="-0.43153">
        <ele>950.400635</ele>
        <time>2012-03-20T15:04:46Z</time>
      </trkpt>
      <trkpt lat="42.9011" lon="-0.4316">
        <ele>947.997314</ele>
        <time>2012-03-20T15:04:57Z</time>
      </trkpt>
      <trkpt lat="42.90114" lon="-0.43171">
        <ele>946.074707</ele>
        <time>2012-03-20T15:05:07Z</time>
      </trkpt>
      <trkpt lat="42.90115" lon="-0.43187">
        <ele>943.190674</ele>
        <time>2012-03-20T15:05:23Z</time>
      </trkpt>
      <trkpt lat="42.90116" lon="-0.43188">
        <ele>941.268066</ele>
        <time>2012-03-20T15:05:29Z</time>
      </trkpt>
      <trkpt lat="42.90107" lon="-0.43194">
        <ele>944.632568</ele>
        <time>2012-03-20T15:06:33Z</time>
      </trkpt>
      <trkpt lat="42.90096" lon="-0.43196">
        <ele>945.593994</ele>
        <time>2012-03-20T15:06:48Z</time>
      </trkpt>
      <trkpt lat="42.90088" lon="-0.43204">
        <ele>947.516602</ele>
        <time>2012-03-20T15:07:00Z</time>
      </trkpt>
      <trkpt lat="42.9008" lon="-0.43215">
        <ele>947.997314</ele>
        <time>2012-03-20T15:07:12Z</time>
      </trkpt>
      <trkpt lat="42.90072" lon="-0.4323">
        <ele>949.439209</ele>
        <time>2012-03-20T15:07:25Z</time>
      </trkpt>
      <trkpt lat="42.90065" lon="-0.4324">
        <ele>950.881104</ele>
        <time>2012-03-20T15:07:35Z</time>
      </trkpt>
      <trkpt lat="42.90057" lon="-0.4325">
        <ele>951.842529</ele>
        <time>2012-03-20T15:07:47Z</time>
      </trkpt>
      <trkpt lat="42.90048" lon="-0.43264">
        <ele>953.765137</ele>
        <time>2012-03-20T15:08:01Z</time>
      </trkpt>
      <trkpt lat="42.90046" lon="-0.43265">
        <ele>953.284424</ele>
        <time>2012-03-20T15:08:03Z</time>
      </trkpt>
      <trkpt lat="42.90031" lon="-0.43278">
        <ele>955.207031</ele>
        <time>2012-03-20T15:08:20Z</time>
      </trkpt>
      <trkpt lat="42.90019" lon="-0.43277">
        <ele>955.687744</ele>
        <time>2012-03-20T15:08:33Z</time>
      </trkpt>
      <trkpt lat="42.90008" lon="-0.43282">
        <ele>956.168457</ele>
        <time>2012-03-20T15:08:45Z</time>
      </trkpt>
      <trkpt lat="42.89995" lon="-0.43291">
        <ele>957.129883</ele>
        <time>2012-03-20T15:08:58Z</time>
      </trkpt>
      <trkpt lat="42.89989" lon="-0.43293">
        <ele>960.494385</ele>
        <time>2012-03-20T15:09:06Z</time>
      </trkpt>
      <trkpt lat="42.89982" lon="-0.43293">
        <ele>962.897705</ele>
        <time>2012-03-20T15:09:17Z</time>
      </trkpt>
      <trkpt lat="42.89973" lon="-0.4329">
        <ele>964.3396</ele>
        <time>2012-03-20T15:09:28Z</time>
      </trkpt>
      <trkpt lat="42.89965" lon="-0.43285">
        <ele>963.858887</ele>
        <time>2012-03-20T15:09:40Z</time>
      </trkpt>
      <trkpt lat="42.8996" lon="-0.43283">
        <ele>965.301025</ele>
        <time>2012-03-20T15:09:46Z</time>
      </trkpt>
      <trkpt lat="42.89954" lon="-0.43271">
        <ele>966.74292</ele>
        <time>2012-03-20T15:09:58Z</time>
      </trkpt>
      <trkpt lat="42.89947" lon="-0.43263">
        <ele>969.14624</ele>
        <time>2012-03-20T15:10:09Z</time>
      </trkpt>
      <trkpt lat="42.89941" lon="-0.43261">
        <ele>971.068848</ele>
        <time>2012-03-20T15:10:15Z</time>
      </trkpt>
      <trkpt lat="42.89932" lon="-0.43262">
        <ele>973.472412</ele>
        <time>2012-03-20T15:10:26Z</time>
      </trkpt>
      <trkpt lat="42.89921" lon="-0.4326">
        <ele>974.433594</ele>
        <time>2012-03-20T15:10:37Z</time>
      </trkpt>
      <trkpt lat="42.89912" lon="-0.43262">
        <ele>977.317627</ele>
        <time>2012-03-20T15:10:48Z</time>
      </trkpt>
      <trkpt lat="42.89894" lon="-0.43266">
        <ele>980.682129</ele>
        <time>2012-03-20T15:11:05Z</time>
      </trkpt>
      <trkpt lat="42.89886" lon="-0.43271">
        <ele>983.565918</ele>
        <time>2012-03-20T15:11:16Z</time>
      </trkpt>
      <trkpt lat="42.89883" lon="-0.43284">
        <ele>985.969238</ele>
        <time>2012-03-20T15:11:29Z</time>
      </trkpt>
      <trkpt lat="42.89889" lon="-0.43293">
        <ele>988.853516</ele>
        <time>2012-03-20T15:11:41Z</time>
      </trkpt>
      <trkpt lat="42.89894" lon="-0.43301">
        <ele>991.256592</ele>
        <time>2012-03-20T15:11:54Z</time>
      </trkpt>
      <trkpt lat="42.89891" lon="-0.43307">
        <ele>992.218018</ele>
        <time>2012-03-20T15:12:03Z</time>
      </trkpt>
      <trkpt lat="42.89883" lon="-0.43306">
        <ele>992.218018</ele>
        <time>2012-03-20T15:12:20Z</time>
      </trkpt>
      <trkpt lat="42.89887" lon="-0.43297">
        <ele>992.218018</ele>
        <time>2012-03-20T15:14:26Z</time>
      </trkpt>
      <trkpt lat="42.8988" lon="-0.43295">
        <ele>993.179199</ele>
        <time>2012-03-20T15:16:22Z</time>
      </trkpt>
      <trkpt lat="42.89867" lon="-0.43297">
        <ele>994.621094</ele>
        <time>2012-03-20T15:16:36Z</time>
      </trkpt>
      <trkpt lat="42.89856" lon="-0.43293">
        <ele>994.621094</ele>
        <time>2012-03-20T15:16:47Z</time>
      </trkpt>
      <trkpt lat="42.89839" lon="-0.43281">
        <ele>995.101807</ele>
        <time>2012-03-20T15:17:03Z</time>
      </trkpt>
      <trkpt lat="42.89821" lon="-0.43265">
        <ele>997.98584</ele>
        <time>2012-03-20T15:17:21Z</time>
      </trkpt>
      <trkpt lat="42.89806" lon="-0.4325">
        <ele>998.466309</ele>
        <time>2012-03-20T15:17:36Z</time>
      </trkpt>
      <trkpt lat="42.89791" lon="-0.43234">
        <ele>999.908447</ele>
        <time>2012-03-20T15:17:51Z</time>
      </trkpt>
      <trkpt lat="42.89776" lon="-0.43221">
        <ele>1001.831055</ele>
        <time>2012-03-20T15:18:05Z</time>
      </trkpt>
      <trkpt lat="42.8976" lon="-0.43205">
        <ele>1002.792236</ele>
        <time>2012-03-20T15:18:22Z</time>
      </trkpt>
      <trkpt lat="42.89744" lon="-0.43189">
        <ele>1004.234619</ele>
        <time>2012-03-20T15:18:38Z</time>
      </trkpt>
      <trkpt lat="42.89729" lon="-0.43174">
        <ele>1007.118408</ele>
        <time>2012-03-20T15:18:54Z</time>
      </trkpt>
      <trkpt lat="42.89711" lon="-0.43161">
        <ele>1007.599121</ele>
        <time>2012-03-20T15:19:10Z</time>
      </trkpt>
      <trkpt lat="42.89709" lon="-0.43159">
        <ele>1006.637695</ele>
        <time>2012-03-20T15:19:12Z</time>
      </trkpt>
      <trkpt lat="42.897" lon="-0.43157">
        <ele>1008.079834</ele>
        <time>2012-03-20T15:19:23Z</time>
      </trkpt>
      <trkpt lat="42.89692" lon="-0.43159">
        <ele>1010.002197</ele>
        <time>2012-03-20T15:19:37Z</time>
      </trkpt>
      <trkpt lat="42.89682" lon="-0.43155">
        <ele>1013.366943</ele>
        <time>2012-03-20T15:19:49Z</time>
      </trkpt>
      <trkpt lat="42.89681" lon="-0.43155">
        <ele>1013.366943</ele>
        <time>2012-03-20T15:19:51Z</time>
      </trkpt>
      <trkpt lat="42.89666" lon="-0.4315">
        <ele>1014.808838</ele>
        <time>2012-03-20T15:20:02Z</time>
      </trkpt>
      <trkpt lat="42.89651" lon="-0.43138">
        <ele>1016.250732</ele>
        <time>2012-03-20T15:20:17Z</time>
      </trkpt>
      <trkpt lat="42.89638" lon="-0.43126">
        <ele>1018.17334</ele>
        <time>2012-03-20T15:20:32Z</time>
      </trkpt>
      <trkpt lat="42.89619" lon="-0.43117">
        <ele>1019.615479</ele>
        <time>2012-03-20T15:20:49Z</time>
      </trkpt>
      <trkpt lat="42.89613" lon="-0.43116">
        <ele>1020.576904</ele>
        <time>2012-03-20T15:20:54Z</time>
      </trkpt>
      <trkpt lat="42.89609" lon="-0.43113">
        <ele>1021.538086</ele>
        <time>2012-03-20T15:20:58Z</time>
      </trkpt>
      <trkpt lat="42.89595" lon="-0.43107">
        <ele>1022.499512</ele>
        <time>2012-03-20T15:21:12Z</time>
      </trkpt>
      <trkpt lat="42.89584" lon="-0.43098">
        <ele>1022.980225</ele>
        <time>2012-03-20T15:21:23Z</time>
      </trkpt>
      <trkpt lat="42.89569" lon="-0.4308">
        <ele>1023.941406</ele>
        <time>2012-03-20T15:21:40Z</time>
      </trkpt>
      <trkpt lat="42.89566" lon="-0.43073">
        <ele>1024.422119</ele>
        <time>2012-03-20T15:21:46Z</time>
      </trkpt>
      <trkpt lat="42.89556" lon="-0.43051">
        <ele>1026.825439</ele>
        <time>2012-03-20T15:22:02Z</time>
      </trkpt>
      <trkpt lat="42.89545" lon="-0.4303">
        <ele>1027.786621</ele>
        <time>2012-03-20T15:22:19Z</time>
      </trkpt>
      <trkpt lat="42.89537" lon="-0.43016">
        <ele>1031.151367</ele>
        <time>2012-03-20T15:22:31Z</time>
      </trkpt>
      <trkpt lat="42.89526" lon="-0.43005">
        <ele>1032.593262</ele>
        <time>2012-03-20T15:22:46Z</time>
      </trkpt>
      <trkpt lat="42.89519" lon="-0.43">
        <ele>1032.593262</ele>
        <time>2012-03-20T15:23:15Z</time>
      </trkpt>
      <trkpt lat="42.89488" lon="-0.42994">
        <ele>1031.151367</ele>
        <time>2012-03-20T15:23:41Z</time>
      </trkpt>
      <trkpt lat="42.89465" lon="-0.42991">
        <ele>1029.709229</ele>
        <time>2012-03-20T15:24:00Z</time>
      </trkpt>
      <trkpt lat="42.89438" lon="-0.42985">
        <ele>1029.228516</ele>
        <time>2012-03-20T15:24:22Z</time>
      </trkpt>
      <trkpt lat="42.89429" lon="-0.42981">
        <ele>1027.306152</ele>
        <time>2012-03-20T15:24:39Z</time>
      </trkpt>
      <trkpt lat="42.89425" lon="-0.42978">
        <ele>1027.306152</ele>
        <time>2012-03-20T15:24:49Z</time>
      </trkpt>
      <trkpt lat="42.89421" lon="-0.42978">
        <ele>1027.306152</ele>
        <time>2012-03-20T15:24:52Z</time>
      </trkpt>
      <trkpt lat="42.89395" lon="-0.42969">
        <ele>1027.306152</ele>
        <time>2012-03-20T15:25:14Z</time>
      </trkpt>
      <trkpt lat="42.89368" lon="-0.42963">
        <ele>1027.786621</ele>
        <time>2012-03-20T15:25:35Z</time>
      </trkpt>
      <trkpt lat="42.89345" lon="-0.4296">
        <ele>1029.228516</ele>
        <time>2012-03-20T15:25:52Z</time>
      </trkpt>
      <trkpt lat="42.8932" lon="-0.42961">
        <ele>1029.709229</ele>
        <time>2012-03-20T15:26:12Z</time>
      </trkpt>
      <trkpt lat="42.89292" lon="-0.42968">
        <ele>1030.670654</ele>
        <time>2012-03-20T15:26:34Z</time>
      </trkpt>
      <trkpt lat="42.89261" lon="-0.4296">
        <ele>1032.112549</ele>
        <time>2012-03-20T15:26:58Z</time>
      </trkpt>
      <trkpt lat="42.89235" lon="-0.4295">
        <ele>1033.07373</ele>
        <time>2012-03-20T15:27:19Z</time>
      </trkpt>
      <trkpt lat="42.89214" lon="-0.42929">
        <ele>1033.554443</ele>
        <time>2012-03-20T15:27:40Z</time>
      </trkpt>
      <trkpt lat="42.89188" lon="-0.429">
        <ele>1033.554443</ele>
        <time>2012-03-20T15:28:05Z</time>
      </trkpt>
      <trkpt lat="42.89177" lon="-0.42889">
        <ele>1034.035156</ele>
        <time>2012-03-20T15:28:20Z</time>
      </trkpt>
      <trkpt lat="42.8915" lon="-0.42872">
        <ele>1034.996582</ele>
        <time>2012-03-20T15:28:44Z</time>
      </trkpt>
      <trkpt lat="42.89148" lon="-0.42871">
        <ele>1035.957764</ele>
        <time>2012-03-20T15:28:46Z</time>
      </trkpt>
      <trkpt lat="42.89143" lon="-0.42871">
        <ele>1036.438721</ele>
        <time>2012-03-20T15:29:02Z</time>
      </trkpt>
      <trkpt lat="42.89144" lon="-0.4287">
        <ele>1036.438721</ele>
        <time>2012-03-20T15:29:09Z</time>
      </trkpt>
      <trkpt lat="42.89119" lon="-0.42857">
        <ele>1038.842041</ele>
        <time>2012-03-20T15:29:32Z</time>
      </trkpt>
      <trkpt lat="42.8909" lon="-0.42841">
        <ele>1040.764404</ele>
        <time>2012-03-20T15:29:58Z</time>
      </trkpt>
      <trkpt lat="42.89081" lon="-0.42835">
        <ele>1040.764404</ele>
        <time>2012-03-20T15:30:16Z</time>
      </trkpt>
      <trkpt lat="42.89083" lon="-0.42843">
        <ele>1041.72583</ele>
        <time>2012-03-20T15:30:49Z</time>
      </trkpt>
      <trkpt lat="42.89083" lon="-0.42837">
        <ele>1041.72583</ele>
        <time>2012-03-20T15:31:32Z</time>
      </trkpt>
      <trkpt lat="42.89078" lon="-0.42837">
        <ele>1041.245117</ele>
        <time>2012-03-20T15:32:16Z</time>
      </trkpt>
      <trkpt lat="42.89073" lon="-0.42833">
        <ele>1041.245117</ele>
        <time>2012-03-20T15:32:31Z</time>
      </trkpt>
      <trkpt lat="42.89068" lon="-0.42829">
        <ele>1041.72583</ele>
        <time>2012-03-20T15:32:38Z</time>
      </trkpt>
      <trkpt lat="42.8905" lon="-0.42818">
        <ele>1041.72583</ele>
        <time>2012-03-20T15:32:57Z</time>
      </trkpt>
      <trkpt lat="42.89048" lon="-0.42817">
        <ele>1042.206543</ele>
        <time>2012-03-20T15:32:59Z</time>
      </trkpt>
      <trkpt lat="42.89041" lon="-0.42815">
        <ele>1042.687256</ele>
        <time>2012-03-20T15:33:05Z</time>
      </trkpt>
      <trkpt lat="42.89019" lon="-0.42799">
        <ele>1041.72583</ele>
        <time>2012-03-20T15:33:29Z</time>
      </trkpt>
      <trkpt lat="42.89019" lon="-0.42796">
        <ele>1042.687256</ele>
        <time>2012-03-20T15:33:53Z</time>
      </trkpt>
      <trkpt lat="42.89005" lon="-0.42793">
        <ele>1041.72583</ele>
        <time>2012-03-20T15:34:31Z</time>
      </trkpt>
      <trkpt lat="42.88994" lon="-0.42791">
        <ele>1041.72583</ele>
        <time>2012-03-20T15:34:40Z</time>
      </trkpt>
      <trkpt lat="42.88973" lon="-0.42782">
        <ele>1040.764404</ele>
        <time>2012-03-20T15:34:57Z</time>
      </trkpt>
      <trkpt lat="42.88942" lon="-0.42774">
        <ele>1040.283936</ele>
        <time>2012-03-20T15:35:21Z</time>
      </trkpt>
      <trkpt lat="42.88915" lon="-0.42765">
        <ele>1039.32251</ele>
        <time>2012-03-20T15:35:43Z</time>
      </trkpt>
      <trkpt lat="42.88889" lon="-0.42754">
        <ele>1038.842041</ele>
        <time>2012-03-20T15:36:03Z</time>
      </trkpt>
      <trkpt lat="42.88857" lon="-0.42737">
        <ele>1037.880615</ele>
        <time>2012-03-20T15:36:28Z</time>
      </trkpt>
      <trkpt lat="42.88834" lon="-0.42731">
        <ele>1038.361328</ele>
        <time>2012-03-20T15:36:46Z</time>
      </trkpt>
      <trkpt lat="42.88827" lon="-0.42734">
        <ele>1039.32251</ele>
        <time>2012-03-20T15:36:57Z</time>
      </trkpt>
      <trkpt lat="42.88801" lon="-0.42733">
        <ele>1040.283936</ele>
        <time>2012-03-20T15:37:19Z</time>
      </trkpt>
      <trkpt lat="42.88797" lon="-0.42734">
        <ele>1041.245117</ele>
        <time>2012-03-20T15:37:22Z</time>
      </trkpt>
      <trkpt lat="42.88795" lon="-0.42735">
        <ele>1040.764404</ele>
        <time>2012-03-20T15:37:25Z</time>
      </trkpt>
      <trkpt lat="42.88782" lon="-0.42741">
        <ele>1041.72583</ele>
        <time>2012-03-20T15:37:35Z</time>
      </trkpt>
      <trkpt lat="42.88756" lon="-0.42739">
        <ele>1043.648438</ele>
        <time>2012-03-20T15:37:57Z</time>
      </trkpt>
      <trkpt lat="42.88738" lon="-0.42741">
        <ele>1044.609619</ele>
        <time>2012-03-20T15:38:13Z</time>
      </trkpt>
      <trkpt lat="42.88718" lon="-0.42732">
        <ele>1046.051758</ele>
        <time>2012-03-20T15:38:32Z</time>
      </trkpt>
      <trkpt lat="42.887" lon="-0.42709">
        <ele>1047.493652</ele>
        <time>2012-03-20T15:38:53Z</time>
      </trkpt>
      <trkpt lat="42.88689" lon="-0.42681">
        <ele>1049.896973</ele>
        <time>2012-03-20T15:39:13Z</time>
      </trkpt>
      <trkpt lat="42.88691" lon="-0.42664">
        <ele>1050.377686</ele>
        <time>2012-03-20T15:39:27Z</time>
      </trkpt>
      <trkpt lat="42.88691" lon="-0.42642">
        <ele>1051.81958</ele>
        <time>2012-03-20T15:39:44Z</time>
      </trkpt>
      <trkpt lat="42.88688" lon="-0.42633">
        <ele>1051.81958</ele>
        <time>2012-03-20T15:39:58Z</time>
      </trkpt>
      <trkpt lat="42.88687" lon="-0.42633">
        <ele>1053.261719</ele>
        <time>2012-03-20T15:40:18Z</time>
      </trkpt>
      <trkpt lat="42.88686" lon="-0.42633">
        <ele>1054.223145</ele>
        <time>2012-03-20T15:40:31Z</time>
      </trkpt>
    </trkseg>
  </trk>
</gpx>